<?xml version="1.0" encoding="UTF-8" standalone="no" ?>
<gpx xmlns="http://www.topografix.com/GPX/1/1" xmlns:xsi="http://www.w3.org/2001/XMLSchema-instance" xsi:schemaLocation="http://www.topografix.com/GPX/1/1 http://www.topografix.com/GPX/1/1/gpx.xsd" version="1.1" creator="VisuGPX - https://www.visugpx.com">
  <metadata>
    <name>Aiguille de Peclet depuis Val Thorens</name>
    <desc><![CDATA[L'orage est prévu, il faut partir tôt et tenir l'horaire. Neige molle et regel en une couche mince de surface. Plus haut ça ira mieux et même juste comme il faut. La course est belle, la montée est continue sans jamais être trop soutenue ou exposée. Les derniers mètres se font à pieds dans un neige souple ou nos pieds taillent les marches ad hoc. Pour la descente nous avons choisi de tirer le plus à droite possible pour éviter de pousser sur les bâtons. Gagné !
La neige profondément molle aura raison de mon équilibre. Résultat : 1 ski cassé. La saison est finie...
Et l'orage ? Il était en embuscade et nous a attrapé à la sortie du bistro.

Des photos : 
[https://photos.app.goo.gl/IQzEzCgSk9O7rg502]
[/https://photos.app.goo.gl/IQzEzCgSk9O7rg502]]]></desc>
  </metadata>
  <trk>
    <name><![CDATA[Peclet_180526]]></name>
    <trkseg>
      <trkpt lat="45.29528" lon="6.58561">
        <ele>2338.06</ele>
        <time>2018-05-26T05:20:28Z</time>
      </trkpt>
      <trkpt lat="45.29526" lon="6.58558">
        <ele>2337.1</ele>
        <time>2018-05-26T05:20:42Z</time>
      </trkpt>
      <trkpt lat="45.29516" lon="6.58543">
        <ele>2338.06</ele>
        <time>2018-05-26T05:20:56Z</time>
      </trkpt>
      <trkpt lat="45.29513" lon="6.58535">
        <ele>2336.62</ele>
        <time>2018-05-26T05:21:04Z</time>
      </trkpt>
      <trkpt lat="45.29512" lon="6.58533">
        <ele>2336.62</ele>
        <time>2018-05-26T05:21:05Z</time>
      </trkpt>
      <trkpt lat="45.29503" lon="6.58536">
        <ele>2334.7</ele>
        <time>2018-05-26T05:21:16Z</time>
      </trkpt>
      <trkpt lat="45.29485" lon="6.58536">
        <ele>2332.3</ele>
        <time>2018-05-26T05:21:32Z</time>
      </trkpt>
      <trkpt lat="45.29482" lon="6.58541">
        <ele>2332.3</ele>
        <time>2018-05-26T05:21:36Z</time>
      </trkpt>
      <trkpt lat="45.29476" lon="6.58543">
        <ele>2332.78</ele>
        <time>2018-05-26T05:21:49Z</time>
      </trkpt>
      <trkpt lat="45.29475" lon="6.58543">
        <ele>2334.22</ele>
        <time>2018-05-26T05:21:52Z</time>
      </trkpt>
      <trkpt lat="45.29467" lon="6.58544">
        <ele>2333.74</ele>
        <time>2018-05-26T05:22:06Z</time>
      </trkpt>
      <trkpt lat="45.29462" lon="6.58537">
        <ele>2334.22</ele>
        <time>2018-05-26T05:22:16Z</time>
      </trkpt>
      <trkpt lat="45.29454" lon="6.58525">
        <ele>2333.26</ele>
        <time>2018-05-26T05:22:31Z</time>
      </trkpt>
      <trkpt lat="45.29452" lon="6.5852">
        <ele>2334.22</ele>
        <time>2018-05-26T05:22:47Z</time>
      </trkpt>
      <trkpt lat="45.29452" lon="6.5852">
        <ele>2333.26</ele>
        <time>2018-05-26T05:23:05Z</time>
      </trkpt>
      <trkpt lat="45.29455" lon="6.58524">
        <ele>2333.74</ele>
        <time>2018-05-26T05:23:32Z</time>
      </trkpt>
      <trkpt lat="45.29453" lon="6.58522">
        <ele>2333.74</ele>
        <time>2018-05-26T05:23:59Z</time>
      </trkpt>
      <trkpt lat="45.29452" lon="6.58527">
        <ele>2333.74</ele>
        <time>2018-05-26T05:24:21Z</time>
      </trkpt>
      <trkpt lat="45.2945" lon="6.58528">
        <ele>2333.74</ele>
        <time>2018-05-26T05:24:45Z</time>
      </trkpt>
      <trkpt lat="45.2945" lon="6.58523">
        <ele>2333.26</ele>
        <time>2018-05-26T05:25:10Z</time>
      </trkpt>
      <trkpt lat="45.29447" lon="6.58514">
        <ele>2333.26</ele>
        <time>2018-05-26T05:25:23Z</time>
      </trkpt>
      <trkpt lat="45.29438" lon="6.58501">
        <ele>2333.26</ele>
        <time>2018-05-26T05:25:39Z</time>
      </trkpt>
      <trkpt lat="45.2943" lon="6.58488">
        <ele>2332.78</ele>
        <time>2018-05-26T05:25:52Z</time>
      </trkpt>
      <trkpt lat="45.29427" lon="6.58479">
        <ele>2332.78</ele>
        <time>2018-05-26T05:26:01Z</time>
      </trkpt>
      <trkpt lat="45.2942" lon="6.58467">
        <ele>2332.78</ele>
        <time>2018-05-26T05:26:13Z</time>
      </trkpt>
      <trkpt lat="45.29416" lon="6.58459">
        <ele>2331.81</ele>
        <time>2018-05-26T05:26:21Z</time>
      </trkpt>
      <trkpt lat="45.29408" lon="6.58443">
        <ele>2331.81</ele>
        <time>2018-05-26T05:26:34Z</time>
      </trkpt>
      <trkpt lat="45.29406" lon="6.58436">
        <ele>2332.78</ele>
        <time>2018-05-26T05:26:40Z</time>
      </trkpt>
      <trkpt lat="45.29398" lon="6.5842">
        <ele>2332.78</ele>
        <time>2018-05-26T05:26:54Z</time>
      </trkpt>
      <trkpt lat="45.29393" lon="6.58407">
        <ele>2334.22</ele>
        <time>2018-05-26T05:27:07Z</time>
      </trkpt>
      <trkpt lat="45.29385" lon="6.58395">
        <ele>2334.7</ele>
        <time>2018-05-26T05:27:20Z</time>
      </trkpt>
      <trkpt lat="45.29381" lon="6.58389">
        <ele>2335.18</ele>
        <time>2018-05-26T05:27:27Z</time>
      </trkpt>
      <trkpt lat="45.29376" lon="6.58383">
        <ele>2334.7</ele>
        <time>2018-05-26T05:27:35Z</time>
      </trkpt>
      <trkpt lat="45.29367" lon="6.58373">
        <ele>2334.7</ele>
        <time>2018-05-26T05:27:49Z</time>
      </trkpt>
      <trkpt lat="45.29366" lon="6.58372">
        <ele>2335.18</ele>
        <time>2018-05-26T05:27:51Z</time>
      </trkpt>
      <trkpt lat="45.29359" lon="6.58362">
        <ele>2336.14</ele>
        <time>2018-05-26T05:28:05Z</time>
      </trkpt>
      <trkpt lat="45.29358" lon="6.58362">
        <ele>2336.62</ele>
        <time>2018-05-26T05:28:06Z</time>
      </trkpt>
      <trkpt lat="45.29347" lon="6.5835">
        <ele>2338.54</ele>
        <time>2018-05-26T05:28:21Z</time>
      </trkpt>
      <trkpt lat="45.29338" lon="6.58341">
        <ele>2339.51</ele>
        <time>2018-05-26T05:28:35Z</time>
      </trkpt>
      <trkpt lat="45.29328" lon="6.58332">
        <ele>2339.99</ele>
        <time>2018-05-26T05:28:50Z</time>
      </trkpt>
      <trkpt lat="45.29319" lon="6.58325">
        <ele>2341.43</ele>
        <time>2018-05-26T05:29:03Z</time>
      </trkpt>
      <trkpt lat="45.29309" lon="6.58321">
        <ele>2342.39</ele>
        <time>2018-05-26T05:29:18Z</time>
      </trkpt>
      <trkpt lat="45.29298" lon="6.58321">
        <ele>2342.87</ele>
        <time>2018-05-26T05:29:31Z</time>
      </trkpt>
      <trkpt lat="45.29289" lon="6.5832">
        <ele>2342.87</ele>
        <time>2018-05-26T05:29:41Z</time>
      </trkpt>
      <trkpt lat="45.29277" lon="6.58322">
        <ele>2343.83</ele>
        <time>2018-05-26T05:29:55Z</time>
      </trkpt>
      <trkpt lat="45.29274" lon="6.58323">
        <ele>2343.83</ele>
        <time>2018-05-26T05:29:58Z</time>
      </trkpt>
      <trkpt lat="45.29266" lon="6.58324">
        <ele>2344.31</ele>
        <time>2018-05-26T05:30:08Z</time>
      </trkpt>
      <trkpt lat="45.29255" lon="6.58327">
        <ele>2343.35</ele>
        <time>2018-05-26T05:30:19Z</time>
      </trkpt>
      <trkpt lat="45.29241" lon="6.58331">
        <ele>2343.83</ele>
        <time>2018-05-26T05:30:33Z</time>
      </trkpt>
      <trkpt lat="45.29238" lon="6.58332">
        <ele>2343.83</ele>
        <time>2018-05-26T05:30:36Z</time>
      </trkpt>
      <trkpt lat="45.29226" lon="6.58333">
        <ele>2343.35</ele>
        <time>2018-05-26T05:30:50Z</time>
      </trkpt>
      <trkpt lat="45.2922" lon="6.58334">
        <ele>2343.35</ele>
        <time>2018-05-26T05:30:56Z</time>
      </trkpt>
      <trkpt lat="45.29207" lon="6.58336">
        <ele>2344.79</ele>
        <time>2018-05-26T05:31:10Z</time>
      </trkpt>
      <trkpt lat="45.29197" lon="6.58336">
        <ele>2346.23</ele>
        <time>2018-05-26T05:31:22Z</time>
      </trkpt>
      <trkpt lat="45.29192" lon="6.58337">
        <ele>2345.75</ele>
        <time>2018-05-26T05:31:27Z</time>
      </trkpt>
      <trkpt lat="45.2918" lon="6.5834">
        <ele>2347.2</ele>
        <time>2018-05-26T05:31:41Z</time>
      </trkpt>
      <trkpt lat="45.29178" lon="6.5834">
        <ele>2347.68</ele>
        <time>2018-05-26T05:31:45Z</time>
      </trkpt>
      <trkpt lat="45.29166" lon="6.58341">
        <ele>2348.16</ele>
        <time>2018-05-26T05:31:59Z</time>
      </trkpt>
      <trkpt lat="45.29157" lon="6.58344">
        <ele>2349.6</ele>
        <time>2018-05-26T05:32:13Z</time>
      </trkpt>
      <trkpt lat="45.29149" lon="6.58347">
        <ele>2350.56</ele>
        <time>2018-05-26T05:32:22Z</time>
      </trkpt>
      <trkpt lat="45.29138" lon="6.5835">
        <ele>2350.56</ele>
        <time>2018-05-26T05:32:37Z</time>
      </trkpt>
      <trkpt lat="45.29128" lon="6.58353">
        <ele>2352</ele>
        <time>2018-05-26T05:32:51Z</time>
      </trkpt>
      <trkpt lat="45.29117" lon="6.58354">
        <ele>2351.04</ele>
        <time>2018-05-26T05:33:04Z</time>
      </trkpt>
      <trkpt lat="45.29101" lon="6.58355">
        <ele>2350.56</ele>
        <time>2018-05-26T05:33:18Z</time>
      </trkpt>
      <trkpt lat="45.29091" lon="6.58354">
        <ele>2350.56</ele>
        <time>2018-05-26T05:33:29Z</time>
      </trkpt>
      <trkpt lat="45.29082" lon="6.58357">
        <ele>2350.08</ele>
        <time>2018-05-26T05:33:41Z</time>
      </trkpt>
      <trkpt lat="45.2907" lon="6.58356">
        <ele>2350.56</ele>
        <time>2018-05-26T05:33:54Z</time>
      </trkpt>
      <trkpt lat="45.29057" lon="6.58359">
        <ele>2350.08</ele>
        <time>2018-05-26T05:34:08Z</time>
      </trkpt>
      <trkpt lat="45.2905" lon="6.58361">
        <ele>2350.56</ele>
        <time>2018-05-26T05:34:17Z</time>
      </trkpt>
      <trkpt lat="45.2904" lon="6.58365">
        <ele>2351.04</ele>
        <time>2018-05-26T05:34:29Z</time>
      </trkpt>
      <trkpt lat="45.2903" lon="6.58368">
        <ele>2352</ele>
        <time>2018-05-26T05:34:40Z</time>
      </trkpt>
      <trkpt lat="45.29024" lon="6.58372">
        <ele>2352.96</ele>
        <time>2018-05-26T05:34:48Z</time>
      </trkpt>
      <trkpt lat="45.29019" lon="6.58373">
        <ele>2352.96</ele>
        <time>2018-05-26T05:34:54Z</time>
      </trkpt>
      <trkpt lat="45.2901" lon="6.58377">
        <ele>2354.41</ele>
        <time>2018-05-26T05:35:07Z</time>
      </trkpt>
      <trkpt lat="45.29006" lon="6.58379">
        <ele>2353.93</ele>
        <time>2018-05-26T05:35:13Z</time>
      </trkpt>
      <trkpt lat="45.28997" lon="6.58383">
        <ele>2356.33</ele>
        <time>2018-05-26T05:35:28Z</time>
      </trkpt>
      <trkpt lat="45.28985" lon="6.58385">
        <ele>2357.29</ele>
        <time>2018-05-26T05:35:42Z</time>
      </trkpt>
      <trkpt lat="45.28974" lon="6.58387">
        <ele>2358.73</ele>
        <time>2018-05-26T05:35:54Z</time>
      </trkpt>
      <trkpt lat="45.28971" lon="6.58388">
        <ele>2359.21</ele>
        <time>2018-05-26T05:35:58Z</time>
      </trkpt>
      <trkpt lat="45.28958" lon="6.58394">
        <ele>2360.65</ele>
        <time>2018-05-26T05:36:12Z</time>
      </trkpt>
      <trkpt lat="45.28948" lon="6.58397">
        <ele>2359.21</ele>
        <time>2018-05-26T05:36:26Z</time>
      </trkpt>
      <trkpt lat="45.28948" lon="6.58399">
        <ele>2359.69</ele>
        <time>2018-05-26T05:36:29Z</time>
      </trkpt>
      <trkpt lat="45.28935" lon="6.58402">
        <ele>2360.65</ele>
        <time>2018-05-26T05:36:43Z</time>
      </trkpt>
      <trkpt lat="45.28931" lon="6.58403">
        <ele>2361.14</ele>
        <time>2018-05-26T05:36:47Z</time>
      </trkpt>
      <trkpt lat="45.28925" lon="6.58405">
        <ele>2361.14</ele>
        <time>2018-05-26T05:36:53Z</time>
      </trkpt>
      <trkpt lat="45.28923" lon="6.58407">
        <ele>2361.62</ele>
        <time>2018-05-26T05:36:57Z</time>
      </trkpt>
      <trkpt lat="45.28912" lon="6.58409">
        <ele>2362.58</ele>
        <time>2018-05-26T05:37:12Z</time>
      </trkpt>
      <trkpt lat="45.28901" lon="6.58416">
        <ele>2364.5</ele>
        <time>2018-05-26T05:37:25Z</time>
      </trkpt>
      <trkpt lat="45.28892" lon="6.58419">
        <ele>2364.98</ele>
        <time>2018-05-26T05:37:37Z</time>
      </trkpt>
      <trkpt lat="45.28881" lon="6.58423">
        <ele>2365.94</ele>
        <time>2018-05-26T05:37:50Z</time>
      </trkpt>
      <trkpt lat="45.28872" lon="6.58428">
        <ele>2367.38</ele>
        <time>2018-05-26T05:38:04Z</time>
      </trkpt>
      <trkpt lat="45.28858" lon="6.58435">
        <ele>2369.31</ele>
        <time>2018-05-26T05:38:19Z</time>
      </trkpt>
      <trkpt lat="45.28857" lon="6.58435">
        <ele>2368.83</ele>
        <time>2018-05-26T05:38:21Z</time>
      </trkpt>
      <trkpt lat="45.28848" lon="6.58439">
        <ele>2370.27</ele>
        <time>2018-05-26T05:38:34Z</time>
      </trkpt>
      <trkpt lat="45.28836" lon="6.58443">
        <ele>2372.19</ele>
        <time>2018-05-26T05:38:48Z</time>
      </trkpt>
      <trkpt lat="45.28829" lon="6.58452">
        <ele>2372.67</ele>
        <time>2018-05-26T05:39:01Z</time>
      </trkpt>
      <trkpt lat="45.28822" lon="6.58458">
        <ele>2375.07</ele>
        <time>2018-05-26T05:39:14Z</time>
      </trkpt>
      <trkpt lat="45.28813" lon="6.58463">
        <ele>2375.07</ele>
        <time>2018-05-26T05:39:29Z</time>
      </trkpt>
      <trkpt lat="45.28804" lon="6.5847">
        <ele>2377</ele>
        <time>2018-05-26T05:39:43Z</time>
      </trkpt>
      <trkpt lat="45.28793" lon="6.58478">
        <ele>2378.92</ele>
        <time>2018-05-26T05:39:56Z</time>
      </trkpt>
      <trkpt lat="45.28785" lon="6.58486">
        <ele>2379.88</ele>
        <time>2018-05-26T05:40:09Z</time>
      </trkpt>
      <trkpt lat="45.28776" lon="6.58493">
        <ele>2379.88</ele>
        <time>2018-05-26T05:40:23Z</time>
      </trkpt>
      <trkpt lat="45.28765" lon="6.58502">
        <ele>2379.88</ele>
        <time>2018-05-26T05:40:38Z</time>
      </trkpt>
      <trkpt lat="45.28755" lon="6.5851">
        <ele>2380.36</ele>
        <time>2018-05-26T05:40:51Z</time>
      </trkpt>
      <trkpt lat="45.28747" lon="6.58517">
        <ele>2380.36</ele>
        <time>2018-05-26T05:41:05Z</time>
      </trkpt>
      <trkpt lat="45.28739" lon="6.58527">
        <ele>2380.84</ele>
        <time>2018-05-26T05:41:18Z</time>
      </trkpt>
      <trkpt lat="45.28731" lon="6.58534">
        <ele>2381.32</ele>
        <time>2018-05-26T05:41:29Z</time>
      </trkpt>
      <trkpt lat="45.2872" lon="6.58542">
        <ele>2382.76</ele>
        <time>2018-05-26T05:41:43Z</time>
      </trkpt>
      <trkpt lat="45.28711" lon="6.58547">
        <ele>2381.8</ele>
        <time>2018-05-26T05:41:55Z</time>
      </trkpt>
      <trkpt lat="45.28701" lon="6.58553">
        <ele>2382.76</ele>
        <time>2018-05-26T05:42:07Z</time>
      </trkpt>
      <trkpt lat="45.28691" lon="6.58559">
        <ele>2383.25</ele>
        <time>2018-05-26T05:42:20Z</time>
      </trkpt>
      <trkpt lat="45.28682" lon="6.58563">
        <ele>2384.21</ele>
        <time>2018-05-26T05:42:32Z</time>
      </trkpt>
      <trkpt lat="45.28674" lon="6.58567">
        <ele>2385.17</ele>
        <time>2018-05-26T05:42:44Z</time>
      </trkpt>
      <trkpt lat="45.28666" lon="6.58569">
        <ele>2386.13</ele>
        <time>2018-05-26T05:42:57Z</time>
      </trkpt>
      <trkpt lat="45.28656" lon="6.58575">
        <ele>2388.05</ele>
        <time>2018-05-26T05:43:09Z</time>
      </trkpt>
      <trkpt lat="45.28649" lon="6.5858">
        <ele>2389.01</ele>
        <time>2018-05-26T05:43:21Z</time>
      </trkpt>
      <trkpt lat="45.2864" lon="6.58586">
        <ele>2390.46</ele>
        <time>2018-05-26T05:43:36Z</time>
      </trkpt>
      <trkpt lat="45.28632" lon="6.58591">
        <ele>2392.86</ele>
        <time>2018-05-26T05:43:50Z</time>
      </trkpt>
      <trkpt lat="45.28626" lon="6.58599">
        <ele>2395.26</ele>
        <time>2018-05-26T05:44:03Z</time>
      </trkpt>
      <trkpt lat="45.28625" lon="6.58611">
        <ele>2397.67</ele>
        <time>2018-05-26T05:44:18Z</time>
      </trkpt>
      <trkpt lat="45.2863" lon="6.5862">
        <ele>2398.63</ele>
        <time>2018-05-26T05:44:32Z</time>
      </trkpt>
      <trkpt lat="45.28639" lon="6.58627">
        <ele>2400.55</ele>
        <time>2018-05-26T05:44:47Z</time>
      </trkpt>
      <trkpt lat="45.2864" lon="6.58628">
        <ele>2400.55</ele>
        <time>2018-05-26T05:44:48Z</time>
      </trkpt>
      <trkpt lat="45.28649" lon="6.5863">
        <ele>2401.51</ele>
        <time>2018-05-26T05:45:00Z</time>
      </trkpt>
      <trkpt lat="45.28661" lon="6.58636">
        <ele>2403.91</ele>
        <time>2018-05-26T05:45:13Z</time>
      </trkpt>
      <trkpt lat="45.28654" lon="6.58647">
        <ele>2406.8</ele>
        <time>2018-05-26T05:45:26Z</time>
      </trkpt>
      <trkpt lat="45.28646" lon="6.58651">
        <ele>2407.76</ele>
        <time>2018-05-26T05:45:36Z</time>
      </trkpt>
      <trkpt lat="45.28641" lon="6.5865">
        <ele>2407.76</ele>
        <time>2018-05-26T05:45:47Z</time>
      </trkpt>
      <trkpt lat="45.28636" lon="6.58648">
        <ele>2408.72</ele>
        <time>2018-05-26T05:45:58Z</time>
      </trkpt>
      <trkpt lat="45.28626" lon="6.58649">
        <ele>2409.2</ele>
        <time>2018-05-26T05:46:17Z</time>
      </trkpt>
      <trkpt lat="45.28614" lon="6.5865">
        <ele>2410.16</ele>
        <time>2018-05-26T05:46:31Z</time>
      </trkpt>
      <trkpt lat="45.28605" lon="6.58645">
        <ele>2411.12</ele>
        <time>2018-05-26T05:46:45Z</time>
      </trkpt>
      <trkpt lat="45.28597" lon="6.58639">
        <ele>2412.57</ele>
        <time>2018-05-26T05:46:59Z</time>
      </trkpt>
      <trkpt lat="45.28592" lon="6.58636">
        <ele>2413.53</ele>
        <time>2018-05-26T05:47:11Z</time>
      </trkpt>
      <trkpt lat="45.28587" lon="6.58628">
        <ele>2415.45</ele>
        <time>2018-05-26T05:47:25Z</time>
      </trkpt>
      <trkpt lat="45.28584" lon="6.58623">
        <ele>2415.93</ele>
        <time>2018-05-26T05:47:38Z</time>
      </trkpt>
      <trkpt lat="45.28579" lon="6.58617">
        <ele>2415.93</ele>
        <time>2018-05-26T05:47:46Z</time>
      </trkpt>
      <trkpt lat="45.28571" lon="6.58607">
        <ele>2415.93</ele>
        <time>2018-05-26T05:48:01Z</time>
      </trkpt>
      <trkpt lat="45.2857" lon="6.58605">
        <ele>2416.41</ele>
        <time>2018-05-26T05:48:02Z</time>
      </trkpt>
      <trkpt lat="45.28561" lon="6.58597">
        <ele>2415.93</ele>
        <time>2018-05-26T05:48:16Z</time>
      </trkpt>
      <trkpt lat="45.28554" lon="6.58586">
        <ele>2417.37</ele>
        <time>2018-05-26T05:48:31Z</time>
      </trkpt>
      <trkpt lat="45.28546" lon="6.58582">
        <ele>2417.85</ele>
        <time>2018-05-26T05:48:43Z</time>
      </trkpt>
      <trkpt lat="45.28538" lon="6.58581">
        <ele>2420.26</ele>
        <time>2018-05-26T05:48:56Z</time>
      </trkpt>
      <trkpt lat="45.28532" lon="6.5858">
        <ele>2422.18</ele>
        <time>2018-05-26T05:49:10Z</time>
      </trkpt>
      <trkpt lat="45.28525" lon="6.58585">
        <ele>2424.58</ele>
        <time>2018-05-26T05:49:22Z</time>
      </trkpt>
      <trkpt lat="45.28521" lon="6.58591">
        <ele>2425.54</ele>
        <time>2018-05-26T05:49:32Z</time>
      </trkpt>
      <trkpt lat="45.28521" lon="6.58602">
        <ele>2427.95</ele>
        <time>2018-05-26T05:49:45Z</time>
      </trkpt>
      <trkpt lat="45.28521" lon="6.58611">
        <ele>2430.35</ele>
        <time>2018-05-26T05:49:58Z</time>
      </trkpt>
      <trkpt lat="45.28518" lon="6.58626">
        <ele>2432.27</ele>
        <time>2018-05-26T05:50:13Z</time>
      </trkpt>
      <trkpt lat="45.28513" lon="6.5863">
        <ele>2434.68</ele>
        <time>2018-05-26T05:50:26Z</time>
      </trkpt>
      <trkpt lat="45.28505" lon="6.58638">
        <ele>2436.12</ele>
        <time>2018-05-26T05:50:37Z</time>
      </trkpt>
      <trkpt lat="45.28501" lon="6.58638">
        <ele>2439.48</ele>
        <time>2018-05-26T05:50:48Z</time>
      </trkpt>
      <trkpt lat="45.285" lon="6.58638">
        <ele>2439.48</ele>
        <time>2018-05-26T05:50:49Z</time>
      </trkpt>
      <trkpt lat="45.28498" lon="6.58639">
        <ele>2439.96</ele>
        <time>2018-05-26T05:51:01Z</time>
      </trkpt>
      <trkpt lat="45.28497" lon="6.58644">
        <ele>2441.41</ele>
        <time>2018-05-26T05:51:14Z</time>
      </trkpt>
      <trkpt lat="45.28497" lon="6.58644">
        <ele>2440.92</ele>
        <time>2018-05-26T05:51:15Z</time>
      </trkpt>
      <trkpt lat="45.28494" lon="6.58642">
        <ele>2438.52</ele>
        <time>2018-05-26T05:51:21Z</time>
      </trkpt>
      <trkpt lat="45.28488" lon="6.58646">
        <ele>2439</ele>
        <time>2018-05-26T05:51:32Z</time>
      </trkpt>
      <trkpt lat="45.28483" lon="6.58649">
        <ele>2439</ele>
        <time>2018-05-26T05:51:42Z</time>
      </trkpt>
      <trkpt lat="45.28478" lon="6.58652">
        <ele>2439.48</ele>
        <time>2018-05-26T05:51:52Z</time>
      </trkpt>
      <trkpt lat="45.28474" lon="6.58656">
        <ele>2442.37</ele>
        <time>2018-05-26T05:52:03Z</time>
      </trkpt>
      <trkpt lat="45.28473" lon="6.58659">
        <ele>2441.89</ele>
        <time>2018-05-26T05:52:14Z</time>
      </trkpt>
      <trkpt lat="45.28473" lon="6.58661">
        <ele>2440.92</ele>
        <time>2018-05-26T05:52:25Z</time>
      </trkpt>
      <trkpt lat="45.28474" lon="6.58661">
        <ele>2442.37</ele>
        <time>2018-05-26T05:52:40Z</time>
      </trkpt>
      <trkpt lat="45.28466" lon="6.58668">
        <ele>2442.85</ele>
        <time>2018-05-26T05:52:51Z</time>
      </trkpt>
      <trkpt lat="45.28461" lon="6.58679">
        <ele>2445.25</ele>
        <time>2018-05-26T05:53:05Z</time>
      </trkpt>
      <trkpt lat="45.28451" lon="6.58691">
        <ele>2446.21</ele>
        <time>2018-05-26T05:53:22Z</time>
      </trkpt>
      <trkpt lat="45.28443" lon="6.587">
        <ele>2447.17</ele>
        <time>2018-05-26T05:53:36Z</time>
      </trkpt>
      <trkpt lat="45.28438" lon="6.58711">
        <ele>2448.62</ele>
        <time>2018-05-26T05:53:50Z</time>
      </trkpt>
      <trkpt lat="45.28431" lon="6.58722">
        <ele>2449.1</ele>
        <time>2018-05-26T05:54:05Z</time>
      </trkpt>
      <trkpt lat="45.28428" lon="6.58735">
        <ele>2450.06</ele>
        <time>2018-05-26T05:54:20Z</time>
      </trkpt>
      <trkpt lat="45.28427" lon="6.58748">
        <ele>2451.02</ele>
        <time>2018-05-26T05:54:35Z</time>
      </trkpt>
      <trkpt lat="45.28428" lon="6.58763">
        <ele>2452.46</ele>
        <time>2018-05-26T05:54:51Z</time>
      </trkpt>
      <trkpt lat="45.28433" lon="6.58775">
        <ele>2454.38</ele>
        <time>2018-05-26T05:55:05Z</time>
      </trkpt>
      <trkpt lat="45.28436" lon="6.58785">
        <ele>2455.34</ele>
        <time>2018-05-26T05:55:19Z</time>
      </trkpt>
      <trkpt lat="45.2844" lon="6.58795">
        <ele>2457.27</ele>
        <time>2018-05-26T05:55:32Z</time>
      </trkpt>
      <trkpt lat="45.28442" lon="6.58808">
        <ele>2459.19</ele>
        <time>2018-05-26T05:55:46Z</time>
      </trkpt>
      <trkpt lat="45.28442" lon="6.58822">
        <ele>2461.11</ele>
        <time>2018-05-26T05:56:02Z</time>
      </trkpt>
      <trkpt lat="45.28443" lon="6.58836">
        <ele>2462.55</ele>
        <time>2018-05-26T05:56:17Z</time>
      </trkpt>
      <trkpt lat="45.28443" lon="6.58841">
        <ele>2463.52</ele>
        <time>2018-05-26T05:56:22Z</time>
      </trkpt>
      <trkpt lat="45.28443" lon="6.58854">
        <ele>2464</ele>
        <time>2018-05-26T05:56:38Z</time>
      </trkpt>
      <trkpt lat="45.28446" lon="6.58866">
        <ele>2466.4</ele>
        <time>2018-05-26T05:56:52Z</time>
      </trkpt>
      <trkpt lat="45.28447" lon="6.58878">
        <ele>2467.84</ele>
        <time>2018-05-26T05:57:06Z</time>
      </trkpt>
      <trkpt lat="45.28445" lon="6.58892">
        <ele>2469.76</ele>
        <time>2018-05-26T05:57:23Z</time>
      </trkpt>
      <trkpt lat="45.2844" lon="6.58907">
        <ele>2470.73</ele>
        <time>2018-05-26T05:57:40Z</time>
      </trkpt>
      <trkpt lat="45.2844" lon="6.58921">
        <ele>2472.65</ele>
        <time>2018-05-26T05:57:54Z</time>
      </trkpt>
      <trkpt lat="45.28439" lon="6.58933">
        <ele>2474.09</ele>
        <time>2018-05-26T05:58:10Z</time>
      </trkpt>
      <trkpt lat="45.28439" lon="6.58947">
        <ele>2475.53</ele>
        <time>2018-05-26T05:58:26Z</time>
      </trkpt>
      <trkpt lat="45.28434" lon="6.58958">
        <ele>2476.97</ele>
        <time>2018-05-26T05:58:41Z</time>
      </trkpt>
      <trkpt lat="45.28433" lon="6.58972">
        <ele>2478.42</ele>
        <time>2018-05-26T05:58:56Z</time>
      </trkpt>
      <trkpt lat="45.28432" lon="6.58984">
        <ele>2480.82</ele>
        <time>2018-05-26T05:59:11Z</time>
      </trkpt>
      <trkpt lat="45.28431" lon="6.58993">
        <ele>2483.7</ele>
        <time>2018-05-26T05:59:25Z</time>
      </trkpt>
      <trkpt lat="45.2843" lon="6.59005">
        <ele>2485.15</ele>
        <time>2018-05-26T05:59:40Z</time>
      </trkpt>
      <trkpt lat="45.28431" lon="6.59017">
        <ele>2486.11</ele>
        <time>2018-05-26T05:59:54Z</time>
      </trkpt>
      <trkpt lat="45.28428" lon="6.59029">
        <ele>2489.47</ele>
        <time>2018-05-26T06:00:12Z</time>
      </trkpt>
      <trkpt lat="45.28425" lon="6.59039">
        <ele>2491.39</ele>
        <time>2018-05-26T06:00:29Z</time>
      </trkpt>
      <trkpt lat="45.28424" lon="6.59048">
        <ele>2492.84</ele>
        <time>2018-05-26T06:00:41Z</time>
      </trkpt>
      <trkpt lat="45.28421" lon="6.59054">
        <ele>2494.76</ele>
        <time>2018-05-26T06:00:56Z</time>
      </trkpt>
      <trkpt lat="45.28421" lon="6.59067">
        <ele>2498.12</ele>
        <time>2018-05-26T06:01:13Z</time>
      </trkpt>
      <trkpt lat="45.28417" lon="6.59086">
        <ele>2501.01</ele>
        <time>2018-05-26T06:01:35Z</time>
      </trkpt>
      <trkpt lat="45.28417" lon="6.59094">
        <ele>2503.89</ele>
        <time>2018-05-26T06:01:46Z</time>
      </trkpt>
      <trkpt lat="45.28416" lon="6.59106">
        <ele>2505.81</ele>
        <time>2018-05-26T06:02:02Z</time>
      </trkpt>
      <trkpt lat="45.28414" lon="6.59114">
        <ele>2508.7</ele>
        <time>2018-05-26T06:02:18Z</time>
      </trkpt>
      <trkpt lat="45.28413" lon="6.59123">
        <ele>2509.18</ele>
        <time>2018-05-26T06:02:30Z</time>
      </trkpt>
      <trkpt lat="45.28414" lon="6.59137">
        <ele>2512.06</ele>
        <time>2018-05-26T06:02:47Z</time>
      </trkpt>
      <trkpt lat="45.28416" lon="6.59148">
        <ele>2512.54</ele>
        <time>2018-05-26T06:02:59Z</time>
      </trkpt>
      <trkpt lat="45.28419" lon="6.59162">
        <ele>2514.47</ele>
        <time>2018-05-26T06:03:17Z</time>
      </trkpt>
      <trkpt lat="45.28421" lon="6.59171">
        <ele>2516.39</ele>
        <time>2018-05-26T06:03:30Z</time>
      </trkpt>
      <trkpt lat="45.28419" lon="6.59187">
        <ele>2518.79</ele>
        <time>2018-05-26T06:03:47Z</time>
      </trkpt>
      <trkpt lat="45.28418" lon="6.59197">
        <ele>2519.75</ele>
        <time>2018-05-26T06:04:03Z</time>
      </trkpt>
      <trkpt lat="45.28419" lon="6.59214">
        <ele>2522.64</ele>
        <time>2018-05-26T06:04:22Z</time>
      </trkpt>
      <trkpt lat="45.28419" lon="6.59224">
        <ele>2524.56</ele>
        <time>2018-05-26T06:04:37Z</time>
      </trkpt>
      <trkpt lat="45.28422" lon="6.5924">
        <ele>2526.48</ele>
        <time>2018-05-26T06:04:56Z</time>
      </trkpt>
      <trkpt lat="45.28424" lon="6.59255">
        <ele>2527.92</ele>
        <time>2018-05-26T06:05:12Z</time>
      </trkpt>
      <trkpt lat="45.28422" lon="6.59266">
        <ele>2530.33</ele>
        <time>2018-05-26T06:05:27Z</time>
      </trkpt>
      <trkpt lat="45.28424" lon="6.59283">
        <ele>2532.73</ele>
        <time>2018-05-26T06:05:46Z</time>
      </trkpt>
      <trkpt lat="45.28423" lon="6.59293">
        <ele>2534.17</ele>
        <time>2018-05-26T06:05:58Z</time>
      </trkpt>
      <trkpt lat="45.28426" lon="6.59302">
        <ele>2535.61</ele>
        <time>2018-05-26T06:06:12Z</time>
      </trkpt>
      <trkpt lat="45.28426" lon="6.59311">
        <ele>2537.06</ele>
        <time>2018-05-26T06:06:25Z</time>
      </trkpt>
      <trkpt lat="45.28427" lon="6.5932">
        <ele>2538.5</ele>
        <time>2018-05-26T06:06:39Z</time>
      </trkpt>
      <trkpt lat="45.28425" lon="6.5933">
        <ele>2540.42</ele>
        <time>2018-05-26T06:06:53Z</time>
      </trkpt>
      <trkpt lat="45.28426" lon="6.5934">
        <ele>2541.86</ele>
        <time>2018-05-26T06:07:09Z</time>
      </trkpt>
      <trkpt lat="45.28428" lon="6.59358">
        <ele>2545.23</ele>
        <time>2018-05-26T06:07:30Z</time>
      </trkpt>
      <trkpt lat="45.28429" lon="6.59373">
        <ele>2546.67</ele>
        <time>2018-05-26T06:07:50Z</time>
      </trkpt>
      <trkpt lat="45.28432" lon="6.59383">
        <ele>2548.11</ele>
        <time>2018-05-26T06:08:02Z</time>
      </trkpt>
      <trkpt lat="45.28435" lon="6.59394">
        <ele>2550.03</ele>
        <time>2018-05-26T06:08:17Z</time>
      </trkpt>
      <trkpt lat="45.2844" lon="6.5941">
        <ele>2551.96</ele>
        <time>2018-05-26T06:08:32Z</time>
      </trkpt>
      <trkpt lat="45.2844" lon="6.59422">
        <ele>2552.92</ele>
        <time>2018-05-26T06:08:44Z</time>
      </trkpt>
      <trkpt lat="45.28437" lon="6.5943">
        <ele>2554.36</ele>
        <time>2018-05-26T06:09:00Z</time>
      </trkpt>
      <trkpt lat="45.28438" lon="6.59446">
        <ele>2556.28</ele>
        <time>2018-05-26T06:09:17Z</time>
      </trkpt>
      <trkpt lat="45.28445" lon="6.59456">
        <ele>2556.76</ele>
        <time>2018-05-26T06:09:31Z</time>
      </trkpt>
      <trkpt lat="45.28441" lon="6.59459">
        <ele>2557.24</ele>
        <time>2018-05-26T06:09:50Z</time>
      </trkpt>
      <trkpt lat="45.2844" lon="6.5946">
        <ele>2557.24</ele>
        <time>2018-05-26T06:10:18Z</time>
      </trkpt>
      <trkpt lat="45.28443" lon="6.59462">
        <ele>2557.73</ele>
        <time>2018-05-26T06:10:40Z</time>
      </trkpt>
      <trkpt lat="45.28442" lon="6.5946">
        <ele>2558.21</ele>
        <time>2018-05-26T06:10:58Z</time>
      </trkpt>
      <trkpt lat="45.28441" lon="6.59461">
        <ele>2558.21</ele>
        <time>2018-05-26T06:11:12Z</time>
      </trkpt>
      <trkpt lat="45.28441" lon="6.59463">
        <ele>2558.21</ele>
        <time>2018-05-26T06:11:36Z</time>
      </trkpt>
      <trkpt lat="45.28439" lon="6.59463">
        <ele>2558.21</ele>
        <time>2018-05-26T06:12:14Z</time>
      </trkpt>
      <trkpt lat="45.28438" lon="6.59463">
        <ele>2558.21</ele>
        <time>2018-05-26T06:12:53Z</time>
      </trkpt>
      <trkpt lat="45.28444" lon="6.59478">
        <ele>2560.13</ele>
        <time>2018-05-26T06:13:06Z</time>
      </trkpt>
      <trkpt lat="45.28446" lon="6.59484">
        <ele>2560.13</ele>
        <time>2018-05-26T06:13:20Z</time>
      </trkpt>
      <trkpt lat="45.28445" lon="6.59483">
        <ele>2560.13</ele>
        <time>2018-05-26T06:13:52Z</time>
      </trkpt>
      <trkpt lat="45.28444" lon="6.59481">
        <ele>2560.13</ele>
        <time>2018-05-26T06:14:18Z</time>
      </trkpt>
      <trkpt lat="45.28444" lon="6.59482">
        <ele>2560.61</ele>
        <time>2018-05-26T06:14:56Z</time>
      </trkpt>
      <trkpt lat="45.28445" lon="6.59482">
        <ele>2560.61</ele>
        <time>2018-05-26T06:15:24Z</time>
      </trkpt>
      <trkpt lat="45.28446" lon="6.59481">
        <ele>2560.61</ele>
        <time>2018-05-26T06:16:00Z</time>
      </trkpt>
      <trkpt lat="45.28445" lon="6.59484">
        <ele>2560.61</ele>
        <time>2018-05-26T06:16:38Z</time>
      </trkpt>
      <trkpt lat="45.28448" lon="6.5949">
        <ele>2561.57</ele>
        <time>2018-05-26T06:16:49Z</time>
      </trkpt>
      <trkpt lat="45.28452" lon="6.595">
        <ele>2563.49</ele>
        <time>2018-05-26T06:17:03Z</time>
      </trkpt>
      <trkpt lat="45.28455" lon="6.59508">
        <ele>2564.45</ele>
        <time>2018-05-26T06:17:15Z</time>
      </trkpt>
      <trkpt lat="45.28457" lon="6.59515">
        <ele>2565.9</ele>
        <time>2018-05-26T06:17:24Z</time>
      </trkpt>
      <trkpt lat="45.28461" lon="6.59527">
        <ele>2567.34</ele>
        <time>2018-05-26T06:17:37Z</time>
      </trkpt>
      <trkpt lat="45.28464" lon="6.59537">
        <ele>2569.74</ele>
        <time>2018-05-26T06:17:51Z</time>
      </trkpt>
      <trkpt lat="45.28467" lon="6.59548">
        <ele>2571.18</ele>
        <time>2018-05-26T06:18:06Z</time>
      </trkpt>
      <trkpt lat="45.28468" lon="6.59559">
        <ele>2573.11</ele>
        <time>2018-05-26T06:18:18Z</time>
      </trkpt>
      <trkpt lat="45.28471" lon="6.59572">
        <ele>2574.07</ele>
        <time>2018-05-26T06:18:33Z</time>
      </trkpt>
      <trkpt lat="45.28473" lon="6.59581">
        <ele>2575.99</ele>
        <time>2018-05-26T06:18:47Z</time>
      </trkpt>
      <trkpt lat="45.28473" lon="6.5959">
        <ele>2578.39</ele>
        <time>2018-05-26T06:18:59Z</time>
      </trkpt>
      <trkpt lat="45.28472" lon="6.59601">
        <ele>2581.28</ele>
        <time>2018-05-26T06:19:13Z</time>
      </trkpt>
      <trkpt lat="45.28473" lon="6.5961">
        <ele>2582.24</ele>
        <time>2018-05-26T06:19:25Z</time>
      </trkpt>
      <trkpt lat="45.28474" lon="6.59617">
        <ele>2584.16</ele>
        <time>2018-05-26T06:19:37Z</time>
      </trkpt>
      <trkpt lat="45.28473" lon="6.59625">
        <ele>2585.6</ele>
        <time>2018-05-26T06:19:49Z</time>
      </trkpt>
      <trkpt lat="45.28471" lon="6.59634">
        <ele>2588.01</ele>
        <time>2018-05-26T06:20:03Z</time>
      </trkpt>
      <trkpt lat="45.2847" lon="6.59642">
        <ele>2589.93</ele>
        <time>2018-05-26T06:20:18Z</time>
      </trkpt>
      <trkpt lat="45.2847" lon="6.59647">
        <ele>2591.85</ele>
        <time>2018-05-26T06:20:31Z</time>
      </trkpt>
      <trkpt lat="45.28469" lon="6.59653">
        <ele>2593.29</ele>
        <time>2018-05-26T06:20:43Z</time>
      </trkpt>
      <trkpt lat="45.28468" lon="6.59659">
        <ele>2594.74</ele>
        <time>2018-05-26T06:20:55Z</time>
      </trkpt>
      <trkpt lat="45.28467" lon="6.59665">
        <ele>2596.18</ele>
        <time>2018-05-26T06:21:08Z</time>
      </trkpt>
      <trkpt lat="45.28466" lon="6.59671">
        <ele>2597.62</ele>
        <time>2018-05-26T06:21:19Z</time>
      </trkpt>
      <trkpt lat="45.28465" lon="6.59674">
        <ele>2598.58</ele>
        <time>2018-05-26T06:21:30Z</time>
      </trkpt>
      <trkpt lat="45.28464" lon="6.59682">
        <ele>2600.5</ele>
        <time>2018-05-26T06:21:43Z</time>
      </trkpt>
      <trkpt lat="45.28462" lon="6.59689">
        <ele>2602.43</ele>
        <time>2018-05-26T06:21:55Z</time>
      </trkpt>
      <trkpt lat="45.28461" lon="6.59695">
        <ele>2604.35</ele>
        <time>2018-05-26T06:22:08Z</time>
      </trkpt>
      <trkpt lat="45.28457" lon="6.59703">
        <ele>2605.31</ele>
        <time>2018-05-26T06:22:21Z</time>
      </trkpt>
      <trkpt lat="45.28455" lon="6.5971">
        <ele>2606.75</ele>
        <time>2018-05-26T06:22:33Z</time>
      </trkpt>
      <trkpt lat="45.28453" lon="6.59716">
        <ele>2607.23</ele>
        <time>2018-05-26T06:22:46Z</time>
      </trkpt>
      <trkpt lat="45.28451" lon="6.59724">
        <ele>2608.67</ele>
        <time>2018-05-26T06:22:59Z</time>
      </trkpt>
      <trkpt lat="45.2845" lon="6.59728">
        <ele>2609.64</ele>
        <time>2018-05-26T06:23:12Z</time>
      </trkpt>
      <trkpt lat="45.28447" lon="6.59736">
        <ele>2611.08</ele>
        <time>2018-05-26T06:23:25Z</time>
      </trkpt>
      <trkpt lat="45.28446" lon="6.59743">
        <ele>2612.52</ele>
        <time>2018-05-26T06:23:38Z</time>
      </trkpt>
      <trkpt lat="45.28445" lon="6.59749">
        <ele>2613.96</ele>
        <time>2018-05-26T06:23:50Z</time>
      </trkpt>
      <trkpt lat="45.28444" lon="6.59754">
        <ele>2615.4</ele>
        <time>2018-05-26T06:24:03Z</time>
      </trkpt>
      <trkpt lat="45.28442" lon="6.59763">
        <ele>2617.81</ele>
        <time>2018-05-26T06:24:19Z</time>
      </trkpt>
      <trkpt lat="45.28441" lon="6.59771">
        <ele>2618.77</ele>
        <time>2018-05-26T06:24:32Z</time>
      </trkpt>
      <trkpt lat="45.28439" lon="6.59778">
        <ele>2619.73</ele>
        <time>2018-05-26T06:24:45Z</time>
      </trkpt>
      <trkpt lat="45.28438" lon="6.59785">
        <ele>2620.69</ele>
        <time>2018-05-26T06:24:57Z</time>
      </trkpt>
      <trkpt lat="45.28436" lon="6.59791">
        <ele>2622.61</ele>
        <time>2018-05-26T06:25:11Z</time>
      </trkpt>
      <trkpt lat="45.28433" lon="6.59796">
        <ele>2624.06</ele>
        <time>2018-05-26T06:25:25Z</time>
      </trkpt>
      <trkpt lat="45.28431" lon="6.59804">
        <ele>2625.02</ele>
        <time>2018-05-26T06:25:38Z</time>
      </trkpt>
      <trkpt lat="45.28432" lon="6.59809">
        <ele>2626.94</ele>
        <time>2018-05-26T06:25:50Z</time>
      </trkpt>
      <trkpt lat="45.2843" lon="6.59816">
        <ele>2628.38</ele>
        <time>2018-05-26T06:26:04Z</time>
      </trkpt>
      <trkpt lat="45.28427" lon="6.59824">
        <ele>2630.3</ele>
        <time>2018-05-26T06:26:18Z</time>
      </trkpt>
      <trkpt lat="45.28425" lon="6.59831">
        <ele>2630.79</ele>
        <time>2018-05-26T06:26:32Z</time>
      </trkpt>
      <trkpt lat="45.28422" lon="6.59838">
        <ele>2632.23</ele>
        <time>2018-05-26T06:26:46Z</time>
      </trkpt>
      <trkpt lat="45.28419" lon="6.59846">
        <ele>2633.67</ele>
        <time>2018-05-26T06:26:59Z</time>
      </trkpt>
      <trkpt lat="45.28417" lon="6.59853">
        <ele>2635.59</ele>
        <time>2018-05-26T06:27:12Z</time>
      </trkpt>
      <trkpt lat="45.28416" lon="6.59861">
        <ele>2636.55</ele>
        <time>2018-05-26T06:27:25Z</time>
      </trkpt>
      <trkpt lat="45.28414" lon="6.59868">
        <ele>2637.51</ele>
        <time>2018-05-26T06:27:39Z</time>
      </trkpt>
      <trkpt lat="45.28411" lon="6.59875">
        <ele>2639.92</ele>
        <time>2018-05-26T06:27:53Z</time>
      </trkpt>
      <trkpt lat="45.28408" lon="6.59882">
        <ele>2640.88</ele>
        <time>2018-05-26T06:28:06Z</time>
      </trkpt>
      <trkpt lat="45.28405" lon="6.59887">
        <ele>2643.28</ele>
        <time>2018-05-26T06:28:19Z</time>
      </trkpt>
      <trkpt lat="45.28403" lon="6.59893">
        <ele>2644.24</ele>
        <time>2018-05-26T06:28:34Z</time>
      </trkpt>
      <trkpt lat="45.28402" lon="6.599">
        <ele>2646.17</ele>
        <time>2018-05-26T06:28:47Z</time>
      </trkpt>
      <trkpt lat="45.28407" lon="6.59901">
        <ele>2646.65</ele>
        <time>2018-05-26T06:28:58Z</time>
      </trkpt>
      <trkpt lat="45.28408" lon="6.59901">
        <ele>2648.09</ele>
        <time>2018-05-26T06:29:00Z</time>
      </trkpt>
      <trkpt lat="45.28416" lon="6.59905">
        <ele>2649.53</ele>
        <time>2018-05-26T06:29:15Z</time>
      </trkpt>
      <trkpt lat="45.28419" lon="6.59907">
        <ele>2651.45</ele>
        <time>2018-05-26T06:29:28Z</time>
      </trkpt>
      <trkpt lat="45.28424" lon="6.59911">
        <ele>2652.9</ele>
        <time>2018-05-26T06:29:43Z</time>
      </trkpt>
      <trkpt lat="45.28433" lon="6.59915">
        <ele>2654.82</ele>
        <time>2018-05-26T06:30:01Z</time>
      </trkpt>
      <trkpt lat="45.28437" lon="6.59918">
        <ele>2657.22</ele>
        <time>2018-05-26T06:30:15Z</time>
      </trkpt>
      <trkpt lat="45.28446" lon="6.59921">
        <ele>2659.14</ele>
        <time>2018-05-26T06:30:32Z</time>
      </trkpt>
      <trkpt lat="45.28448" lon="6.59921">
        <ele>2660.11</ele>
        <time>2018-05-26T06:30:38Z</time>
      </trkpt>
      <trkpt lat="45.28454" lon="6.59923">
        <ele>2661.55</ele>
        <time>2018-05-26T06:30:53Z</time>
      </trkpt>
      <trkpt lat="45.28461" lon="6.59925">
        <ele>2663.47</ele>
        <time>2018-05-26T06:31:07Z</time>
      </trkpt>
      <trkpt lat="45.28468" lon="6.59924">
        <ele>2665.39</ele>
        <time>2018-05-26T06:31:21Z</time>
      </trkpt>
      <trkpt lat="45.28473" lon="6.59923">
        <ele>2666.83</ele>
        <time>2018-05-26T06:31:35Z</time>
      </trkpt>
      <trkpt lat="45.28477" lon="6.59921">
        <ele>2669.24</ele>
        <time>2018-05-26T06:31:48Z</time>
      </trkpt>
      <trkpt lat="45.28483" lon="6.5992">
        <ele>2670.2</ele>
        <time>2018-05-26T06:32:02Z</time>
      </trkpt>
      <trkpt lat="45.28486" lon="6.59921">
        <ele>2671.64</ele>
        <time>2018-05-26T06:32:15Z</time>
      </trkpt>
      <trkpt lat="45.28486" lon="6.59924">
        <ele>2673.08</ele>
        <time>2018-05-26T06:32:19Z</time>
      </trkpt>
      <trkpt lat="45.28487" lon="6.59932">
        <ele>2674.04</ele>
        <time>2018-05-26T06:32:32Z</time>
      </trkpt>
      <trkpt lat="45.28488" lon="6.59939">
        <ele>2675.97</ele>
        <time>2018-05-26T06:32:46Z</time>
      </trkpt>
      <trkpt lat="45.28491" lon="6.59946">
        <ele>2676.93</ele>
        <time>2018-05-26T06:33:00Z</time>
      </trkpt>
      <trkpt lat="45.28491" lon="6.59948">
        <ele>2678.37</ele>
        <time>2018-05-26T06:33:03Z</time>
      </trkpt>
      <trkpt lat="45.28494" lon="6.59956">
        <ele>2679.33</ele>
        <time>2018-05-26T06:33:17Z</time>
      </trkpt>
      <trkpt lat="45.28496" lon="6.59961">
        <ele>2681.25</ele>
        <time>2018-05-26T06:33:25Z</time>
      </trkpt>
      <trkpt lat="45.28498" lon="6.59966">
        <ele>2682.22</ele>
        <time>2018-05-26T06:33:33Z</time>
      </trkpt>
      <trkpt lat="45.28502" lon="6.59974">
        <ele>2683.18</ele>
        <time>2018-05-26T06:33:48Z</time>
      </trkpt>
      <trkpt lat="45.28503" lon="6.59976">
        <ele>2684.14</ele>
        <time>2018-05-26T06:33:51Z</time>
      </trkpt>
      <trkpt lat="45.28504" lon="6.59983">
        <ele>2685.1</ele>
        <time>2018-05-26T06:34:06Z</time>
      </trkpt>
      <trkpt lat="45.28506" lon="6.59992">
        <ele>2687.98</ele>
        <time>2018-05-26T06:34:22Z</time>
      </trkpt>
      <trkpt lat="45.28509" lon="6.60003">
        <ele>2689.91</ele>
        <time>2018-05-26T06:34:37Z</time>
      </trkpt>
      <trkpt lat="45.28511" lon="6.60014">
        <ele>2692.31</ele>
        <time>2018-05-26T06:34:52Z</time>
      </trkpt>
      <trkpt lat="45.28512" lon="6.6002">
        <ele>2695.19</ele>
        <time>2018-05-26T06:35:02Z</time>
      </trkpt>
      <trkpt lat="45.28514" lon="6.60032">
        <ele>2695.67</ele>
        <time>2018-05-26T06:35:16Z</time>
      </trkpt>
      <trkpt lat="45.28515" lon="6.60042">
        <ele>2696.64</ele>
        <time>2018-05-26T06:35:26Z</time>
      </trkpt>
      <trkpt lat="45.28515" lon="6.60054">
        <ele>2698.08</ele>
        <time>2018-05-26T06:35:41Z</time>
      </trkpt>
      <trkpt lat="45.28518" lon="6.60073">
        <ele>2700.48</ele>
        <time>2018-05-26T06:36:01Z</time>
      </trkpt>
      <trkpt lat="45.28518" lon="6.60087">
        <ele>2700.96</ele>
        <time>2018-05-26T06:36:17Z</time>
      </trkpt>
      <trkpt lat="45.28519" lon="6.60105">
        <ele>2702.88</ele>
        <time>2018-05-26T06:36:36Z</time>
      </trkpt>
      <trkpt lat="45.28519" lon="6.60119">
        <ele>2704.33</ele>
        <time>2018-05-26T06:36:51Z</time>
      </trkpt>
      <trkpt lat="45.28521" lon="6.60135">
        <ele>2705.77</ele>
        <time>2018-05-26T06:37:08Z</time>
      </trkpt>
      <trkpt lat="45.28523" lon="6.6015">
        <ele>2707.21</ele>
        <time>2018-05-26T06:37:24Z</time>
      </trkpt>
      <trkpt lat="45.28525" lon="6.60165">
        <ele>2708.17</ele>
        <time>2018-05-26T06:37:41Z</time>
      </trkpt>
      <trkpt lat="45.28527" lon="6.60182">
        <ele>2708.65</ele>
        <time>2018-05-26T06:38:00Z</time>
      </trkpt>
      <trkpt lat="45.28527" lon="6.60197">
        <ele>2711.06</ele>
        <time>2018-05-26T06:38:18Z</time>
      </trkpt>
      <trkpt lat="45.2853" lon="6.60217">
        <ele>2712.98</ele>
        <time>2018-05-26T06:38:39Z</time>
      </trkpt>
      <trkpt lat="45.2853" lon="6.60233">
        <ele>2714.42</ele>
        <time>2018-05-26T06:38:56Z</time>
      </trkpt>
      <trkpt lat="45.28529" lon="6.60249">
        <ele>2716.34</ele>
        <time>2018-05-26T06:39:14Z</time>
      </trkpt>
      <trkpt lat="45.2853" lon="6.60266">
        <ele>2717.3</ele>
        <time>2018-05-26T06:39:32Z</time>
      </trkpt>
      <trkpt lat="45.28532" lon="6.6028">
        <ele>2718.75</ele>
        <time>2018-05-26T06:39:49Z</time>
      </trkpt>
      <trkpt lat="45.28534" lon="6.60294">
        <ele>2720.67</ele>
        <time>2018-05-26T06:40:07Z</time>
      </trkpt>
      <trkpt lat="45.28535" lon="6.60311">
        <ele>2722.11</ele>
        <time>2018-05-26T06:40:26Z</time>
      </trkpt>
      <trkpt lat="45.28538" lon="6.60322">
        <ele>2723.55</ele>
        <time>2018-05-26T06:40:40Z</time>
      </trkpt>
      <trkpt lat="45.28541" lon="6.60334">
        <ele>2724.99</ele>
        <time>2018-05-26T06:40:55Z</time>
      </trkpt>
      <trkpt lat="45.28544" lon="6.60346">
        <ele>2726.92</ele>
        <time>2018-05-26T06:41:11Z</time>
      </trkpt>
      <trkpt lat="45.28546" lon="6.60357">
        <ele>2729.8</ele>
        <time>2018-05-26T06:41:26Z</time>
      </trkpt>
      <trkpt lat="45.28548" lon="6.60365">
        <ele>2731.24</ele>
        <time>2018-05-26T06:41:37Z</time>
      </trkpt>
      <trkpt lat="45.28549" lon="6.60371">
        <ele>2732.2</ele>
        <time>2018-05-26T06:41:48Z</time>
      </trkpt>
      <trkpt lat="45.28551" lon="6.60377">
        <ele>2734.61</ele>
        <time>2018-05-26T06:42:00Z</time>
      </trkpt>
      <trkpt lat="45.28553" lon="6.60385">
        <ele>2736.53</ele>
        <time>2018-05-26T06:42:11Z</time>
      </trkpt>
      <trkpt lat="45.28555" lon="6.60393">
        <ele>2738.93</ele>
        <time>2018-05-26T06:42:27Z</time>
      </trkpt>
      <trkpt lat="45.28555" lon="6.60393">
        <ele>2739.41</ele>
        <time>2018-05-26T06:42:29Z</time>
      </trkpt>
      <trkpt lat="45.28556" lon="6.60401">
        <ele>2740.86</ele>
        <time>2018-05-26T06:42:42Z</time>
      </trkpt>
      <trkpt lat="45.2856" lon="6.6041">
        <ele>2743.26</ele>
        <time>2018-05-26T06:42:57Z</time>
      </trkpt>
      <trkpt lat="45.28563" lon="6.60417">
        <ele>2746.62</ele>
        <time>2018-05-26T06:43:12Z</time>
      </trkpt>
      <trkpt lat="45.28567" lon="6.60425">
        <ele>2748.07</ele>
        <time>2018-05-26T06:43:28Z</time>
      </trkpt>
      <trkpt lat="45.28571" lon="6.60432">
        <ele>2749.51</ele>
        <time>2018-05-26T06:43:40Z</time>
      </trkpt>
      <trkpt lat="45.28575" lon="6.60438">
        <ele>2752.39</ele>
        <time>2018-05-26T06:43:56Z</time>
      </trkpt>
      <trkpt lat="45.28578" lon="6.60448">
        <ele>2754.8</ele>
        <time>2018-05-26T06:44:10Z</time>
      </trkpt>
      <trkpt lat="45.28578" lon="6.6046">
        <ele>2757.68</ele>
        <time>2018-05-26T06:44:32Z</time>
      </trkpt>
      <trkpt lat="45.28577" lon="6.6047">
        <ele>2760.56</ele>
        <time>2018-05-26T06:44:45Z</time>
      </trkpt>
      <trkpt lat="45.28573" lon="6.60478">
        <ele>2762</ele>
        <time>2018-05-26T06:45:01Z</time>
      </trkpt>
      <trkpt lat="45.2857" lon="6.60487">
        <ele>2764.89</ele>
        <time>2018-05-26T06:45:15Z</time>
      </trkpt>
      <trkpt lat="45.28572" lon="6.60497">
        <ele>2767.29</ele>
        <time>2018-05-26T06:45:32Z</time>
      </trkpt>
      <trkpt lat="45.28571" lon="6.60506">
        <ele>2769.7</ele>
        <time>2018-05-26T06:45:48Z</time>
      </trkpt>
      <trkpt lat="45.2857" lon="6.60516">
        <ele>2773.06</ele>
        <time>2018-05-26T06:46:04Z</time>
      </trkpt>
      <trkpt lat="45.28567" lon="6.60527">
        <ele>2774.98</ele>
        <time>2018-05-26T06:46:18Z</time>
      </trkpt>
      <trkpt lat="45.28564" lon="6.60541">
        <ele>2776.42</ele>
        <time>2018-05-26T06:46:32Z</time>
      </trkpt>
      <trkpt lat="45.28564" lon="6.60552">
        <ele>2779.31</ele>
        <time>2018-05-26T06:46:51Z</time>
      </trkpt>
      <trkpt lat="45.28567" lon="6.60562">
        <ele>2781.23</ele>
        <time>2018-05-26T06:47:07Z</time>
      </trkpt>
      <trkpt lat="45.28567" lon="6.60573">
        <ele>2783.63</ele>
        <time>2018-05-26T06:47:20Z</time>
      </trkpt>
      <trkpt lat="45.28568" lon="6.60582">
        <ele>2785.08</ele>
        <time>2018-05-26T06:47:35Z</time>
      </trkpt>
      <trkpt lat="45.28568" lon="6.6059">
        <ele>2787</ele>
        <time>2018-05-26T06:47:47Z</time>
      </trkpt>
      <trkpt lat="45.28567" lon="6.606">
        <ele>2788.92</ele>
        <time>2018-05-26T06:48:01Z</time>
      </trkpt>
      <trkpt lat="45.28567" lon="6.60605">
        <ele>2791.81</ele>
        <time>2018-05-26T06:48:11Z</time>
      </trkpt>
      <trkpt lat="45.28567" lon="6.60612">
        <ele>2792.77</ele>
        <time>2018-05-26T06:48:24Z</time>
      </trkpt>
      <trkpt lat="45.28565" lon="6.60622">
        <ele>2794.69</ele>
        <time>2018-05-26T06:48:37Z</time>
      </trkpt>
      <trkpt lat="45.28563" lon="6.60632">
        <ele>2797.09</ele>
        <time>2018-05-26T06:48:49Z</time>
      </trkpt>
      <trkpt lat="45.28563" lon="6.60635">
        <ele>2798.05</ele>
        <time>2018-05-26T06:48:57Z</time>
      </trkpt>
      <trkpt lat="45.28563" lon="6.60643">
        <ele>2799.5</ele>
        <time>2018-05-26T06:49:12Z</time>
      </trkpt>
      <trkpt lat="45.28559" lon="6.60657">
        <ele>2800.94</ele>
        <time>2018-05-26T06:49:25Z</time>
      </trkpt>
      <trkpt lat="45.28558" lon="6.60664">
        <ele>2804.3</ele>
        <time>2018-05-26T06:49:45Z</time>
      </trkpt>
      <trkpt lat="45.28556" lon="6.60672">
        <ele>2804.78</ele>
        <time>2018-05-26T06:49:58Z</time>
      </trkpt>
      <trkpt lat="45.28555" lon="6.60682">
        <ele>2806.23</ele>
        <time>2018-05-26T06:50:09Z</time>
      </trkpt>
      <trkpt lat="45.28552" lon="6.60695">
        <ele>2809.11</ele>
        <time>2018-05-26T06:50:24Z</time>
      </trkpt>
      <trkpt lat="45.28551" lon="6.60703">
        <ele>2811.03</ele>
        <time>2018-05-26T06:50:39Z</time>
      </trkpt>
      <trkpt lat="45.28549" lon="6.60713">
        <ele>2812.96</ele>
        <time>2018-05-26T06:50:53Z</time>
      </trkpt>
      <trkpt lat="45.28548" lon="6.60722">
        <ele>2814.4</ele>
        <time>2018-05-26T06:51:06Z</time>
      </trkpt>
      <trkpt lat="45.28549" lon="6.60738">
        <ele>2816.32</ele>
        <time>2018-05-26T06:51:24Z</time>
      </trkpt>
      <trkpt lat="45.28548" lon="6.6075">
        <ele>2818.72</ele>
        <time>2018-05-26T06:51:40Z</time>
      </trkpt>
      <trkpt lat="45.28549" lon="6.60762">
        <ele>2820.16</ele>
        <time>2018-05-26T06:51:56Z</time>
      </trkpt>
      <trkpt lat="45.28551" lon="6.60775">
        <ele>2821.61</ele>
        <time>2018-05-26T06:52:12Z</time>
      </trkpt>
      <trkpt lat="45.28551" lon="6.60787">
        <ele>2822.57</ele>
        <time>2018-05-26T06:52:27Z</time>
      </trkpt>
      <trkpt lat="45.28552" lon="6.60796">
        <ele>2824.49</ele>
        <time>2018-05-26T06:52:36Z</time>
      </trkpt>
      <trkpt lat="45.28552" lon="6.60803">
        <ele>2825.93</ele>
        <time>2018-05-26T06:52:48Z</time>
      </trkpt>
      <trkpt lat="45.28551" lon="6.60816">
        <ele>2828.82</ele>
        <time>2018-05-26T06:53:03Z</time>
      </trkpt>
      <trkpt lat="45.2855" lon="6.60823">
        <ele>2829.3</ele>
        <time>2018-05-26T06:53:16Z</time>
      </trkpt>
      <trkpt lat="45.28548" lon="6.60838">
        <ele>2832.18</ele>
        <time>2018-05-26T06:53:33Z</time>
      </trkpt>
      <trkpt lat="45.28545" lon="6.60848">
        <ele>2833.62</ele>
        <time>2018-05-26T06:53:46Z</time>
      </trkpt>
      <trkpt lat="45.28543" lon="6.60854">
        <ele>2835.06</ele>
        <time>2018-05-26T06:54:01Z</time>
      </trkpt>
      <trkpt lat="45.28542" lon="6.60864">
        <ele>2835.55</ele>
        <time>2018-05-26T06:54:15Z</time>
      </trkpt>
      <trkpt lat="45.2854" lon="6.60875">
        <ele>2837.47</ele>
        <time>2018-05-26T06:54:28Z</time>
      </trkpt>
      <trkpt lat="45.28538" lon="6.60886">
        <ele>2838.43</ele>
        <time>2018-05-26T06:54:40Z</time>
      </trkpt>
      <trkpt lat="45.28538" lon="6.60895">
        <ele>2840.35</ele>
        <time>2018-05-26T06:54:54Z</time>
      </trkpt>
      <trkpt lat="45.28541" lon="6.60903">
        <ele>2842.28</ele>
        <time>2018-05-26T06:55:08Z</time>
      </trkpt>
      <trkpt lat="45.28544" lon="6.60915">
        <ele>2844.2</ele>
        <time>2018-05-26T06:55:24Z</time>
      </trkpt>
      <trkpt lat="45.28547" lon="6.60923">
        <ele>2845.64</ele>
        <time>2018-05-26T06:55:36Z</time>
      </trkpt>
      <trkpt lat="45.28548" lon="6.60932">
        <ele>2847.56</ele>
        <time>2018-05-26T06:55:51Z</time>
      </trkpt>
      <trkpt lat="45.28551" lon="6.60947">
        <ele>2849.48</ele>
        <time>2018-05-26T06:56:06Z</time>
      </trkpt>
      <trkpt lat="45.28553" lon="6.60957">
        <ele>2851.41</ele>
        <time>2018-05-26T06:56:19Z</time>
      </trkpt>
      <trkpt lat="45.28555" lon="6.60967">
        <ele>2852.37</ele>
        <time>2018-05-26T06:56:33Z</time>
      </trkpt>
      <trkpt lat="45.28558" lon="6.60978">
        <ele>2853.33</ele>
        <time>2018-05-26T06:56:46Z</time>
      </trkpt>
      <trkpt lat="45.28559" lon="6.60989">
        <ele>2855.25</ele>
        <time>2018-05-26T06:57:02Z</time>
      </trkpt>
      <trkpt lat="45.2856" lon="6.60999">
        <ele>2856.21</ele>
        <time>2018-05-26T06:57:15Z</time>
      </trkpt>
      <trkpt lat="45.28562" lon="6.61012">
        <ele>2857.66</ele>
        <time>2018-05-26T06:57:36Z</time>
      </trkpt>
      <trkpt lat="45.28565" lon="6.61028">
        <ele>2859.1</ele>
        <time>2018-05-26T06:57:53Z</time>
      </trkpt>
      <trkpt lat="45.28568" lon="6.61036">
        <ele>2861.02</ele>
        <time>2018-05-26T06:58:07Z</time>
      </trkpt>
      <trkpt lat="45.28571" lon="6.61046">
        <ele>2862.46</ele>
        <time>2018-05-26T06:58:24Z</time>
      </trkpt>
      <trkpt lat="45.28576" lon="6.61056">
        <ele>2863.9</ele>
        <time>2018-05-26T06:58:42Z</time>
      </trkpt>
      <trkpt lat="45.28579" lon="6.61076">
        <ele>2866.31</ele>
        <time>2018-05-26T06:59:01Z</time>
      </trkpt>
      <trkpt lat="45.28581" lon="6.61088">
        <ele>2867.75</ele>
        <time>2018-05-26T06:59:15Z</time>
      </trkpt>
      <trkpt lat="45.2858" lon="6.61095">
        <ele>2868.23</ele>
        <time>2018-05-26T06:59:28Z</time>
      </trkpt>
      <trkpt lat="45.28579" lon="6.61105">
        <ele>2870.63</ele>
        <time>2018-05-26T06:59:45Z</time>
      </trkpt>
      <trkpt lat="45.28577" lon="6.61115">
        <ele>2872.56</ele>
        <time>2018-05-26T06:59:58Z</time>
      </trkpt>
      <trkpt lat="45.28575" lon="6.61127">
        <ele>2874.48</ele>
        <time>2018-05-26T07:00:15Z</time>
      </trkpt>
      <trkpt lat="45.28574" lon="6.61138">
        <ele>2876.88</ele>
        <time>2018-05-26T07:00:29Z</time>
      </trkpt>
      <trkpt lat="45.28574" lon="6.61152">
        <ele>2881.21</ele>
        <time>2018-05-26T07:15:00Z</time>
      </trkpt>
      <trkpt lat="45.2857" lon="6.61161">
        <ele>2882.17</ele>
        <time>2018-05-26T07:15:13Z</time>
      </trkpt>
      <trkpt lat="45.28568" lon="6.61172">
        <ele>2884.57</ele>
        <time>2018-05-26T07:15:28Z</time>
      </trkpt>
      <trkpt lat="45.28564" lon="6.61176">
        <ele>2886.98</ele>
        <time>2018-05-26T07:15:41Z</time>
      </trkpt>
      <trkpt lat="45.28561" lon="6.61185">
        <ele>2889.86</ele>
        <time>2018-05-26T07:15:57Z</time>
      </trkpt>
      <trkpt lat="45.28559" lon="6.6119">
        <ele>2892.26</ele>
        <time>2018-05-26T07:16:06Z</time>
      </trkpt>
      <trkpt lat="45.28561" lon="6.6119">
        <ele>2889.86</ele>
        <time>2018-05-26T07:16:35Z</time>
      </trkpt>
      <trkpt lat="45.28561" lon="6.6119">
        <ele>2889.86</ele>
        <time>2018-05-26T07:16:42Z</time>
      </trkpt>
      <trkpt lat="45.28556" lon="6.61196">
        <ele>2891.78</ele>
        <time>2018-05-26T07:16:54Z</time>
      </trkpt>
      <trkpt lat="45.28553" lon="6.61203">
        <ele>2893.23</ele>
        <time>2018-05-26T07:17:06Z</time>
      </trkpt>
      <trkpt lat="45.28548" lon="6.61209">
        <ele>2896.59</ele>
        <time>2018-05-26T07:17:20Z</time>
      </trkpt>
      <trkpt lat="45.28543" lon="6.61219">
        <ele>2899.47</ele>
        <time>2018-05-26T07:17:38Z</time>
      </trkpt>
      <trkpt lat="45.28538" lon="6.61229">
        <ele>2901.88</ele>
        <time>2018-05-26T07:17:54Z</time>
      </trkpt>
      <trkpt lat="45.28537" lon="6.61234">
        <ele>2903.8</ele>
        <time>2018-05-26T07:17:59Z</time>
      </trkpt>
      <trkpt lat="45.28535" lon="6.61241">
        <ele>2904.76</ele>
        <time>2018-05-26T07:18:15Z</time>
      </trkpt>
      <trkpt lat="45.28532" lon="6.6125">
        <ele>2906.68</ele>
        <time>2018-05-26T07:18:30Z</time>
      </trkpt>
      <trkpt lat="45.28529" lon="6.61257">
        <ele>2908.61</ele>
        <time>2018-05-26T07:18:43Z</time>
      </trkpt>
      <trkpt lat="45.28523" lon="6.61262">
        <ele>2911.01</ele>
        <time>2018-05-26T07:18:57Z</time>
      </trkpt>
      <trkpt lat="45.28516" lon="6.61265">
        <ele>2912.93</ele>
        <time>2018-05-26T07:19:13Z</time>
      </trkpt>
      <trkpt lat="45.28509" lon="6.61268">
        <ele>2914.37</ele>
        <time>2018-05-26T07:19:30Z</time>
      </trkpt>
      <trkpt lat="45.28502" lon="6.61272">
        <ele>2917.26</ele>
        <time>2018-05-26T07:19:47Z</time>
      </trkpt>
      <trkpt lat="45.28504" lon="6.61277">
        <ele>2918.22</ele>
        <time>2018-05-26T07:19:56Z</time>
      </trkpt>
      <trkpt lat="45.28509" lon="6.61286">
        <ele>2921.1</ele>
        <time>2018-05-26T07:20:14Z</time>
      </trkpt>
      <trkpt lat="45.28511" lon="6.61294">
        <ele>2924.47</ele>
        <time>2018-05-26T07:20:33Z</time>
      </trkpt>
      <trkpt lat="45.28513" lon="6.61304">
        <ele>2926.87</ele>
        <time>2018-05-26T07:20:48Z</time>
      </trkpt>
      <trkpt lat="45.28515" lon="6.6131">
        <ele>2926.87</ele>
        <time>2018-05-26T07:21:02Z</time>
      </trkpt>
      <trkpt lat="45.28516" lon="6.61317">
        <ele>2929.27</ele>
        <time>2018-05-26T07:21:14Z</time>
      </trkpt>
      <trkpt lat="45.28517" lon="6.61322">
        <ele>2931.2</ele>
        <time>2018-05-26T07:21:27Z</time>
      </trkpt>
      <trkpt lat="45.28519" lon="6.61328">
        <ele>2932.16</ele>
        <time>2018-05-26T07:21:39Z</time>
      </trkpt>
      <trkpt lat="45.2852" lon="6.61331">
        <ele>2934.08</ele>
        <time>2018-05-26T07:21:51Z</time>
      </trkpt>
      <trkpt lat="45.28522" lon="6.61337">
        <ele>2936</ele>
        <time>2018-05-26T07:22:03Z</time>
      </trkpt>
      <trkpt lat="45.28523" lon="6.61342">
        <ele>2936</ele>
        <time>2018-05-26T07:22:14Z</time>
      </trkpt>
      <trkpt lat="45.28524" lon="6.61347">
        <ele>2937.45</ele>
        <time>2018-05-26T07:22:26Z</time>
      </trkpt>
      <trkpt lat="45.28527" lon="6.61353">
        <ele>2937.93</ele>
        <time>2018-05-26T07:22:38Z</time>
      </trkpt>
      <trkpt lat="45.28529" lon="6.61357">
        <ele>2939.85</ele>
        <time>2018-05-26T07:22:50Z</time>
      </trkpt>
      <trkpt lat="45.28525" lon="6.61363">
        <ele>2942.25</ele>
        <time>2018-05-26T07:23:04Z</time>
      </trkpt>
      <trkpt lat="45.2852" lon="6.61366">
        <ele>2944.17</ele>
        <time>2018-05-26T07:23:17Z</time>
      </trkpt>
      <trkpt lat="45.28517" lon="6.61366">
        <ele>2945.14</ele>
        <time>2018-05-26T07:23:31Z</time>
      </trkpt>
      <trkpt lat="45.28513" lon="6.61365">
        <ele>2946.58</ele>
        <time>2018-05-26T07:23:43Z</time>
      </trkpt>
      <trkpt lat="45.2851" lon="6.61367">
        <ele>2947.06</ele>
        <time>2018-05-26T07:23:55Z</time>
      </trkpt>
      <trkpt lat="45.28505" lon="6.61366">
        <ele>2948.5</ele>
        <time>2018-05-26T07:24:07Z</time>
      </trkpt>
      <trkpt lat="45.28501" lon="6.61367">
        <ele>2950.42</ele>
        <time>2018-05-26T07:24:20Z</time>
      </trkpt>
      <trkpt lat="45.28499" lon="6.61367">
        <ele>2951.38</ele>
        <time>2018-05-26T07:24:30Z</time>
      </trkpt>
      <trkpt lat="45.28495" lon="6.61369">
        <ele>2953.31</ele>
        <time>2018-05-26T07:24:42Z</time>
      </trkpt>
      <trkpt lat="45.28491" lon="6.61368">
        <ele>2954.75</ele>
        <time>2018-05-26T07:24:54Z</time>
      </trkpt>
      <trkpt lat="45.28486" lon="6.61366">
        <ele>2955.71</ele>
        <time>2018-05-26T07:25:07Z</time>
      </trkpt>
      <trkpt lat="45.28482" lon="6.61367">
        <ele>2956.19</ele>
        <time>2018-05-26T07:25:19Z</time>
      </trkpt>
      <trkpt lat="45.28478" lon="6.61368">
        <ele>2957.63</ele>
        <time>2018-05-26T07:25:31Z</time>
      </trkpt>
      <trkpt lat="45.28476" lon="6.61369">
        <ele>2959.08</ele>
        <time>2018-05-26T07:25:46Z</time>
      </trkpt>
      <trkpt lat="45.28474" lon="6.61371">
        <ele>2960.04</ele>
        <time>2018-05-26T07:25:56Z</time>
      </trkpt>
      <trkpt lat="45.28475" lon="6.61376">
        <ele>2961.96</ele>
        <time>2018-05-26T07:26:08Z</time>
      </trkpt>
      <trkpt lat="45.28475" lon="6.61379">
        <ele>2962.92</ele>
        <time>2018-05-26T07:26:19Z</time>
      </trkpt>
      <trkpt lat="45.28477" lon="6.61385">
        <ele>2964.84</ele>
        <time>2018-05-26T07:26:34Z</time>
      </trkpt>
      <trkpt lat="45.28478" lon="6.61391">
        <ele>2966.29</ele>
        <time>2018-05-26T07:26:48Z</time>
      </trkpt>
      <trkpt lat="45.28479" lon="6.61396">
        <ele>2967.73</ele>
        <time>2018-05-26T07:27:01Z</time>
      </trkpt>
      <trkpt lat="45.28479" lon="6.61397">
        <ele>2969.65</ele>
        <time>2018-05-26T07:27:15Z</time>
      </trkpt>
      <trkpt lat="45.28482" lon="6.61404">
        <ele>2970.13</ele>
        <time>2018-05-26T07:27:37Z</time>
      </trkpt>
      <trkpt lat="45.28483" lon="6.61408">
        <ele>2972.05</ele>
        <time>2018-05-26T07:27:49Z</time>
      </trkpt>
      <trkpt lat="45.2848" lon="6.61408">
        <ele>2973.01</ele>
        <time>2018-05-26T07:28:03Z</time>
      </trkpt>
      <trkpt lat="45.28474" lon="6.61406">
        <ele>2974.46</ele>
        <time>2018-05-26T07:28:19Z</time>
      </trkpt>
      <trkpt lat="45.28467" lon="6.61403">
        <ele>2975.42</ele>
        <time>2018-05-26T07:28:32Z</time>
      </trkpt>
      <trkpt lat="45.28461" lon="6.61401">
        <ele>2976.38</ele>
        <time>2018-05-26T07:28:48Z</time>
      </trkpt>
      <trkpt lat="45.28459" lon="6.61399">
        <ele>2976.86</ele>
        <time>2018-05-26T07:29:06Z</time>
      </trkpt>
      <trkpt lat="45.28455" lon="6.61395">
        <ele>2978.3</ele>
        <time>2018-05-26T07:29:19Z</time>
      </trkpt>
      <trkpt lat="45.28454" lon="6.61394">
        <ele>2979.26</ele>
        <time>2018-05-26T07:29:35Z</time>
      </trkpt>
      <trkpt lat="45.28453" lon="6.61403">
        <ele>2982.15</ele>
        <time>2018-05-26T07:29:52Z</time>
      </trkpt>
      <trkpt lat="45.28455" lon="6.61411">
        <ele>2982.15</ele>
        <time>2018-05-26T07:30:08Z</time>
      </trkpt>
      <trkpt lat="45.28463" lon="6.61421">
        <ele>2984.07</ele>
        <time>2018-05-26T07:30:25Z</time>
      </trkpt>
      <trkpt lat="45.28469" lon="6.61429">
        <ele>2985.51</ele>
        <time>2018-05-26T07:30:39Z</time>
      </trkpt>
      <trkpt lat="45.28473" lon="6.61435">
        <ele>2987.43</ele>
        <time>2018-05-26T07:30:53Z</time>
      </trkpt>
      <trkpt lat="45.28476" lon="6.61438">
        <ele>2988.4</ele>
        <time>2018-05-26T07:31:16Z</time>
      </trkpt>
      <trkpt lat="45.28474" lon="6.6144">
        <ele>2989.36</ele>
        <time>2018-05-26T07:31:30Z</time>
      </trkpt>
      <trkpt lat="45.28468" lon="6.61441">
        <ele>2991.76</ele>
        <time>2018-05-26T07:31:43Z</time>
      </trkpt>
      <trkpt lat="45.2846" lon="6.61441">
        <ele>2993.2</ele>
        <time>2018-05-26T07:31:58Z</time>
      </trkpt>
      <trkpt lat="45.28456" lon="6.61442">
        <ele>2995.12</ele>
        <time>2018-05-26T07:32:11Z</time>
      </trkpt>
      <trkpt lat="45.28451" lon="6.61441">
        <ele>2996.57</ele>
        <time>2018-05-26T07:32:25Z</time>
      </trkpt>
      <trkpt lat="45.28446" lon="6.61441">
        <ele>2998.01</ele>
        <time>2018-05-26T07:32:38Z</time>
      </trkpt>
      <trkpt lat="45.28442" lon="6.6144">
        <ele>2999.45</ele>
        <time>2018-05-26T07:32:51Z</time>
      </trkpt>
      <trkpt lat="45.28438" lon="6.61438">
        <ele>3001.37</ele>
        <time>2018-05-26T07:33:04Z</time>
      </trkpt>
      <trkpt lat="45.28434" lon="6.61436">
        <ele>3002.82</ele>
        <time>2018-05-26T07:33:17Z</time>
      </trkpt>
      <trkpt lat="45.28429" lon="6.61434">
        <ele>3004.26</ele>
        <time>2018-05-26T07:33:30Z</time>
      </trkpt>
      <trkpt lat="45.28425" lon="6.61432">
        <ele>3004.74</ele>
        <time>2018-05-26T07:33:43Z</time>
      </trkpt>
      <trkpt lat="45.2842" lon="6.61427">
        <ele>3006.66</ele>
        <time>2018-05-26T07:33:59Z</time>
      </trkpt>
      <trkpt lat="45.28416" lon="6.61423">
        <ele>3009.06</ele>
        <time>2018-05-26T07:34:14Z</time>
      </trkpt>
      <trkpt lat="45.28411" lon="6.61417">
        <ele>3011.47</ele>
        <time>2018-05-26T07:34:28Z</time>
      </trkpt>
      <trkpt lat="45.28407" lon="6.61413">
        <ele>3012.91</ele>
        <time>2018-05-26T07:34:42Z</time>
      </trkpt>
      <trkpt lat="45.28403" lon="6.61409">
        <ele>3014.35</ele>
        <time>2018-05-26T07:34:54Z</time>
      </trkpt>
      <trkpt lat="45.28399" lon="6.61405">
        <ele>3015.79</ele>
        <time>2018-05-26T07:35:08Z</time>
      </trkpt>
      <trkpt lat="45.28394" lon="6.61403">
        <ele>3017.23</ele>
        <time>2018-05-26T07:35:22Z</time>
      </trkpt>
      <trkpt lat="45.28391" lon="6.61401">
        <ele>3018.2</ele>
        <time>2018-05-26T07:35:36Z</time>
      </trkpt>
      <trkpt lat="45.28385" lon="6.61403">
        <ele>3020.6</ele>
        <time>2018-05-26T07:35:49Z</time>
      </trkpt>
      <trkpt lat="45.28378" lon="6.61406">
        <ele>3024.44</ele>
        <time>2018-05-26T07:36:01Z</time>
      </trkpt>
      <trkpt lat="45.28378" lon="6.61406">
        <ele>3023.96</ele>
        <time>2018-05-26T07:36:02Z</time>
      </trkpt>
      <trkpt lat="45.28378" lon="6.61412">
        <ele>3027.33</ele>
        <time>2018-05-26T07:36:12Z</time>
      </trkpt>
      <trkpt lat="45.2838" lon="6.61417">
        <ele>3029.25</ele>
        <time>2018-05-26T07:36:25Z</time>
      </trkpt>
      <trkpt lat="45.28379" lon="6.61429">
        <ele>3032.14</ele>
        <time>2018-05-26T07:36:44Z</time>
      </trkpt>
      <trkpt lat="45.28379" lon="6.61437">
        <ele>3035.98</ele>
        <time>2018-05-26T07:36:55Z</time>
      </trkpt>
      <trkpt lat="45.28377" lon="6.61444">
        <ele>3036.46</ele>
        <time>2018-05-26T07:37:09Z</time>
      </trkpt>
      <trkpt lat="45.28376" lon="6.61451">
        <ele>3036.46</ele>
        <time>2018-05-26T07:37:22Z</time>
      </trkpt>
      <trkpt lat="45.28379" lon="6.61457">
        <ele>3037.9</ele>
        <time>2018-05-26T07:37:35Z</time>
      </trkpt>
      <trkpt lat="45.28378" lon="6.61467">
        <ele>3040.31</ele>
        <time>2018-05-26T07:37:49Z</time>
      </trkpt>
      <trkpt lat="45.28379" lon="6.61475">
        <ele>3041.27</ele>
        <time>2018-05-26T07:38:04Z</time>
      </trkpt>
      <trkpt lat="45.28379" lon="6.61482">
        <ele>3043.19</ele>
        <time>2018-05-26T07:38:17Z</time>
      </trkpt>
      <trkpt lat="45.28381" lon="6.61489">
        <ele>3045.59</ele>
        <time>2018-05-26T07:38:31Z</time>
      </trkpt>
      <trkpt lat="45.2838" lon="6.61498">
        <ele>3048.48</ele>
        <time>2018-05-26T07:38:45Z</time>
      </trkpt>
      <trkpt lat="45.28381" lon="6.61506">
        <ele>3049.44</ele>
        <time>2018-05-26T07:38:59Z</time>
      </trkpt>
      <trkpt lat="45.28382" lon="6.61514">
        <ele>3051.36</ele>
        <time>2018-05-26T07:39:13Z</time>
      </trkpt>
      <trkpt lat="45.28379" lon="6.61512">
        <ele>3052.32</ele>
        <time>2018-05-26T07:39:24Z</time>
      </trkpt>
      <trkpt lat="45.28373" lon="6.61509">
        <ele>3053.77</ele>
        <time>2018-05-26T07:39:39Z</time>
      </trkpt>
      <trkpt lat="45.28369" lon="6.61505">
        <ele>3056.17</ele>
        <time>2018-05-26T07:39:51Z</time>
      </trkpt>
      <trkpt lat="45.28367" lon="6.61503">
        <ele>3056.65</ele>
        <time>2018-05-26T07:40:05Z</time>
      </trkpt>
      <trkpt lat="45.2836" lon="6.615">
        <ele>3060.01</ele>
        <time>2018-05-26T07:40:21Z</time>
      </trkpt>
      <trkpt lat="45.28355" lon="6.61498">
        <ele>3061.46</ele>
        <time>2018-05-26T07:40:35Z</time>
      </trkpt>
      <trkpt lat="45.28355" lon="6.61497">
        <ele>3063.38</ele>
        <time>2018-05-26T07:40:48Z</time>
      </trkpt>
      <trkpt lat="45.28356" lon="6.61503">
        <ele>3064.34</ele>
        <time>2018-05-26T07:41:01Z</time>
      </trkpt>
      <trkpt lat="45.28357" lon="6.61513">
        <ele>3065.3</ele>
        <time>2018-05-26T07:41:16Z</time>
      </trkpt>
      <trkpt lat="45.28357" lon="6.61515">
        <ele>3067.22</ele>
        <time>2018-05-26T07:41:18Z</time>
      </trkpt>
      <trkpt lat="45.28357" lon="6.61524">
        <ele>3069.63</ele>
        <time>2018-05-26T07:41:33Z</time>
      </trkpt>
      <trkpt lat="45.28357" lon="6.61531">
        <ele>3069.15</ele>
        <time>2018-05-26T07:41:47Z</time>
      </trkpt>
      <trkpt lat="45.28359" lon="6.61541">
        <ele>3071.07</ele>
        <time>2018-05-26T07:42:02Z</time>
      </trkpt>
      <trkpt lat="45.28359" lon="6.61551">
        <ele>3073.47</ele>
        <time>2018-05-26T07:42:18Z</time>
      </trkpt>
      <trkpt lat="45.28358" lon="6.61561">
        <ele>3075.88</ele>
        <time>2018-05-26T07:42:33Z</time>
      </trkpt>
      <trkpt lat="45.28359" lon="6.61569">
        <ele>3078.28</ele>
        <time>2018-05-26T07:42:45Z</time>
      </trkpt>
      <trkpt lat="45.28359" lon="6.61579">
        <ele>3080.2</ele>
        <time>2018-05-26T07:43:01Z</time>
      </trkpt>
      <trkpt lat="45.28359" lon="6.61588">
        <ele>3081.16</ele>
        <time>2018-05-26T07:43:16Z</time>
      </trkpt>
      <trkpt lat="45.28357" lon="6.61596">
        <ele>3083.09</ele>
        <time>2018-05-26T07:43:30Z</time>
      </trkpt>
      <trkpt lat="45.28353" lon="6.61598">
        <ele>3085.01</ele>
        <time>2018-05-26T07:43:43Z</time>
      </trkpt>
      <trkpt lat="45.28348" lon="6.616">
        <ele>3085.97</ele>
        <time>2018-05-26T07:43:56Z</time>
      </trkpt>
      <trkpt lat="45.28343" lon="6.616">
        <ele>3088.37</ele>
        <time>2018-05-26T07:44:10Z</time>
      </trkpt>
      <trkpt lat="45.28337" lon="6.61597">
        <ele>3091.26</ele>
        <time>2018-05-26T07:44:25Z</time>
      </trkpt>
      <trkpt lat="45.28331" lon="6.61592">
        <ele>3093.66</ele>
        <time>2018-05-26T07:44:41Z</time>
      </trkpt>
      <trkpt lat="45.28326" lon="6.61587">
        <ele>3094.14</ele>
        <time>2018-05-26T07:44:56Z</time>
      </trkpt>
      <trkpt lat="45.28322" lon="6.61583">
        <ele>3097.51</ele>
        <time>2018-05-26T07:45:10Z</time>
      </trkpt>
      <trkpt lat="45.28318" lon="6.61579">
        <ele>3099.43</ele>
        <time>2018-05-26T07:45:24Z</time>
      </trkpt>
      <trkpt lat="45.28314" lon="6.61575">
        <ele>3101.35</ele>
        <time>2018-05-26T07:45:38Z</time>
      </trkpt>
      <trkpt lat="45.2831" lon="6.61569">
        <ele>3103.27</ele>
        <time>2018-05-26T07:45:51Z</time>
      </trkpt>
      <trkpt lat="45.28306" lon="6.61565">
        <ele>3105.2</ele>
        <time>2018-05-26T07:46:04Z</time>
      </trkpt>
      <trkpt lat="45.28302" lon="6.61562">
        <ele>3106.64</ele>
        <time>2018-05-26T07:46:17Z</time>
      </trkpt>
      <trkpt lat="45.28298" lon="6.61561">
        <ele>3109.04</ele>
        <time>2018-05-26T07:46:30Z</time>
      </trkpt>
      <trkpt lat="45.28296" lon="6.61567">
        <ele>3111.44</ele>
        <time>2018-05-26T07:46:43Z</time>
      </trkpt>
      <trkpt lat="45.28294" lon="6.61574">
        <ele>3112.89</ele>
        <time>2018-05-26T07:46:57Z</time>
      </trkpt>
      <trkpt lat="45.28291" lon="6.61583">
        <ele>3114.81</ele>
        <time>2018-05-26T07:47:11Z</time>
      </trkpt>
      <trkpt lat="45.2829" lon="6.6159">
        <ele>3115.29</ele>
        <time>2018-05-26T07:47:24Z</time>
      </trkpt>
      <trkpt lat="45.28289" lon="6.61597">
        <ele>3117.21</ele>
        <time>2018-05-26T07:47:38Z</time>
      </trkpt>
      <trkpt lat="45.28285" lon="6.61606">
        <ele>3119.13</ele>
        <time>2018-05-26T07:47:53Z</time>
      </trkpt>
      <trkpt lat="45.28282" lon="6.61614">
        <ele>3121.06</ele>
        <time>2018-05-26T07:48:09Z</time>
      </trkpt>
      <trkpt lat="45.2828" lon="6.61621">
        <ele>3122.5</ele>
        <time>2018-05-26T07:48:24Z</time>
      </trkpt>
      <trkpt lat="45.28277" lon="6.61629">
        <ele>3125.38</ele>
        <time>2018-05-26T07:48:39Z</time>
      </trkpt>
      <trkpt lat="45.28275" lon="6.61637">
        <ele>3127.31</ele>
        <time>2018-05-26T07:48:55Z</time>
      </trkpt>
      <trkpt lat="45.28273" lon="6.61645">
        <ele>3130.67</ele>
        <time>2018-05-26T07:49:09Z</time>
      </trkpt>
      <trkpt lat="45.28273" lon="6.61651">
        <ele>3130.67</ele>
        <time>2018-05-26T07:49:22Z</time>
      </trkpt>
      <trkpt lat="45.28272" lon="6.61653">
        <ele>3131.15</ele>
        <time>2018-05-26T07:49:38Z</time>
      </trkpt>
      <trkpt lat="45.28273" lon="6.6166">
        <ele>3133.07</ele>
        <time>2018-05-26T07:49:56Z</time>
      </trkpt>
      <trkpt lat="45.28271" lon="6.61668">
        <ele>3134.52</ele>
        <time>2018-05-26T07:50:10Z</time>
      </trkpt>
      <trkpt lat="45.28269" lon="6.61674">
        <ele>3136.44</ele>
        <time>2018-05-26T07:50:24Z</time>
      </trkpt>
      <trkpt lat="45.28266" lon="6.61683">
        <ele>3138.84</ele>
        <time>2018-05-26T07:50:38Z</time>
      </trkpt>
      <trkpt lat="45.28265" lon="6.6169">
        <ele>3140.76</ele>
        <time>2018-05-26T07:50:51Z</time>
      </trkpt>
      <trkpt lat="45.28266" lon="6.6169">
        <ele>3141.73</ele>
        <time>2018-05-26T07:51:05Z</time>
      </trkpt>
      <trkpt lat="45.2826" lon="6.61689">
        <ele>3143.17</ele>
        <time>2018-05-26T07:51:22Z</time>
      </trkpt>
      <trkpt lat="45.28254" lon="6.6169">
        <ele>3145.09</ele>
        <time>2018-05-26T07:51:36Z</time>
      </trkpt>
      <trkpt lat="45.28248" lon="6.61688">
        <ele>3147.49</ele>
        <time>2018-05-26T07:51:50Z</time>
      </trkpt>
      <trkpt lat="45.28242" lon="6.61684">
        <ele>3148.94</ele>
        <time>2018-05-26T07:52:06Z</time>
      </trkpt>
      <trkpt lat="45.28237" lon="6.61679">
        <ele>3151.82</ele>
        <time>2018-05-26T07:52:23Z</time>
      </trkpt>
      <trkpt lat="45.28231" lon="6.61674">
        <ele>3153.74</ele>
        <time>2018-05-26T07:52:38Z</time>
      </trkpt>
      <trkpt lat="45.2823" lon="6.6167">
        <ele>3154.7</ele>
        <time>2018-05-26T07:52:56Z</time>
      </trkpt>
      <trkpt lat="45.28226" lon="6.61665">
        <ele>3157.59</ele>
        <time>2018-05-26T07:53:11Z</time>
      </trkpt>
      <trkpt lat="45.28222" lon="6.61661">
        <ele>3158.55</ele>
        <time>2018-05-26T07:53:26Z</time>
      </trkpt>
      <trkpt lat="45.28217" lon="6.61655">
        <ele>3160.95</ele>
        <time>2018-05-26T07:53:39Z</time>
      </trkpt>
      <trkpt lat="45.28214" lon="6.61653">
        <ele>3163.36</ele>
        <time>2018-05-26T07:53:53Z</time>
      </trkpt>
      <trkpt lat="45.2821" lon="6.61648">
        <ele>3165.28</ele>
        <time>2018-05-26T07:54:06Z</time>
      </trkpt>
      <trkpt lat="45.2821" lon="6.61647">
        <ele>3166.24</ele>
        <time>2018-05-26T07:54:18Z</time>
      </trkpt>
      <trkpt lat="45.28211" lon="6.6165">
        <ele>3167.2</ele>
        <time>2018-05-26T07:54:31Z</time>
      </trkpt>
      <trkpt lat="45.28209" lon="6.61658">
        <ele>3168.64</ele>
        <time>2018-05-26T07:54:44Z</time>
      </trkpt>
      <trkpt lat="45.28206" lon="6.61666">
        <ele>3170.57</ele>
        <time>2018-05-26T07:54:59Z</time>
      </trkpt>
      <trkpt lat="45.28206" lon="6.61674">
        <ele>3172.01</ele>
        <time>2018-05-26T07:55:13Z</time>
      </trkpt>
      <trkpt lat="45.28202" lon="6.61675">
        <ele>3172.97</ele>
        <time>2018-05-26T07:55:26Z</time>
      </trkpt>
      <trkpt lat="45.28198" lon="6.61671">
        <ele>3176.33</ele>
        <time>2018-05-26T07:55:39Z</time>
      </trkpt>
      <trkpt lat="45.28193" lon="6.61665">
        <ele>3177.78</ele>
        <time>2018-05-26T07:55:53Z</time>
      </trkpt>
      <trkpt lat="45.28191" lon="6.6166">
        <ele>3179.22</ele>
        <time>2018-05-26T07:56:06Z</time>
      </trkpt>
      <trkpt lat="45.28185" lon="6.61652">
        <ele>3180.66</ele>
        <time>2018-05-26T07:56:21Z</time>
      </trkpt>
      <trkpt lat="45.28181" lon="6.6166">
        <ele>3182.58</ele>
        <time>2018-05-26T07:56:34Z</time>
      </trkpt>
      <trkpt lat="45.28178" lon="6.61665">
        <ele>3183.54</ele>
        <time>2018-05-26T07:56:47Z</time>
      </trkpt>
      <trkpt lat="45.28176" lon="6.61672">
        <ele>3186.43</ele>
        <time>2018-05-26T07:56:58Z</time>
      </trkpt>
      <trkpt lat="45.28172" lon="6.61679">
        <ele>3187.39</ele>
        <time>2018-05-26T07:57:12Z</time>
      </trkpt>
      <trkpt lat="45.2817" lon="6.61685">
        <ele>3188.83</ele>
        <time>2018-05-26T07:57:28Z</time>
      </trkpt>
      <trkpt lat="45.28169" lon="6.61691">
        <ele>3190.27</ele>
        <time>2018-05-26T07:57:42Z</time>
      </trkpt>
      <trkpt lat="45.28167" lon="6.61697">
        <ele>3191.71</ele>
        <time>2018-05-26T07:57:55Z</time>
      </trkpt>
      <trkpt lat="45.28163" lon="6.61694">
        <ele>3193.16</ele>
        <time>2018-05-26T07:58:09Z</time>
      </trkpt>
      <trkpt lat="45.28159" lon="6.6169">
        <ele>3195.08</ele>
        <time>2018-05-26T07:58:22Z</time>
      </trkpt>
      <trkpt lat="45.28154" lon="6.61687">
        <ele>3196.04</ele>
        <time>2018-05-26T07:58:35Z</time>
      </trkpt>
      <trkpt lat="45.28151" lon="6.61683">
        <ele>3197.96</ele>
        <time>2018-05-26T07:58:48Z</time>
      </trkpt>
      <trkpt lat="45.28147" lon="6.6168">
        <ele>3200.37</ele>
        <time>2018-05-26T07:59:01Z</time>
      </trkpt>
      <trkpt lat="45.28146" lon="6.61683">
        <ele>3202.77</ele>
        <time>2018-05-26T07:59:13Z</time>
      </trkpt>
      <trkpt lat="45.28148" lon="6.6169">
        <ele>3204.21</ele>
        <time>2018-05-26T07:59:26Z</time>
      </trkpt>
      <trkpt lat="45.2815" lon="6.61695">
        <ele>3206.61</ele>
        <time>2018-05-26T07:59:41Z</time>
      </trkpt>
      <trkpt lat="45.28151" lon="6.61698">
        <ele>3206.61</ele>
        <time>2018-05-26T07:59:46Z</time>
      </trkpt>
      <trkpt lat="45.28147" lon="6.61701">
        <ele>3207.58</ele>
        <time>2018-05-26T07:59:56Z</time>
      </trkpt>
      <trkpt lat="45.28139" lon="6.61699">
        <ele>3209.98</ele>
        <time>2018-05-26T08:00:11Z</time>
      </trkpt>
      <trkpt lat="45.28134" lon="6.61694">
        <ele>3211.42</ele>
        <time>2018-05-26T08:00:25Z</time>
      </trkpt>
      <trkpt lat="45.28128" lon="6.61685">
        <ele>3212.86</ele>
        <time>2018-05-26T08:00:39Z</time>
      </trkpt>
      <trkpt lat="45.28125" lon="6.61681">
        <ele>3214.31</ele>
        <time>2018-05-26T08:00:53Z</time>
      </trkpt>
      <trkpt lat="45.28123" lon="6.61675">
        <ele>3216.71</ele>
        <time>2018-05-26T08:01:07Z</time>
      </trkpt>
      <trkpt lat="45.28121" lon="6.61668">
        <ele>3218.63</ele>
        <time>2018-05-26T08:01:20Z</time>
      </trkpt>
      <trkpt lat="45.2812" lon="6.61663">
        <ele>3219.11</ele>
        <time>2018-05-26T08:01:33Z</time>
      </trkpt>
      <trkpt lat="45.28116" lon="6.6166">
        <ele>3221.03</ele>
        <time>2018-05-26T08:01:45Z</time>
      </trkpt>
      <trkpt lat="45.2812" lon="6.61662">
        <ele>3222.48</ele>
        <time>2018-05-26T08:02:01Z</time>
      </trkpt>
      <trkpt lat="45.28121" lon="6.61669">
        <ele>3223.92</ele>
        <time>2018-05-26T08:02:13Z</time>
      </trkpt>
      <trkpt lat="45.28122" lon="6.61681">
        <ele>3225.84</ele>
        <time>2018-05-26T08:02:29Z</time>
      </trkpt>
      <trkpt lat="45.28122" lon="6.61689">
        <ele>3226.8</ele>
        <time>2018-05-26T08:02:47Z</time>
      </trkpt>
      <trkpt lat="45.28122" lon="6.61702">
        <ele>3230.17</ele>
        <time>2018-05-26T08:03:02Z</time>
      </trkpt>
      <trkpt lat="45.28123" lon="6.61711">
        <ele>3230.65</ele>
        <time>2018-05-26T08:03:16Z</time>
      </trkpt>
      <trkpt lat="45.28122" lon="6.6172">
        <ele>3233.05</ele>
        <time>2018-05-26T08:03:30Z</time>
      </trkpt>
      <trkpt lat="45.28125" lon="6.61728">
        <ele>3233.53</ele>
        <time>2018-05-26T08:03:43Z</time>
      </trkpt>
      <trkpt lat="45.28121" lon="6.6173">
        <ele>3234.49</ele>
        <time>2018-05-26T08:03:57Z</time>
      </trkpt>
      <trkpt lat="45.28116" lon="6.61725">
        <ele>3236.42</ele>
        <time>2018-05-26T08:04:10Z</time>
      </trkpt>
      <trkpt lat="45.28107" lon="6.6172">
        <ele>3237.86</ele>
        <time>2018-05-26T08:04:24Z</time>
      </trkpt>
      <trkpt lat="45.281" lon="6.61714">
        <ele>3239.3</ele>
        <time>2018-05-26T08:04:40Z</time>
      </trkpt>
      <trkpt lat="45.28102" lon="6.61709">
        <ele>3240.26</ele>
        <time>2018-05-26T08:04:51Z</time>
      </trkpt>
      <trkpt lat="45.28102" lon="6.61714">
        <ele>3241.7</ele>
        <time>2018-05-26T08:05:03Z</time>
      </trkpt>
      <trkpt lat="45.28101" lon="6.61724">
        <ele>3243.63</ele>
        <time>2018-05-26T08:05:16Z</time>
      </trkpt>
      <trkpt lat="45.28101" lon="6.61736">
        <ele>3244.59</ele>
        <time>2018-05-26T08:05:30Z</time>
      </trkpt>
      <trkpt lat="45.28102" lon="6.61745">
        <ele>3247.47</ele>
        <time>2018-05-26T08:05:43Z</time>
      </trkpt>
      <trkpt lat="45.28102" lon="6.61753">
        <ele>3248.43</ele>
        <time>2018-05-26T08:06:00Z</time>
      </trkpt>
      <trkpt lat="45.28101" lon="6.61764">
        <ele>3250.35</ele>
        <time>2018-05-26T08:06:14Z</time>
      </trkpt>
      <trkpt lat="45.28102" lon="6.61772">
        <ele>3251.8</ele>
        <time>2018-05-26T08:06:27Z</time>
      </trkpt>
      <trkpt lat="45.28107" lon="6.61783">
        <ele>3252.76</ele>
        <time>2018-05-26T08:06:44Z</time>
      </trkpt>
      <trkpt lat="45.28109" lon="6.61788">
        <ele>3253.72</ele>
        <time>2018-05-26T08:06:48Z</time>
      </trkpt>
      <trkpt lat="45.28111" lon="6.618">
        <ele>3255.64</ele>
        <time>2018-05-26T08:07:02Z</time>
      </trkpt>
      <trkpt lat="45.28116" lon="6.61804">
        <ele>3258.05</ele>
        <time>2018-05-26T08:07:18Z</time>
      </trkpt>
      <trkpt lat="45.28119" lon="6.6181">
        <ele>3259.49</ele>
        <time>2018-05-26T08:07:32Z</time>
      </trkpt>
      <trkpt lat="45.28121" lon="6.61817">
        <ele>3260.93</ele>
        <time>2018-05-26T08:07:46Z</time>
      </trkpt>
      <trkpt lat="45.28126" lon="6.61826">
        <ele>3262.37</ele>
        <time>2018-05-26T08:08:03Z</time>
      </trkpt>
      <trkpt lat="45.28127" lon="6.6183">
        <ele>3263.33</ele>
        <time>2018-05-26T08:08:14Z</time>
      </trkpt>
      <trkpt lat="45.28126" lon="6.61831">
        <ele>3263.81</ele>
        <time>2018-05-26T08:08:24Z</time>
      </trkpt>
      <trkpt lat="45.2812" lon="6.61834">
        <ele>3266.7</ele>
        <time>2018-05-26T08:08:41Z</time>
      </trkpt>
      <trkpt lat="45.28121" lon="6.61841">
        <ele>3269.58</ele>
        <time>2018-05-26T08:08:52Z</time>
      </trkpt>
      <trkpt lat="45.28123" lon="6.61849">
        <ele>3271.98</ele>
        <time>2018-05-26T08:09:12Z</time>
      </trkpt>
      <trkpt lat="45.28126" lon="6.61856">
        <ele>3273.91</ele>
        <time>2018-05-26T08:09:25Z</time>
      </trkpt>
      <trkpt lat="45.2813" lon="6.61865">
        <ele>3276.31</ele>
        <time>2018-05-26T08:09:41Z</time>
      </trkpt>
      <trkpt lat="45.2813" lon="6.61875">
        <ele>3279.19</ele>
        <time>2018-05-26T08:09:56Z</time>
      </trkpt>
      <trkpt lat="45.28124" lon="6.61876">
        <ele>3281.6</ele>
        <time>2018-05-26T08:10:13Z</time>
      </trkpt>
      <trkpt lat="45.28119" lon="6.61877">
        <ele>3283.52</ele>
        <time>2018-05-26T08:10:27Z</time>
      </trkpt>
      <trkpt lat="45.28113" lon="6.61881">
        <ele>3284.96</ele>
        <time>2018-05-26T08:10:42Z</time>
      </trkpt>
      <trkpt lat="45.2811" lon="6.61886">
        <ele>3286.89</ele>
        <time>2018-05-26T08:10:55Z</time>
      </trkpt>
      <trkpt lat="45.28106" lon="6.61895">
        <ele>3296.02</ele>
        <time>2018-05-26T08:34:49Z</time>
      </trkpt>
      <trkpt lat="45.28106" lon="6.61903">
        <ele>3296.98</ele>
        <time>2018-05-26T08:35:01Z</time>
      </trkpt>
      <trkpt lat="45.28107" lon="6.61907">
        <ele>3297.94</ele>
        <time>2018-05-26T08:35:14Z</time>
      </trkpt>
      <trkpt lat="45.28103" lon="6.61905">
        <ele>3299.86</ele>
        <time>2018-05-26T08:35:26Z</time>
      </trkpt>
      <trkpt lat="45.28096" lon="6.61902">
        <ele>3301.3</ele>
        <time>2018-05-26T08:35:41Z</time>
      </trkpt>
      <trkpt lat="45.28094" lon="6.619">
        <ele>3302.27</ele>
        <time>2018-05-26T08:35:52Z</time>
      </trkpt>
      <trkpt lat="45.28093" lon="6.61906">
        <ele>3303.23</ele>
        <time>2018-05-26T08:36:05Z</time>
      </trkpt>
      <trkpt lat="45.28095" lon="6.61914">
        <ele>3305.15</ele>
        <time>2018-05-26T08:36:19Z</time>
      </trkpt>
      <trkpt lat="45.28097" lon="6.61921">
        <ele>3305.63</ele>
        <time>2018-05-26T08:36:31Z</time>
      </trkpt>
      <trkpt lat="45.28094" lon="6.6192">
        <ele>3306.59</ele>
        <time>2018-05-26T08:36:44Z</time>
      </trkpt>
      <trkpt lat="45.2809" lon="6.61919">
        <ele>3309</ele>
        <time>2018-05-26T08:36:56Z</time>
      </trkpt>
      <trkpt lat="45.28086" lon="6.61917">
        <ele>3310.92</ele>
        <time>2018-05-26T08:37:09Z</time>
      </trkpt>
      <trkpt lat="45.2808" lon="6.61916">
        <ele>3312.36</ele>
        <time>2018-05-26T08:37:23Z</time>
      </trkpt>
      <trkpt lat="45.28079" lon="6.61918">
        <ele>3313.8</ele>
        <time>2018-05-26T08:37:35Z</time>
      </trkpt>
      <trkpt lat="45.2808" lon="6.61925">
        <ele>3314.76</ele>
        <time>2018-05-26T08:37:48Z</time>
      </trkpt>
      <trkpt lat="45.28084" lon="6.61933">
        <ele>3316.69</ele>
        <time>2018-05-26T08:38:02Z</time>
      </trkpt>
      <trkpt lat="45.28088" lon="6.6194">
        <ele>3318.61</ele>
        <time>2018-05-26T08:38:17Z</time>
      </trkpt>
      <trkpt lat="45.28092" lon="6.61948">
        <ele>3321.01</ele>
        <time>2018-05-26T08:38:32Z</time>
      </trkpt>
      <trkpt lat="45.2809" lon="6.6195">
        <ele>3321.01</ele>
        <time>2018-05-26T08:38:44Z</time>
      </trkpt>
      <trkpt lat="45.28086" lon="6.61952">
        <ele>3323.42</ele>
        <time>2018-05-26T08:38:56Z</time>
      </trkpt>
      <trkpt lat="45.28083" lon="6.61952">
        <ele>3324.86</ele>
        <time>2018-05-26T08:39:08Z</time>
      </trkpt>
      <trkpt lat="45.28079" lon="6.61953">
        <ele>3325.82</ele>
        <time>2018-05-26T08:39:20Z</time>
      </trkpt>
      <trkpt lat="45.28084" lon="6.61957">
        <ele>3327.26</ele>
        <time>2018-05-26T08:39:33Z</time>
      </trkpt>
      <trkpt lat="45.2809" lon="6.6196">
        <ele>3328.7</ele>
        <time>2018-05-26T08:39:46Z</time>
      </trkpt>
      <trkpt lat="45.28094" lon="6.61964">
        <ele>3330.62</ele>
        <time>2018-05-26T08:39:59Z</time>
      </trkpt>
      <trkpt lat="45.28098" lon="6.61967">
        <ele>3332.07</ele>
        <time>2018-05-26T08:40:13Z</time>
      </trkpt>
      <trkpt lat="45.281" lon="6.61973">
        <ele>3333.03</ele>
        <time>2018-05-26T08:40:24Z</time>
      </trkpt>
      <trkpt lat="45.28095" lon="6.61974">
        <ele>3334.47</ele>
        <time>2018-05-26T08:40:36Z</time>
      </trkpt>
      <trkpt lat="45.2809" lon="6.61974">
        <ele>3335.43</ele>
        <time>2018-05-26T08:40:49Z</time>
      </trkpt>
      <trkpt lat="45.28086" lon="6.61975">
        <ele>3336.87</ele>
        <time>2018-05-26T08:41:01Z</time>
      </trkpt>
      <trkpt lat="45.28085" lon="6.61976">
        <ele>3337.83</ele>
        <time>2018-05-26T08:41:13Z</time>
      </trkpt>
      <trkpt lat="45.28089" lon="6.61979">
        <ele>3338.8</ele>
        <time>2018-05-26T08:41:27Z</time>
      </trkpt>
      <trkpt lat="45.28094" lon="6.61983">
        <ele>3340.72</ele>
        <time>2018-05-26T08:41:39Z</time>
      </trkpt>
      <trkpt lat="45.28091" lon="6.61985">
        <ele>3341.68</ele>
        <time>2018-05-26T08:41:50Z</time>
      </trkpt>
      <trkpt lat="45.28089" lon="6.61987">
        <ele>3343.12</ele>
        <time>2018-05-26T08:42:02Z</time>
      </trkpt>
      <trkpt lat="45.2809" lon="6.61989">
        <ele>3344.08</ele>
        <time>2018-05-26T08:42:09Z</time>
      </trkpt>
      <trkpt lat="45.28095" lon="6.61992">
        <ele>3345.52</ele>
        <time>2018-05-26T08:42:22Z</time>
      </trkpt>
      <trkpt lat="45.28099" lon="6.61995">
        <ele>3346.97</ele>
        <time>2018-05-26T08:42:35Z</time>
      </trkpt>
      <trkpt lat="45.28101" lon="6.61997">
        <ele>3347.45</ele>
        <time>2018-05-26T08:42:46Z</time>
      </trkpt>
      <trkpt lat="45.28097" lon="6.62">
        <ele>3348.89</ele>
        <time>2018-05-26T08:42:58Z</time>
      </trkpt>
      <trkpt lat="45.28092" lon="6.62003">
        <ele>3350.33</ele>
        <time>2018-05-26T08:43:11Z</time>
      </trkpt>
      <trkpt lat="45.28088" lon="6.62006">
        <ele>3351.77</ele>
        <time>2018-05-26T08:43:23Z</time>
      </trkpt>
      <trkpt lat="45.28088" lon="6.62005">
        <ele>3352.25</ele>
        <time>2018-05-26T08:43:31Z</time>
      </trkpt>
      <trkpt lat="45.28093" lon="6.62008">
        <ele>3353.7</ele>
        <time>2018-05-26T08:43:44Z</time>
      </trkpt>
      <trkpt lat="45.281" lon="6.62013">
        <ele>3355.14</ele>
        <time>2018-05-26T08:43:59Z</time>
      </trkpt>
      <trkpt lat="45.28097" lon="6.62017">
        <ele>3356.58</ele>
        <time>2018-05-26T08:44:10Z</time>
      </trkpt>
      <trkpt lat="45.28091" lon="6.62021">
        <ele>3358.5</ele>
        <time>2018-05-26T08:44:24Z</time>
      </trkpt>
      <trkpt lat="45.28085" lon="6.62022">
        <ele>3359.95</ele>
        <time>2018-05-26T08:44:37Z</time>
      </trkpt>
      <trkpt lat="45.28083" lon="6.62023">
        <ele>3360.91</ele>
        <time>2018-05-26T08:44:46Z</time>
      </trkpt>
      <trkpt lat="45.2809" lon="6.62027">
        <ele>3362.35</ele>
        <time>2018-05-26T08:44:59Z</time>
      </trkpt>
      <trkpt lat="45.28095" lon="6.62031">
        <ele>3364.27</ele>
        <time>2018-05-26T08:45:13Z</time>
      </trkpt>
      <trkpt lat="45.281" lon="6.62035">
        <ele>3366.19</ele>
        <time>2018-05-26T08:45:28Z</time>
      </trkpt>
      <trkpt lat="45.28107" lon="6.62037">
        <ele>3367.64</ele>
        <time>2018-05-26T08:45:43Z</time>
      </trkpt>
      <trkpt lat="45.28114" lon="6.6204">
        <ele>3370.04</ele>
        <time>2018-05-26T08:45:56Z</time>
      </trkpt>
      <trkpt lat="45.28119" lon="6.62041">
        <ele>3371</ele>
        <time>2018-05-26T08:46:09Z</time>
      </trkpt>
      <trkpt lat="45.28114" lon="6.62047">
        <ele>3372.92</ele>
        <time>2018-05-26T08:46:21Z</time>
      </trkpt>
      <trkpt lat="45.28109" lon="6.62052">
        <ele>3373.88</ele>
        <time>2018-05-26T08:46:35Z</time>
      </trkpt>
      <trkpt lat="45.28105" lon="6.62057">
        <ele>3375.81</ele>
        <time>2018-05-26T08:46:47Z</time>
      </trkpt>
      <trkpt lat="45.28102" lon="6.62064">
        <ele>3377.73</ele>
        <time>2018-05-26T08:47:01Z</time>
      </trkpt>
      <trkpt lat="45.28099" lon="6.62067">
        <ele>3378.69</ele>
        <time>2018-05-26T08:47:15Z</time>
      </trkpt>
      <trkpt lat="45.28104" lon="6.62064">
        <ele>3380.61</ele>
        <time>2018-05-26T08:47:37Z</time>
      </trkpt>
      <trkpt lat="45.28107" lon="6.62064">
        <ele>3381.09</ele>
        <time>2018-05-26T08:47:45Z</time>
      </trkpt>
      <trkpt lat="45.28114" lon="6.62065">
        <ele>3382.54</ele>
        <time>2018-05-26T08:47:57Z</time>
      </trkpt>
      <trkpt lat="45.2812" lon="6.62066">
        <ele>3384.46</ele>
        <time>2018-05-26T08:48:10Z</time>
      </trkpt>
      <trkpt lat="45.28126" lon="6.62069">
        <ele>3386.86</ele>
        <time>2018-05-26T08:48:26Z</time>
      </trkpt>
      <trkpt lat="45.28124" lon="6.62074">
        <ele>3386.86</ele>
        <time>2018-05-26T08:48:36Z</time>
      </trkpt>
      <trkpt lat="45.28121" lon="6.62077">
        <ele>3388.3</ele>
        <time>2018-05-26T08:48:48Z</time>
      </trkpt>
      <trkpt lat="45.28116" lon="6.62082">
        <ele>3391.19</ele>
        <time>2018-05-26T08:49:02Z</time>
      </trkpt>
      <trkpt lat="45.28119" lon="6.62082">
        <ele>3391.67</ele>
        <time>2018-05-26T08:49:13Z</time>
      </trkpt>
      <trkpt lat="45.28124" lon="6.62082">
        <ele>3392.63</ele>
        <time>2018-05-26T08:49:25Z</time>
      </trkpt>
      <trkpt lat="45.28127" lon="6.6208">
        <ele>3392.63</ele>
        <time>2018-05-26T08:49:40Z</time>
      </trkpt>
      <trkpt lat="45.28128" lon="6.62081">
        <ele>3394.07</ele>
        <time>2018-05-26T08:49:44Z</time>
      </trkpt>
      <trkpt lat="45.28135" lon="6.62086">
        <ele>3395.03</ele>
        <time>2018-05-26T08:49:58Z</time>
      </trkpt>
      <trkpt lat="45.28139" lon="6.62089">
        <ele>3396.48</ele>
        <time>2018-05-26T08:50:12Z</time>
      </trkpt>
      <trkpt lat="45.28143" lon="6.62094">
        <ele>3398.88</ele>
        <time>2018-05-26T08:50:25Z</time>
      </trkpt>
      <trkpt lat="45.28143" lon="6.62099">
        <ele>3399.36</ele>
        <time>2018-05-26T08:50:38Z</time>
      </trkpt>
      <trkpt lat="45.28137" lon="6.62101">
        <ele>3401.28</ele>
        <time>2018-05-26T08:50:52Z</time>
      </trkpt>
      <trkpt lat="45.28131" lon="6.62103">
        <ele>3402.72</ele>
        <time>2018-05-26T08:51:05Z</time>
      </trkpt>
      <trkpt lat="45.28126" lon="6.62106">
        <ele>3405.61</ele>
        <time>2018-05-26T08:51:17Z</time>
      </trkpt>
      <trkpt lat="45.28125" lon="6.62106">
        <ele>3405.13</ele>
        <time>2018-05-26T08:51:33Z</time>
      </trkpt>
      <trkpt lat="45.28125" lon="6.62108">
        <ele>3405.61</ele>
        <time>2018-05-26T08:51:46Z</time>
      </trkpt>
      <trkpt lat="45.2813" lon="6.62109">
        <ele>3407.53</ele>
        <time>2018-05-26T08:51:59Z</time>
      </trkpt>
      <trkpt lat="45.28136" lon="6.62112">
        <ele>3408.97</ele>
        <time>2018-05-26T08:52:13Z</time>
      </trkpt>
      <trkpt lat="45.28136" lon="6.62116">
        <ele>3409.93</ele>
        <time>2018-05-26T08:52:23Z</time>
      </trkpt>
      <trkpt lat="45.28129" lon="6.6212">
        <ele>3410.89</ele>
        <time>2018-05-26T08:52:37Z</time>
      </trkpt>
      <trkpt lat="45.28131" lon="6.6212">
        <ele>3412.34</ele>
        <time>2018-05-26T08:52:53Z</time>
      </trkpt>
      <trkpt lat="45.2813" lon="6.62122">
        <ele>3412.82</ele>
        <time>2018-05-26T08:53:07Z</time>
      </trkpt>
      <trkpt lat="45.28135" lon="6.62125">
        <ele>3414.74</ele>
        <time>2018-05-26T08:53:20Z</time>
      </trkpt>
      <trkpt lat="45.28143" lon="6.62128">
        <ele>3416.18</ele>
        <time>2018-05-26T08:53:33Z</time>
      </trkpt>
      <trkpt lat="45.28145" lon="6.62135">
        <ele>3418.1</ele>
        <time>2018-05-26T08:53:49Z</time>
      </trkpt>
      <trkpt lat="45.28142" lon="6.62138">
        <ele>3419.07</ele>
        <time>2018-05-26T08:54:01Z</time>
      </trkpt>
      <trkpt lat="45.28135" lon="6.62139">
        <ele>3420.51</ele>
        <time>2018-05-26T08:54:14Z</time>
      </trkpt>
      <trkpt lat="45.2813" lon="6.62142">
        <ele>3421.47</ele>
        <time>2018-05-26T08:54:26Z</time>
      </trkpt>
      <trkpt lat="45.28135" lon="6.62145">
        <ele>3423.39</ele>
        <time>2018-05-26T08:54:38Z</time>
      </trkpt>
      <trkpt lat="45.2814" lon="6.62148">
        <ele>3424.35</ele>
        <time>2018-05-26T08:54:53Z</time>
      </trkpt>
      <trkpt lat="45.28143" lon="6.62152">
        <ele>3425.31</ele>
        <time>2018-05-26T08:55:07Z</time>
      </trkpt>
      <trkpt lat="45.2814" lon="6.62156">
        <ele>3425.8</ele>
        <time>2018-05-26T08:55:18Z</time>
      </trkpt>
      <trkpt lat="45.28135" lon="6.62159">
        <ele>3427.72</ele>
        <time>2018-05-26T08:55:32Z</time>
      </trkpt>
      <trkpt lat="45.28133" lon="6.6216">
        <ele>3430.12</ele>
        <time>2018-05-26T08:55:44Z</time>
      </trkpt>
      <trkpt lat="45.28139" lon="6.62162">
        <ele>3429.64</ele>
        <time>2018-05-26T08:55:59Z</time>
      </trkpt>
      <trkpt lat="45.28142" lon="6.62167">
        <ele>3432.04</ele>
        <time>2018-05-26T08:56:14Z</time>
      </trkpt>
      <trkpt lat="45.28146" lon="6.62172">
        <ele>3433.49</ele>
        <time>2018-05-26T08:56:27Z</time>
      </trkpt>
      <trkpt lat="45.28151" lon="6.62179">
        <ele>3434.45</ele>
        <time>2018-05-26T08:56:44Z</time>
      </trkpt>
      <trkpt lat="45.28155" lon="6.62184">
        <ele>3436.37</ele>
        <time>2018-05-26T08:56:58Z</time>
      </trkpt>
      <trkpt lat="45.28153" lon="6.62186">
        <ele>3436.85</ele>
        <time>2018-05-26T08:57:10Z</time>
      </trkpt>
      <trkpt lat="45.28148" lon="6.62189">
        <ele>3438.29</ele>
        <time>2018-05-26T08:57:25Z</time>
      </trkpt>
      <trkpt lat="45.28143" lon="6.62191">
        <ele>3439.73</ele>
        <time>2018-05-26T08:57:39Z</time>
      </trkpt>
      <trkpt lat="45.2814" lon="6.62196">
        <ele>3441.66</ele>
        <time>2018-05-26T08:57:51Z</time>
      </trkpt>
      <trkpt lat="45.28143" lon="6.62199">
        <ele>3443.1</ele>
        <time>2018-05-26T08:58:06Z</time>
      </trkpt>
      <trkpt lat="45.28145" lon="6.62202">
        <ele>3444.54</ele>
        <time>2018-05-26T08:58:12Z</time>
      </trkpt>
      <trkpt lat="45.2815" lon="6.62209">
        <ele>3446.46</ele>
        <time>2018-05-26T08:58:29Z</time>
      </trkpt>
      <trkpt lat="45.28155" lon="6.62214">
        <ele>3448.39</ele>
        <time>2018-05-26T08:58:44Z</time>
      </trkpt>
      <trkpt lat="45.28156" lon="6.62219">
        <ele>3449.83</ele>
        <time>2018-05-26T08:58:57Z</time>
      </trkpt>
      <trkpt lat="45.28155" lon="6.62223">
        <ele>3449.83</ele>
        <time>2018-05-26T08:59:10Z</time>
      </trkpt>
      <trkpt lat="45.28152" lon="6.62225">
        <ele>3451.27</ele>
        <time>2018-05-26T08:59:30Z</time>
      </trkpt>
      <trkpt lat="45.28157" lon="6.62227">
        <ele>3452.71</ele>
        <time>2018-05-26T08:59:44Z</time>
      </trkpt>
      <trkpt lat="45.28163" lon="6.62231">
        <ele>3454.15</ele>
        <time>2018-05-26T08:59:58Z</time>
      </trkpt>
      <trkpt lat="45.28169" lon="6.62236">
        <ele>3456.08</ele>
        <time>2018-05-26T09:00:13Z</time>
      </trkpt>
      <trkpt lat="45.28171" lon="6.62237">
        <ele>3456.56</ele>
        <time>2018-05-26T09:00:36Z</time>
      </trkpt>
      <trkpt lat="45.28172" lon="6.62241">
        <ele>3457.04</ele>
        <time>2018-05-26T09:00:49Z</time>
      </trkpt>
      <trkpt lat="45.28165" lon="6.62243">
        <ele>3458.96</ele>
        <time>2018-05-26T09:01:03Z</time>
      </trkpt>
      <trkpt lat="45.28159" lon="6.62247">
        <ele>3460.4</ele>
        <time>2018-05-26T09:01:17Z</time>
      </trkpt>
      <trkpt lat="45.28156" lon="6.62248">
        <ele>3461.36</ele>
        <time>2018-05-26T09:01:29Z</time>
      </trkpt>
      <trkpt lat="45.2816" lon="6.62247">
        <ele>3461.84</ele>
        <time>2018-05-26T09:01:43Z</time>
      </trkpt>
      <trkpt lat="45.28165" lon="6.6225">
        <ele>3464.25</ele>
        <time>2018-05-26T09:01:56Z</time>
      </trkpt>
      <trkpt lat="45.28169" lon="6.62255">
        <ele>3465.69</ele>
        <time>2018-05-26T09:02:11Z</time>
      </trkpt>
      <trkpt lat="45.28169" lon="6.62258">
        <ele>3467.61</ele>
        <time>2018-05-26T09:02:24Z</time>
      </trkpt>
      <trkpt lat="45.2817" lon="6.62259">
        <ele>3467.61</ele>
        <time>2018-05-26T09:02:38Z</time>
      </trkpt>
      <trkpt lat="45.28167" lon="6.62262">
        <ele>3468.57</ele>
        <time>2018-05-26T09:02:51Z</time>
      </trkpt>
      <trkpt lat="45.28165" lon="6.62263">
        <ele>3469.54</ele>
        <time>2018-05-26T09:03:03Z</time>
      </trkpt>
      <trkpt lat="45.28168" lon="6.62264">
        <ele>3470.5</ele>
        <time>2018-05-26T09:03:14Z</time>
      </trkpt>
      <trkpt lat="45.28169" lon="6.62264">
        <ele>3470.98</ele>
        <time>2018-05-26T09:03:37Z</time>
      </trkpt>
      <trkpt lat="45.28175" lon="6.62269">
        <ele>3473.38</ele>
        <time>2018-05-26T09:03:52Z</time>
      </trkpt>
      <trkpt lat="45.28179" lon="6.62272">
        <ele>3474.34</ele>
        <time>2018-05-26T09:04:04Z</time>
      </trkpt>
      <trkpt lat="45.28178" lon="6.62274">
        <ele>3474.82</ele>
        <time>2018-05-26T09:04:17Z</time>
      </trkpt>
      <trkpt lat="45.28173" lon="6.62277">
        <ele>3476.26</ele>
        <time>2018-05-26T09:04:29Z</time>
      </trkpt>
      <trkpt lat="45.2817" lon="6.62277">
        <ele>3477.23</ele>
        <time>2018-05-26T09:04:42Z</time>
      </trkpt>
      <trkpt lat="45.28167" lon="6.62278">
        <ele>3478.19</ele>
        <time>2018-05-26T09:05:07Z</time>
      </trkpt>
      <trkpt lat="45.28167" lon="6.62279">
        <ele>3479.63</ele>
        <time>2018-05-26T09:05:20Z</time>
      </trkpt>
      <trkpt lat="45.28171" lon="6.62282">
        <ele>3480.11</ele>
        <time>2018-05-26T09:05:40Z</time>
      </trkpt>
      <trkpt lat="45.28176" lon="6.62287">
        <ele>3481.07</ele>
        <time>2018-05-26T09:05:53Z</time>
      </trkpt>
      <trkpt lat="45.28178" lon="6.62289">
        <ele>3482.99</ele>
        <time>2018-05-26T09:06:05Z</time>
      </trkpt>
      <trkpt lat="45.28175" lon="6.62291">
        <ele>3483.96</ele>
        <time>2018-05-26T09:06:21Z</time>
      </trkpt>
      <trkpt lat="45.28169" lon="6.62294">
        <ele>3485.4</ele>
        <time>2018-05-26T09:06:36Z</time>
      </trkpt>
      <trkpt lat="45.28165" lon="6.62294">
        <ele>3487.32</ele>
        <time>2018-05-26T09:07:10Z</time>
      </trkpt>
      <trkpt lat="45.28163" lon="6.62294">
        <ele>3487.32</ele>
        <time>2018-05-26T09:07:26Z</time>
      </trkpt>
      <trkpt lat="45.28163" lon="6.62298">
        <ele>3487.8</ele>
        <time>2018-05-26T09:07:43Z</time>
      </trkpt>
      <trkpt lat="45.28169" lon="6.62303">
        <ele>3489.24</ele>
        <time>2018-05-26T09:07:57Z</time>
      </trkpt>
      <trkpt lat="45.28174" lon="6.62308">
        <ele>3490.2</ele>
        <time>2018-05-26T09:08:11Z</time>
      </trkpt>
      <trkpt lat="45.28179" lon="6.6231">
        <ele>3491.65</ele>
        <time>2018-05-26T09:08:24Z</time>
      </trkpt>
      <trkpt lat="45.28183" lon="6.62314">
        <ele>3492.61</ele>
        <time>2018-05-26T09:08:37Z</time>
      </trkpt>
      <trkpt lat="45.28186" lon="6.62317">
        <ele>3493.09</ele>
        <time>2018-05-26T09:08:55Z</time>
      </trkpt>
      <trkpt lat="45.28192" lon="6.62319">
        <ele>3495.01</ele>
        <time>2018-05-26T09:09:08Z</time>
      </trkpt>
      <trkpt lat="45.2819" lon="6.62318">
        <ele>3495.49</ele>
        <time>2018-05-26T09:09:18Z</time>
      </trkpt>
      <trkpt lat="45.28185" lon="6.6232">
        <ele>3496.93</ele>
        <time>2018-05-26T09:09:32Z</time>
      </trkpt>
      <trkpt lat="45.2818" lon="6.62322">
        <ele>3498.86</ele>
        <time>2018-05-26T09:09:47Z</time>
      </trkpt>
      <trkpt lat="45.28174" lon="6.62322">
        <ele>3499.34</ele>
        <time>2018-05-26T09:10:01Z</time>
      </trkpt>
      <trkpt lat="45.2817" lon="6.62324">
        <ele>3500.78</ele>
        <time>2018-05-26T09:10:14Z</time>
      </trkpt>
      <trkpt lat="45.28165" lon="6.62324">
        <ele>3501.74</ele>
        <time>2018-05-26T09:10:27Z</time>
      </trkpt>
      <trkpt lat="45.2816" lon="6.62321">
        <ele>3502.7</ele>
        <time>2018-05-26T09:10:41Z</time>
      </trkpt>
      <trkpt lat="45.2816" lon="6.62324">
        <ele>3502.7</ele>
        <time>2018-05-26T09:10:57Z</time>
      </trkpt>
      <trkpt lat="45.28165" lon="6.62328">
        <ele>3504.14</ele>
        <time>2018-05-26T09:11:10Z</time>
      </trkpt>
      <trkpt lat="45.2817" lon="6.62329">
        <ele>3505.1</ele>
        <time>2018-05-26T09:11:24Z</time>
      </trkpt>
      <trkpt lat="45.28174" lon="6.62333">
        <ele>3506.55</ele>
        <time>2018-05-26T09:11:41Z</time>
      </trkpt>
      <trkpt lat="45.28179" lon="6.62339">
        <ele>3507.99</ele>
        <time>2018-05-26T09:11:56Z</time>
      </trkpt>
      <trkpt lat="45.28182" lon="6.62341">
        <ele>3507.99</ele>
        <time>2018-05-26T09:12:08Z</time>
      </trkpt>
      <trkpt lat="45.28179" lon="6.62343">
        <ele>3508.95</ele>
        <time>2018-05-26T09:12:21Z</time>
      </trkpt>
      <trkpt lat="45.28174" lon="6.62344">
        <ele>3510.39</ele>
        <time>2018-05-26T09:12:34Z</time>
      </trkpt>
      <trkpt lat="45.28169" lon="6.62342">
        <ele>3511.35</ele>
        <time>2018-05-26T09:12:47Z</time>
      </trkpt>
      <trkpt lat="45.28165" lon="6.62342">
        <ele>3512.31</ele>
        <time>2018-05-26T09:12:57Z</time>
      </trkpt>
      <trkpt lat="45.28163" lon="6.62343">
        <ele>3512.79</ele>
        <time>2018-05-26T09:13:11Z</time>
      </trkpt>
      <trkpt lat="45.28161" lon="6.62343">
        <ele>3513.76</ele>
        <time>2018-05-26T09:13:30Z</time>
      </trkpt>
      <trkpt lat="45.28163" lon="6.62342">
        <ele>3513.76</ele>
        <time>2018-05-26T09:13:42Z</time>
      </trkpt>
      <trkpt lat="45.28167" lon="6.62347">
        <ele>3515.2</ele>
        <time>2018-05-26T09:13:58Z</time>
      </trkpt>
      <trkpt lat="45.28172" lon="6.6235">
        <ele>3516.16</ele>
        <time>2018-05-26T09:14:11Z</time>
      </trkpt>
      <trkpt lat="45.28167" lon="6.6235">
        <ele>3517.6</ele>
        <time>2018-05-26T09:15:02Z</time>
      </trkpt>
      <trkpt lat="45.28163" lon="6.62352">
        <ele>3519.04</ele>
        <time>2018-05-26T09:15:16Z</time>
      </trkpt>
      <trkpt lat="45.28159" lon="6.62352">
        <ele>3520.97</ele>
        <time>2018-05-26T09:15:31Z</time>
      </trkpt>
      <trkpt lat="45.28159" lon="6.62352">
        <ele>3521.93</ele>
        <time>2018-05-26T09:15:43Z</time>
      </trkpt>
      <trkpt lat="45.28161" lon="6.62355">
        <ele>3522.41</ele>
        <time>2018-05-26T09:15:55Z</time>
      </trkpt>
      <trkpt lat="45.28163" lon="6.62357">
        <ele>3523.37</ele>
        <time>2018-05-26T09:16:09Z</time>
      </trkpt>
      <trkpt lat="45.28167" lon="6.62361">
        <ele>3525.29</ele>
        <time>2018-05-26T09:16:30Z</time>
      </trkpt>
      <trkpt lat="45.28171" lon="6.62364">
        <ele>3526.25</ele>
        <time>2018-05-26T09:16:45Z</time>
      </trkpt>
      <trkpt lat="45.28169" lon="6.62365">
        <ele>3526.25</ele>
        <time>2018-05-26T09:17:03Z</time>
      </trkpt>
      <trkpt lat="45.28167" lon="6.62367">
        <ele>3527.69</ele>
        <time>2018-05-26T09:17:16Z</time>
      </trkpt>
      <trkpt lat="45.28166" lon="6.62369">
        <ele>3528.18</ele>
        <time>2018-05-26T09:17:29Z</time>
      </trkpt>
      <trkpt lat="45.28166" lon="6.62367">
        <ele>3529.14</ele>
        <time>2018-05-26T09:17:43Z</time>
      </trkpt>
      <trkpt lat="45.28168" lon="6.62368">
        <ele>3529.62</ele>
        <time>2018-05-26T09:17:57Z</time>
      </trkpt>
      <trkpt lat="45.2817" lon="6.6237">
        <ele>3530.58</ele>
        <time>2018-05-26T09:18:10Z</time>
      </trkpt>
      <trkpt lat="45.28171" lon="6.62372">
        <ele>3531.06</ele>
        <time>2018-05-26T09:18:21Z</time>
      </trkpt>
      <trkpt lat="45.28172" lon="6.62372">
        <ele>3531.06</ele>
        <time>2018-05-26T09:18:53Z</time>
      </trkpt>
      <trkpt lat="45.28166" lon="6.62379">
        <ele>3536.83</ele>
        <time>2018-05-26T09:41:15Z</time>
      </trkpt>
      <trkpt lat="45.28161" lon="6.62377">
        <ele>3538.27</ele>
        <time>2018-05-26T09:41:30Z</time>
      </trkpt>
      <trkpt lat="45.28155" lon="6.62375">
        <ele>3540.19</ele>
        <time>2018-05-26T09:41:45Z</time>
      </trkpt>
      <trkpt lat="45.28151" lon="6.62373">
        <ele>3541.15</ele>
        <time>2018-05-26T09:41:59Z</time>
      </trkpt>
      <trkpt lat="45.28147" lon="6.62373">
        <ele>3542.6</ele>
        <time>2018-05-26T09:42:16Z</time>
      </trkpt>
      <trkpt lat="45.28145" lon="6.62375">
        <ele>3544.04</ele>
        <time>2018-05-26T09:42:31Z</time>
      </trkpt>
      <trkpt lat="45.28144" lon="6.62379">
        <ele>3545.48</ele>
        <time>2018-05-26T09:42:48Z</time>
      </trkpt>
      <trkpt lat="45.28146" lon="6.62381">
        <ele>3546.92</ele>
        <time>2018-05-26T09:43:01Z</time>
      </trkpt>
      <trkpt lat="45.28146" lon="6.62386">
        <ele>3549.32</ele>
        <time>2018-05-26T09:43:19Z</time>
      </trkpt>
      <trkpt lat="45.28146" lon="6.62387">
        <ele>3550.77</ele>
        <time>2018-05-26T09:43:35Z</time>
      </trkpt>
      <trkpt lat="45.28145" lon="6.62388">
        <ele>3552.69</ele>
        <time>2018-05-26T09:43:49Z</time>
      </trkpt>
      <trkpt lat="45.28145" lon="6.62391">
        <ele>3554.13</ele>
        <time>2018-05-26T09:44:05Z</time>
      </trkpt>
      <trkpt lat="45.28146" lon="6.62392">
        <ele>3556.53</ele>
        <time>2018-05-26T09:44:21Z</time>
      </trkpt>
      <trkpt lat="45.28147" lon="6.62394">
        <ele>3558.46</ele>
        <time>2018-05-26T09:44:40Z</time>
      </trkpt>
      <trkpt lat="45.28146" lon="6.62396">
        <ele>3559.9</ele>
        <time>2018-05-26T09:44:57Z</time>
      </trkpt>
      <trkpt lat="45.28147" lon="6.62399">
        <ele>3561.34</ele>
        <time>2018-05-26T09:45:12Z</time>
      </trkpt>
      <trkpt lat="45.28146" lon="6.62401">
        <ele>3562.78</ele>
        <time>2018-05-26T09:45:21Z</time>
      </trkpt>
      <trkpt lat="45.28145" lon="6.62405">
        <ele>3563.26</ele>
        <time>2018-05-26T09:45:38Z</time>
      </trkpt>
      <trkpt lat="45.28143" lon="6.62407">
        <ele>3565.19</ele>
        <time>2018-05-26T09:45:58Z</time>
      </trkpt>
      <trkpt lat="45.28137" lon="6.62403">
        <ele>3566.63</ele>
        <time>2018-05-26T09:46:13Z</time>
      </trkpt>
      <trkpt lat="45.28138" lon="6.62403">
        <ele>3565.19</ele>
        <time>2018-05-26T09:51:27Z</time>
      </trkpt>
      <trkpt lat="45.28142" lon="6.62402">
        <ele>3564.71</ele>
        <time>2018-05-26T09:57:12Z</time>
      </trkpt>
      <trkpt lat="45.28142" lon="6.62403">
        <ele>3564.71</ele>
        <time>2018-05-26T09:57:37Z</time>
      </trkpt>
      <trkpt lat="45.28144" lon="6.62403">
        <ele>3563.74</ele>
        <time>2018-05-26T09:58:03Z</time>
      </trkpt>
      <trkpt lat="45.28143" lon="6.62404">
        <ele>3564.23</ele>
        <time>2018-05-26T09:58:32Z</time>
      </trkpt>
      <trkpt lat="45.28143" lon="6.62404">
        <ele>3564.23</ele>
        <time>2018-05-26T09:59:03Z</time>
      </trkpt>
      <trkpt lat="45.28144" lon="6.62403">
        <ele>3563.74</ele>
        <time>2018-05-26T09:59:32Z</time>
      </trkpt>
      <trkpt lat="45.28143" lon="6.62404">
        <ele>3561.82</ele>
        <time>2018-05-26T09:59:46Z</time>
      </trkpt>
      <trkpt lat="45.28144" lon="6.62401">
        <ele>3561.82</ele>
        <time>2018-05-26T10:00:01Z</time>
      </trkpt>
      <trkpt lat="45.28145" lon="6.62398">
        <ele>3560.38</ele>
        <time>2018-05-26T10:00:18Z</time>
      </trkpt>
      <trkpt lat="45.28143" lon="6.62397">
        <ele>3559.42</ele>
        <time>2018-05-26T10:00:35Z</time>
      </trkpt>
      <trkpt lat="45.28142" lon="6.62395">
        <ele>3557.98</ele>
        <time>2018-05-26T10:00:50Z</time>
      </trkpt>
      <trkpt lat="45.28142" lon="6.62394">
        <ele>3557.02</ele>
        <time>2018-05-26T10:01:10Z</time>
      </trkpt>
      <trkpt lat="45.28142" lon="6.62392">
        <ele>3555.57</ele>
        <time>2018-05-26T10:01:28Z</time>
      </trkpt>
      <trkpt lat="45.28142" lon="6.62391">
        <ele>3554.13</ele>
        <time>2018-05-26T10:01:44Z</time>
      </trkpt>
      <trkpt lat="45.2814" lon="6.6239">
        <ele>3553.65</ele>
        <time>2018-05-26T10:02:00Z</time>
      </trkpt>
      <trkpt lat="45.2814" lon="6.62386">
        <ele>3551.73</ele>
        <time>2018-05-26T10:02:19Z</time>
      </trkpt>
      <trkpt lat="45.28141" lon="6.62386">
        <ele>3550.77</ele>
        <time>2018-05-26T10:02:36Z</time>
      </trkpt>
      <trkpt lat="45.28143" lon="6.62386">
        <ele>3549.32</ele>
        <time>2018-05-26T10:02:52Z</time>
      </trkpt>
      <trkpt lat="45.28143" lon="6.62383">
        <ele>3548.36</ele>
        <time>2018-05-26T10:03:08Z</time>
      </trkpt>
      <trkpt lat="45.28143" lon="6.62383">
        <ele>3546.92</ele>
        <time>2018-05-26T10:03:24Z</time>
      </trkpt>
      <trkpt lat="45.28144" lon="6.6238">
        <ele>3545.96</ele>
        <time>2018-05-26T10:03:39Z</time>
      </trkpt>
      <trkpt lat="45.28147" lon="6.62377">
        <ele>3545</ele>
        <time>2018-05-26T10:03:53Z</time>
      </trkpt>
      <trkpt lat="45.2815" lon="6.62373">
        <ele>3542.12</ele>
        <time>2018-05-26T10:04:05Z</time>
      </trkpt>
      <trkpt lat="45.28155" lon="6.62374">
        <ele>3540.19</ele>
        <time>2018-05-26T10:04:20Z</time>
      </trkpt>
      <trkpt lat="45.28162" lon="6.62374">
        <ele>3539.23</ele>
        <time>2018-05-26T10:04:36Z</time>
      </trkpt>
      <trkpt lat="45.28168" lon="6.62375">
        <ele>3538.75</ele>
        <time>2018-05-26T10:04:51Z</time>
      </trkpt>
      <trkpt lat="45.28175" lon="6.62374">
        <ele>3535.87</ele>
        <time>2018-05-26T10:05:05Z</time>
      </trkpt>
      <trkpt lat="45.28163" lon="6.62372">
        <ele>3535.87</ele>
        <time>2018-05-26T10:15:52Z</time>
      </trkpt>
      <trkpt lat="45.28159" lon="6.62367">
        <ele>3534.42</ele>
        <time>2018-05-26T10:15:58Z</time>
      </trkpt>
      <trkpt lat="45.28157" lon="6.62365">
        <ele>3532.98</ele>
        <time>2018-05-26T10:16:00Z</time>
      </trkpt>
      <trkpt lat="45.28164" lon="6.62357">
        <ele>3529.62</ele>
        <time>2018-05-26T10:16:04Z</time>
      </trkpt>
      <trkpt lat="45.28166" lon="6.62356">
        <ele>3528.66</ele>
        <time>2018-05-26T10:16:05Z</time>
      </trkpt>
      <trkpt lat="45.28168" lon="6.62358">
        <ele>3528.18</ele>
        <time>2018-05-26T10:16:07Z</time>
      </trkpt>
      <trkpt lat="45.28168" lon="6.62352">
        <ele>3522.89</ele>
        <time>2018-05-26T10:16:11Z</time>
      </trkpt>
      <trkpt lat="45.28167" lon="6.62349">
        <ele>3521.93</ele>
        <time>2018-05-26T10:16:13Z</time>
      </trkpt>
      <trkpt lat="45.2817" lon="6.62345">
        <ele>3518.08</ele>
        <time>2018-05-26T10:16:15Z</time>
      </trkpt>
      <trkpt lat="45.28174" lon="6.62345">
        <ele>3517.12</ele>
        <time>2018-05-26T10:16:17Z</time>
      </trkpt>
      <trkpt lat="45.28175" lon="6.62344">
        <ele>3516.64</ele>
        <time>2018-05-26T10:16:18Z</time>
      </trkpt>
      <trkpt lat="45.28176" lon="6.62342">
        <ele>3515.68</ele>
        <time>2018-05-26T10:16:20Z</time>
      </trkpt>
      <trkpt lat="45.28171" lon="6.62335">
        <ele>3511.35</ele>
        <time>2018-05-26T10:16:24Z</time>
      </trkpt>
      <trkpt lat="45.28169" lon="6.62333">
        <ele>3511.35</ele>
        <time>2018-05-26T10:16:25Z</time>
      </trkpt>
      <trkpt lat="45.28174" lon="6.62324">
        <ele>3505.58</ele>
        <time>2018-05-26T10:16:29Z</time>
      </trkpt>
      <trkpt lat="45.28177" lon="6.62323">
        <ele>3504.62</ele>
        <time>2018-05-26T10:16:31Z</time>
      </trkpt>
      <trkpt lat="45.28171" lon="6.62314">
        <ele>3499.82</ele>
        <time>2018-05-26T10:16:36Z</time>
      </trkpt>
      <trkpt lat="45.28171" lon="6.62311">
        <ele>3496.93</ele>
        <time>2018-05-26T10:16:39Z</time>
      </trkpt>
      <trkpt lat="45.28172" lon="6.62311">
        <ele>3497.89</ele>
        <time>2018-05-26T10:16:52Z</time>
      </trkpt>
      <trkpt lat="45.28181" lon="6.62303">
        <ele>3494.53</ele>
        <time>2018-05-26T10:16:57Z</time>
      </trkpt>
      <trkpt lat="45.28176" lon="6.62298">
        <ele>3491.17</ele>
        <time>2018-05-26T10:16:59Z</time>
      </trkpt>
      <trkpt lat="45.28173" lon="6.6229">
        <ele>3487.8</ele>
        <time>2018-05-26T10:17:02Z</time>
      </trkpt>
      <trkpt lat="45.28179" lon="6.62283">
        <ele>3484.44</ele>
        <time>2018-05-26T10:17:05Z</time>
      </trkpt>
      <trkpt lat="45.28175" lon="6.62277">
        <ele>3481.55</ele>
        <time>2018-05-26T10:17:07Z</time>
      </trkpt>
      <trkpt lat="45.28167" lon="6.62272">
        <ele>3478.19</ele>
        <time>2018-05-26T10:17:10Z</time>
      </trkpt>
      <trkpt lat="45.28168" lon="6.62264">
        <ele>3473.38</ele>
        <time>2018-05-26T10:17:14Z</time>
      </trkpt>
      <trkpt lat="45.28167" lon="6.62264">
        <ele>3473.86</ele>
        <time>2018-05-26T10:17:15Z</time>
      </trkpt>
      <trkpt lat="45.28168" lon="6.62263">
        <ele>3473.86</ele>
        <time>2018-05-26T10:17:31Z</time>
      </trkpt>
      <trkpt lat="45.28168" lon="6.62261">
        <ele>3474.34</ele>
        <time>2018-05-26T10:17:46Z</time>
      </trkpt>
      <trkpt lat="45.28183" lon="6.62254">
        <ele>3470.5</ele>
        <time>2018-05-26T10:17:52Z</time>
      </trkpt>
      <trkpt lat="45.28177" lon="6.62251">
        <ele>3467.61</ele>
        <time>2018-05-26T10:17:54Z</time>
      </trkpt>
      <trkpt lat="45.28178" lon="6.6224">
        <ele>3462.81</ele>
        <time>2018-05-26T10:17:57Z</time>
      </trkpt>
      <trkpt lat="45.28183" lon="6.62236">
        <ele>3460.88</ele>
        <time>2018-05-26T10:17:59Z</time>
      </trkpt>
      <trkpt lat="45.28168" lon="6.62223">
        <ele>3455.12</ele>
        <time>2018-05-26T10:18:03Z</time>
      </trkpt>
      <trkpt lat="45.28163" lon="6.62221">
        <ele>3454.64</ele>
        <time>2018-05-26T10:18:04Z</time>
      </trkpt>
      <trkpt lat="45.2816" lon="6.62205">
        <ele>3450.31</ele>
        <time>2018-05-26T10:18:09Z</time>
      </trkpt>
      <trkpt lat="45.28162" lon="6.62201">
        <ele>3448.87</ele>
        <time>2018-05-26T10:18:10Z</time>
      </trkpt>
      <trkpt lat="45.28162" lon="6.62195">
        <ele>3445.02</ele>
        <time>2018-05-26T10:18:12Z</time>
      </trkpt>
      <trkpt lat="45.28143" lon="6.6219">
        <ele>3444.54</ele>
        <time>2018-05-26T10:18:19Z</time>
      </trkpt>
      <trkpt lat="45.28141" lon="6.62191">
        <ele>3444.54</ele>
        <time>2018-05-26T10:18:22Z</time>
      </trkpt>
      <trkpt lat="45.28135" lon="6.62185">
        <ele>3443.58</ele>
        <time>2018-05-26T10:18:26Z</time>
      </trkpt>
      <trkpt lat="45.2813" lon="6.6218">
        <ele>3442.62</ele>
        <time>2018-05-26T10:18:29Z</time>
      </trkpt>
      <trkpt lat="45.28142" lon="6.62167">
        <ele>3438.29</ele>
        <time>2018-05-26T10:18:33Z</time>
      </trkpt>
      <trkpt lat="45.28147" lon="6.6216">
        <ele>3434.93</ele>
        <time>2018-05-26T10:18:35Z</time>
      </trkpt>
      <trkpt lat="45.28145" lon="6.62156">
        <ele>3432.52</ele>
        <time>2018-05-26T10:18:37Z</time>
      </trkpt>
      <trkpt lat="45.28148" lon="6.62145">
        <ele>3428.68</ele>
        <time>2018-05-26T10:18:40Z</time>
      </trkpt>
      <trkpt lat="45.28156" lon="6.62137">
        <ele>3424.83</ele>
        <time>2018-05-26T10:18:42Z</time>
      </trkpt>
      <trkpt lat="45.28152" lon="6.62129">
        <ele>3421.47</ele>
        <time>2018-05-26T10:18:44Z</time>
      </trkpt>
      <trkpt lat="45.28153" lon="6.62121">
        <ele>3416.66</ele>
        <time>2018-05-26T10:18:47Z</time>
      </trkpt>
      <trkpt lat="45.2815" lon="6.62113">
        <ele>3412.34</ele>
        <time>2018-05-26T10:18:49Z</time>
      </trkpt>
      <trkpt lat="45.28144" lon="6.62109">
        <ele>3408.49</ele>
        <time>2018-05-26T10:18:51Z</time>
      </trkpt>
      <trkpt lat="45.2814" lon="6.62106">
        <ele>3409.93</ele>
        <time>2018-05-26T10:19:00Z</time>
      </trkpt>
      <trkpt lat="45.28138" lon="6.62103">
        <ele>3408.97</ele>
        <time>2018-05-26T10:19:14Z</time>
      </trkpt>
      <trkpt lat="45.28128" lon="6.62094">
        <ele>3405.61</ele>
        <time>2018-05-26T10:19:18Z</time>
      </trkpt>
      <trkpt lat="45.28122" lon="6.62091">
        <ele>3404.65</ele>
        <time>2018-05-26T10:19:20Z</time>
      </trkpt>
      <trkpt lat="45.28123" lon="6.62078">
        <ele>3399.36</ele>
        <time>2018-05-26T10:19:23Z</time>
      </trkpt>
      <trkpt lat="45.28131" lon="6.62071">
        <ele>3395.03</ele>
        <time>2018-05-26T10:19:25Z</time>
      </trkpt>
      <trkpt lat="45.28129" lon="6.62065">
        <ele>3389.27</ele>
        <time>2018-05-26T10:19:27Z</time>
      </trkpt>
      <trkpt lat="45.28121" lon="6.62066">
        <ele>3387.34</ele>
        <time>2018-05-26T10:19:29Z</time>
      </trkpt>
      <trkpt lat="45.28115" lon="6.62067">
        <ele>3386.38</ele>
        <time>2018-05-26T10:19:31Z</time>
      </trkpt>
      <trkpt lat="45.28118" lon="6.62058">
        <ele>3380.61</ele>
        <time>2018-05-26T10:19:34Z</time>
      </trkpt>
      <trkpt lat="45.28122" lon="6.6205">
        <ele>3375.81</ele>
        <time>2018-05-26T10:19:36Z</time>
      </trkpt>
      <trkpt lat="45.28118" lon="6.6205">
        <ele>3373.4</ele>
        <time>2018-05-26T10:19:38Z</time>
      </trkpt>
      <trkpt lat="45.28118" lon="6.62041">
        <ele>3368.6</ele>
        <time>2018-05-26T10:19:41Z</time>
      </trkpt>
      <trkpt lat="45.2812" lon="6.62038">
        <ele>3366.67</ele>
        <time>2018-05-26T10:19:42Z</time>
      </trkpt>
      <trkpt lat="45.28125" lon="6.62033">
        <ele>3365.71</ele>
        <time>2018-05-26T10:19:44Z</time>
      </trkpt>
      <trkpt lat="45.28132" lon="6.62025">
        <ele>3363.31</ele>
        <time>2018-05-26T10:19:46Z</time>
      </trkpt>
      <trkpt lat="45.28134" lon="6.62019">
        <ele>3359.95</ele>
        <time>2018-05-26T10:19:48Z</time>
      </trkpt>
      <trkpt lat="45.28114" lon="6.6201">
        <ele>3359.95</ele>
        <time>2018-05-26T10:19:55Z</time>
      </trkpt>
      <trkpt lat="45.28105" lon="6.62009">
        <ele>3359.46</ele>
        <time>2018-05-26T10:20:20Z</time>
      </trkpt>
      <trkpt lat="45.28102" lon="6.62001">
        <ele>3358.02</ele>
        <time>2018-05-26T10:20:23Z</time>
      </trkpt>
      <trkpt lat="45.28109" lon="6.61992">
        <ele>3355.14</ele>
        <time>2018-05-26T10:20:25Z</time>
      </trkpt>
      <trkpt lat="45.28119" lon="6.6198">
        <ele>3347.93</ele>
        <time>2018-05-26T10:20:29Z</time>
      </trkpt>
      <trkpt lat="45.28121" lon="6.61975">
        <ele>3345.04</ele>
        <time>2018-05-26T10:20:30Z</time>
      </trkpt>
      <trkpt lat="45.28125" lon="6.61972">
        <ele>3341.2</ele>
        <time>2018-05-26T10:20:31Z</time>
      </trkpt>
      <trkpt lat="45.28137" lon="6.61972">
        <ele>3337.83</ele>
        <time>2018-05-26T10:20:34Z</time>
      </trkpt>
      <trkpt lat="45.28141" lon="6.6197">
        <ele>3333.99</ele>
        <time>2018-05-26T10:20:36Z</time>
      </trkpt>
      <trkpt lat="45.28139" lon="6.61969">
        <ele>3331.11</ele>
        <time>2018-05-26T10:20:37Z</time>
      </trkpt>
      <trkpt lat="45.28133" lon="6.61964">
        <ele>3328.22</ele>
        <time>2018-05-26T10:20:39Z</time>
      </trkpt>
      <trkpt lat="45.28137" lon="6.61954">
        <ele>3320.05</ele>
        <time>2018-05-26T10:20:42Z</time>
      </trkpt>
      <trkpt lat="45.28133" lon="6.6195">
        <ele>3316.69</ele>
        <time>2018-05-26T10:20:44Z</time>
      </trkpt>
      <trkpt lat="45.28129" lon="6.61947">
        <ele>3315.72</ele>
        <time>2018-05-26T10:20:46Z</time>
      </trkpt>
      <trkpt lat="45.2813" lon="6.61938">
        <ele>3311.4</ele>
        <time>2018-05-26T10:20:48Z</time>
      </trkpt>
      <trkpt lat="45.28135" lon="6.61932">
        <ele>3308.03</ele>
        <time>2018-05-26T10:20:50Z</time>
      </trkpt>
      <trkpt lat="45.28141" lon="6.61924">
        <ele>3305.63</ele>
        <time>2018-05-26T10:20:53Z</time>
      </trkpt>
      <trkpt lat="45.28131" lon="6.61906">
        <ele>3300.82</ele>
        <time>2018-05-26T10:21:09Z</time>
      </trkpt>
      <trkpt lat="45.28131" lon="6.61906">
        <ele>3304.19</ele>
        <time>2018-05-26T10:21:10Z</time>
      </trkpt>
      <trkpt lat="45.28132" lon="6.61906">
        <ele>3304.19</ele>
        <time>2018-05-26T10:21:11Z</time>
      </trkpt>
      <trkpt lat="45.28126" lon="6.61906">
        <ele>3303.23</ele>
        <time>2018-05-26T10:21:14Z</time>
      </trkpt>
      <trkpt lat="45.28133" lon="6.61888">
        <ele>3297.94</ele>
        <time>2018-05-26T10:21:18Z</time>
      </trkpt>
      <trkpt lat="45.28134" lon="6.61875">
        <ele>3294.09</ele>
        <time>2018-05-26T10:21:20Z</time>
      </trkpt>
      <trkpt lat="45.28141" lon="6.61863">
        <ele>3288.81</ele>
        <time>2018-05-26T10:21:22Z</time>
      </trkpt>
      <trkpt lat="45.28143" lon="6.61852">
        <ele>3284</ele>
        <time>2018-05-26T10:21:24Z</time>
      </trkpt>
      <trkpt lat="45.28141" lon="6.61841">
        <ele>3280.64</ele>
        <time>2018-05-26T10:21:26Z</time>
      </trkpt>
      <trkpt lat="45.28146" lon="6.61837">
        <ele>3276.31</ele>
        <time>2018-05-26T10:21:28Z</time>
      </trkpt>
      <trkpt lat="45.28147" lon="6.61839">
        <ele>3275.35</ele>
        <time>2018-05-26T10:21:29Z</time>
      </trkpt>
      <trkpt lat="45.28145" lon="6.61847">
        <ele>3274.87</ele>
        <time>2018-05-26T10:21:40Z</time>
      </trkpt>
      <trkpt lat="45.28148" lon="6.61835">
        <ele>3272.46</ele>
        <time>2018-05-26T10:21:43Z</time>
      </trkpt>
      <trkpt lat="45.28148" lon="6.61829">
        <ele>3270.54</ele>
        <time>2018-05-26T10:21:44Z</time>
      </trkpt>
      <trkpt lat="45.28159" lon="6.61817">
        <ele>3264.29</ele>
        <time>2018-05-26T10:21:47Z</time>
      </trkpt>
      <trkpt lat="45.28165" lon="6.61808">
        <ele>3260.45</ele>
        <time>2018-05-26T10:21:49Z</time>
      </trkpt>
      <trkpt lat="45.28166" lon="6.61802">
        <ele>3258.05</ele>
        <time>2018-05-26T10:21:50Z</time>
      </trkpt>
      <trkpt lat="45.28159" lon="6.61785">
        <ele>3252.76</ele>
        <time>2018-05-26T10:21:54Z</time>
      </trkpt>
      <trkpt lat="45.28149" lon="6.61783">
        <ele>3251.8</ele>
        <time>2018-05-26T10:22:05Z</time>
      </trkpt>
      <trkpt lat="45.28149" lon="6.61784">
        <ele>3251.8</ele>
        <time>2018-05-26T10:22:16Z</time>
      </trkpt>
      <trkpt lat="45.28142" lon="6.61768">
        <ele>3247.95</ele>
        <time>2018-05-26T10:22:21Z</time>
      </trkpt>
      <trkpt lat="45.28135" lon="6.61749">
        <ele>3244.59</ele>
        <time>2018-05-26T10:22:26Z</time>
      </trkpt>
      <trkpt lat="45.28134" lon="6.61746">
        <ele>3244.11</ele>
        <time>2018-05-26T10:22:27Z</time>
      </trkpt>
      <trkpt lat="45.28135" lon="6.6174">
        <ele>3242.18</ele>
        <time>2018-05-26T10:22:28Z</time>
      </trkpt>
      <trkpt lat="45.28144" lon="6.61732">
        <ele>3238.34</ele>
        <time>2018-05-26T10:22:30Z</time>
      </trkpt>
      <trkpt lat="45.28149" lon="6.6173">
        <ele>3236.42</ele>
        <time>2018-05-26T10:22:31Z</time>
      </trkpt>
      <trkpt lat="45.28159" lon="6.61721">
        <ele>3231.13</ele>
        <time>2018-05-26T10:22:34Z</time>
      </trkpt>
      <trkpt lat="45.28158" lon="6.61716">
        <ele>3229.21</ele>
        <time>2018-05-26T10:22:35Z</time>
      </trkpt>
      <trkpt lat="45.28168" lon="6.61701">
        <ele>3222.48</ele>
        <time>2018-05-26T10:22:38Z</time>
      </trkpt>
      <trkpt lat="45.28174" lon="6.617">
        <ele>3219.59</ele>
        <time>2018-05-26T10:22:39Z</time>
      </trkpt>
      <trkpt lat="45.2818" lon="6.61702">
        <ele>3217.67</ele>
        <time>2018-05-26T10:22:40Z</time>
      </trkpt>
      <trkpt lat="45.2819" lon="6.617">
        <ele>3212.86</ele>
        <time>2018-05-26T10:22:42Z</time>
      </trkpt>
      <trkpt lat="45.28192" lon="6.61688">
        <ele>3209.02</ele>
        <time>2018-05-26T10:22:44Z</time>
      </trkpt>
      <trkpt lat="45.28203" lon="6.61682">
        <ele>3204.69</ele>
        <time>2018-05-26T10:22:46Z</time>
      </trkpt>
      <trkpt lat="45.28211" lon="6.6168">
        <ele>3202.29</ele>
        <time>2018-05-26T10:22:47Z</time>
      </trkpt>
      <trkpt lat="45.28227" lon="6.61654">
        <ele>3195.56</ele>
        <time>2018-05-26T10:22:51Z</time>
      </trkpt>
      <trkpt lat="45.28234" lon="6.61636">
        <ele>3192.2</ele>
        <time>2018-05-26T10:22:54Z</time>
      </trkpt>
      <trkpt lat="45.28249" lon="6.61632">
        <ele>3186.43</ele>
        <time>2018-05-26T10:22:57Z</time>
      </trkpt>
      <trkpt lat="45.28248" lon="6.61626">
        <ele>3183.06</ele>
        <time>2018-05-26T10:22:59Z</time>
      </trkpt>
      <trkpt lat="45.28241" lon="6.61623">
        <ele>3184.5</ele>
        <time>2018-05-26T10:23:13Z</time>
      </trkpt>
      <trkpt lat="45.28223" lon="6.61634">
        <ele>3184.98</ele>
        <time>2018-05-26T10:23:35Z</time>
      </trkpt>
      <trkpt lat="45.2821" lon="6.61643">
        <ele>3184.98</ele>
        <time>2018-05-26T10:23:53Z</time>
      </trkpt>
      <trkpt lat="45.28209" lon="6.61641">
        <ele>3184.98</ele>
        <time>2018-05-26T10:24:11Z</time>
      </trkpt>
      <trkpt lat="45.28204" lon="6.61635">
        <ele>3184.98</ele>
        <time>2018-05-26T10:24:39Z</time>
      </trkpt>
      <trkpt lat="45.28208" lon="6.6162">
        <ele>3181.14</ele>
        <time>2018-05-26T10:24:43Z</time>
      </trkpt>
      <trkpt lat="45.28209" lon="6.61615">
        <ele>3180.18</ele>
        <time>2018-05-26T10:24:44Z</time>
      </trkpt>
      <trkpt lat="45.28222" lon="6.61608">
        <ele>3173.93</ele>
        <time>2018-05-26T10:24:47Z</time>
      </trkpt>
      <trkpt lat="45.28229" lon="6.61607">
        <ele>3171.05</ele>
        <time>2018-05-26T10:24:49Z</time>
      </trkpt>
      <trkpt lat="45.28231" lon="6.61602">
        <ele>3167.2</ele>
        <time>2018-05-26T10:24:50Z</time>
      </trkpt>
      <trkpt lat="45.2824" lon="6.61596">
        <ele>3162.88</ele>
        <time>2018-05-26T10:24:52Z</time>
      </trkpt>
      <trkpt lat="45.2825" lon="6.61592">
        <ele>3159.99</ele>
        <time>2018-05-26T10:24:54Z</time>
      </trkpt>
      <trkpt lat="45.28252" lon="6.61585">
        <ele>3155.66</ele>
        <time>2018-05-26T10:24:55Z</time>
      </trkpt>
      <trkpt lat="45.28256" lon="6.61572">
        <ele>3150.86</ele>
        <time>2018-05-26T10:24:57Z</time>
      </trkpt>
      <trkpt lat="45.2827" lon="6.61566">
        <ele>3142.21</ele>
        <time>2018-05-26T10:25:00Z</time>
      </trkpt>
      <trkpt lat="45.28272" lon="6.6156">
        <ele>3139.8</ele>
        <time>2018-05-26T10:25:01Z</time>
      </trkpt>
      <trkpt lat="45.28285" lon="6.61543">
        <ele>3134.04</ele>
        <time>2018-05-26T10:25:05Z</time>
      </trkpt>
      <trkpt lat="45.28295" lon="6.61544">
        <ele>3130.67</ele>
        <time>2018-05-26T10:25:07Z</time>
      </trkpt>
      <trkpt lat="45.28299" lon="6.6154">
        <ele>3127.31</ele>
        <time>2018-05-26T10:25:08Z</time>
      </trkpt>
      <trkpt lat="45.28304" lon="6.61527">
        <ele>3123.94</ele>
        <time>2018-05-26T10:25:10Z</time>
      </trkpt>
      <trkpt lat="45.28311" lon="6.61527">
        <ele>3120.58</ele>
        <time>2018-05-26T10:25:12Z</time>
      </trkpt>
      <trkpt lat="45.28322" lon="6.61544">
        <ele>3116.25</ele>
        <time>2018-05-26T10:25:15Z</time>
      </trkpt>
      <trkpt lat="45.28327" lon="6.6154">
        <ele>3111.92</ele>
        <time>2018-05-26T10:25:17Z</time>
      </trkpt>
      <trkpt lat="45.28325" lon="6.61538">
        <ele>3110</ele>
        <time>2018-05-26T10:25:19Z</time>
      </trkpt>
      <trkpt lat="45.28321" lon="6.61541">
        <ele>3111.44</ele>
        <time>2018-05-26T10:25:26Z</time>
      </trkpt>
      <trkpt lat="45.28325" lon="6.61546">
        <ele>3110.96</ele>
        <time>2018-05-26T10:25:48Z</time>
      </trkpt>
      <trkpt lat="45.2832" lon="6.61542">
        <ele>3110.96</ele>
        <time>2018-05-26T10:26:04Z</time>
      </trkpt>
      <trkpt lat="45.28329" lon="6.61548">
        <ele>3107.12</ele>
        <time>2018-05-26T10:26:08Z</time>
      </trkpt>
      <trkpt lat="45.2833" lon="6.61552">
        <ele>3106.16</ele>
        <time>2018-05-26T10:26:10Z</time>
      </trkpt>
      <trkpt lat="45.28329" lon="6.61559">
        <ele>3105.68</ele>
        <time>2018-05-26T10:26:32Z</time>
      </trkpt>
      <trkpt lat="45.2833" lon="6.61559">
        <ele>3105.68</ele>
        <time>2018-05-26T10:26:34Z</time>
      </trkpt>
      <trkpt lat="45.2834" lon="6.61571">
        <ele>3101.83</ele>
        <time>2018-05-26T10:26:38Z</time>
      </trkpt>
      <trkpt lat="45.28358" lon="6.61589">
        <ele>3097.51</ele>
        <time>2018-05-26T10:26:43Z</time>
      </trkpt>
      <trkpt lat="45.28369" lon="6.61577">
        <ele>3092.7</ele>
        <time>2018-05-26T10:26:47Z</time>
      </trkpt>
      <trkpt lat="45.28371" lon="6.61557">
        <ele>3085.97</ele>
        <time>2018-05-26T10:26:51Z</time>
      </trkpt>
      <trkpt lat="45.28372" lon="6.61544">
        <ele>3081.16</ele>
        <time>2018-05-26T10:26:54Z</time>
      </trkpt>
      <trkpt lat="45.28363" lon="6.61512">
        <ele>3077.32</ele>
        <time>2018-05-26T10:27:01Z</time>
      </trkpt>
      <trkpt lat="45.28363" lon="6.61507">
        <ele>3076.84</ele>
        <time>2018-05-26T10:27:02Z</time>
      </trkpt>
      <trkpt lat="45.28369" lon="6.61505">
        <ele>3072.03</ele>
        <time>2018-05-26T10:27:05Z</time>
      </trkpt>
      <trkpt lat="45.28372" lon="6.61512">
        <ele>3071.07</ele>
        <time>2018-05-26T10:27:07Z</time>
      </trkpt>
      <trkpt lat="45.28376" lon="6.61505">
        <ele>3066.26</ele>
        <time>2018-05-26T10:27:10Z</time>
      </trkpt>
      <trkpt lat="45.28376" lon="6.61499">
        <ele>3064.82</ele>
        <time>2018-05-26T10:27:12Z</time>
      </trkpt>
      <trkpt lat="45.28376" lon="6.61497">
        <ele>3065.3</ele>
        <time>2018-05-26T10:27:29Z</time>
      </trkpt>
      <trkpt lat="45.28377" lon="6.61496">
        <ele>3064.82</ele>
        <time>2018-05-26T10:27:36Z</time>
      </trkpt>
      <trkpt lat="45.28386" lon="6.61496">
        <ele>3060.98</ele>
        <time>2018-05-26T10:27:40Z</time>
      </trkpt>
      <trkpt lat="45.28393" lon="6.61497">
        <ele>3058.09</ele>
        <time>2018-05-26T10:27:43Z</time>
      </trkpt>
      <trkpt lat="45.28392" lon="6.61487">
        <ele>3054.25</ele>
        <time>2018-05-26T10:27:45Z</time>
      </trkpt>
      <trkpt lat="45.28398" lon="6.61477">
        <ele>3049.44</ele>
        <time>2018-05-26T10:27:48Z</time>
      </trkpt>
      <trkpt lat="45.28409" lon="6.61478">
        <ele>3045.11</ele>
        <time>2018-05-26T10:27:50Z</time>
      </trkpt>
      <trkpt lat="45.28419" lon="6.6147">
        <ele>3040.31</ele>
        <time>2018-05-26T10:27:54Z</time>
      </trkpt>
      <trkpt lat="45.28427" lon="6.61465">
        <ele>3035.02</ele>
        <time>2018-05-26T10:27:56Z</time>
      </trkpt>
      <trkpt lat="45.28436" lon="6.61478">
        <ele>3032.14</ele>
        <time>2018-05-26T10:28:02Z</time>
      </trkpt>
      <trkpt lat="45.28438" lon="6.61481">
        <ele>3032.14</ele>
        <time>2018-05-26T10:28:17Z</time>
      </trkpt>
      <trkpt lat="45.28439" lon="6.61467">
        <ele>3028.77</ele>
        <time>2018-05-26T10:28:21Z</time>
      </trkpt>
      <trkpt lat="45.28437" lon="6.61464">
        <ele>3028.29</ele>
        <time>2018-05-26T10:28:23Z</time>
      </trkpt>
      <trkpt lat="45.28436" lon="6.61463">
        <ele>3028.29</ele>
        <time>2018-05-26T10:28:53Z</time>
      </trkpt>
      <trkpt lat="45.28436" lon="6.61463">
        <ele>3027.81</ele>
        <time>2018-05-26T10:28:57Z</time>
      </trkpt>
      <trkpt lat="45.28433" lon="6.61447">
        <ele>3025.89</ele>
        <time>2018-05-26T10:29:02Z</time>
      </trkpt>
      <trkpt lat="45.28441" lon="6.61446">
        <ele>3021.56</ele>
        <time>2018-05-26T10:29:05Z</time>
      </trkpt>
      <trkpt lat="45.2845" lon="6.61441">
        <ele>3015.79</ele>
        <time>2018-05-26T10:29:09Z</time>
      </trkpt>
      <trkpt lat="45.28449" lon="6.61436">
        <ele>3013.87</ele>
        <time>2018-05-26T10:29:10Z</time>
      </trkpt>
      <trkpt lat="45.28447" lon="6.6143">
        <ele>3011.47</ele>
        <time>2018-05-26T10:29:12Z</time>
      </trkpt>
      <trkpt lat="45.28453" lon="6.61427">
        <ele>3008.1</ele>
        <time>2018-05-26T10:29:15Z</time>
      </trkpt>
      <trkpt lat="45.28458" lon="6.61432">
        <ele>3006.18</ele>
        <time>2018-05-26T10:29:18Z</time>
      </trkpt>
      <trkpt lat="45.28456" lon="6.61432">
        <ele>3006.18</ele>
        <time>2018-05-26T10:29:24Z</time>
      </trkpt>
      <trkpt lat="45.28469" lon="6.61426">
        <ele>3004.26</ele>
        <time>2018-05-26T10:29:28Z</time>
      </trkpt>
      <trkpt lat="45.28482" lon="6.61426">
        <ele>2999.93</ele>
        <time>2018-05-26T10:29:31Z</time>
      </trkpt>
      <trkpt lat="45.28487" lon="6.61427">
        <ele>2997.05</ele>
        <time>2018-05-26T10:29:35Z</time>
      </trkpt>
      <trkpt lat="45.28486" lon="6.61429">
        <ele>2998.01</ele>
        <time>2018-05-26T10:29:45Z</time>
      </trkpt>
      <trkpt lat="45.28503" lon="6.61423">
        <ele>2992.24</ele>
        <time>2018-05-26T10:29:49Z</time>
      </trkpt>
      <trkpt lat="45.28516" lon="6.61421">
        <ele>2987.91</ele>
        <time>2018-05-26T10:29:51Z</time>
      </trkpt>
      <trkpt lat="45.28522" lon="6.61419">
        <ele>2985.99</ele>
        <time>2018-05-26T10:29:52Z</time>
      </trkpt>
      <trkpt lat="45.28539" lon="6.61411">
        <ele>2983.59</ele>
        <time>2018-05-26T10:29:56Z</time>
      </trkpt>
      <trkpt lat="45.28544" lon="6.61409">
        <ele>2982.63</ele>
        <time>2018-05-26T10:29:58Z</time>
      </trkpt>
      <trkpt lat="45.28555" lon="6.61408">
        <ele>2980.22</ele>
        <time>2018-05-26T10:30:08Z</time>
      </trkpt>
      <trkpt lat="45.28556" lon="6.61407">
        <ele>2980.22</ele>
        <time>2018-05-26T10:30:29Z</time>
      </trkpt>
      <trkpt lat="45.28556" lon="6.61407">
        <ele>2980.71</ele>
        <time>2018-05-26T10:30:31Z</time>
      </trkpt>
      <trkpt lat="45.28567" lon="6.614">
        <ele>2975.9</ele>
        <time>2018-05-26T10:30:36Z</time>
      </trkpt>
      <trkpt lat="45.28571" lon="6.61397">
        <ele>2975.42</ele>
        <time>2018-05-26T10:30:37Z</time>
      </trkpt>
      <trkpt lat="45.28568" lon="6.61387">
        <ele>2970.61</ele>
        <time>2018-05-26T10:30:40Z</time>
      </trkpt>
      <trkpt lat="45.28566" lon="6.61378">
        <ele>2967.25</ele>
        <time>2018-05-26T10:30:43Z</time>
      </trkpt>
      <trkpt lat="45.28577" lon="6.61364">
        <ele>2960.52</ele>
        <time>2018-05-26T10:30:48Z</time>
      </trkpt>
      <trkpt lat="45.28578" lon="6.61363">
        <ele>2959.08</ele>
        <time>2018-05-26T10:30:50Z</time>
      </trkpt>
      <trkpt lat="45.28579" lon="6.61362">
        <ele>2960.04</ele>
        <time>2018-05-26T10:31:09Z</time>
      </trkpt>
      <trkpt lat="45.2857" lon="6.61353">
        <ele>2957.63</ele>
        <time>2018-05-26T10:31:14Z</time>
      </trkpt>
      <trkpt lat="45.2857" lon="6.61341">
        <ele>2953.31</ele>
        <time>2018-05-26T10:31:17Z</time>
      </trkpt>
      <trkpt lat="45.28577" lon="6.6133">
        <ele>2949.94</ele>
        <time>2018-05-26T10:31:20Z</time>
      </trkpt>
      <trkpt lat="45.2857" lon="6.61321">
        <ele>2945.62</ele>
        <time>2018-05-26T10:31:22Z</time>
      </trkpt>
      <trkpt lat="45.28571" lon="6.61312">
        <ele>2942.73</ele>
        <time>2018-05-26T10:31:24Z</time>
      </trkpt>
      <trkpt lat="45.28575" lon="6.61295">
        <ele>2937.45</ele>
        <time>2018-05-26T10:31:28Z</time>
      </trkpt>
      <trkpt lat="45.28573" lon="6.61295">
        <ele>2937.45</ele>
        <time>2018-05-26T10:31:29Z</time>
      </trkpt>
      <trkpt lat="45.28572" lon="6.61293">
        <ele>2937.45</ele>
        <time>2018-05-26T10:31:45Z</time>
      </trkpt>
      <trkpt lat="45.28573" lon="6.61292">
        <ele>2936</ele>
        <time>2018-05-26T10:32:21Z</time>
      </trkpt>
      <trkpt lat="45.28575" lon="6.61289">
        <ele>2936</ele>
        <time>2018-05-26T10:32:31Z</time>
      </trkpt>
      <trkpt lat="45.28575" lon="6.61286">
        <ele>2935.52</ele>
        <time>2018-05-26T10:32:38Z</time>
      </trkpt>
      <trkpt lat="45.28583" lon="6.61272">
        <ele>2933.12</ele>
        <time>2018-05-26T10:32:43Z</time>
      </trkpt>
      <trkpt lat="45.28586" lon="6.61264">
        <ele>2930.24</ele>
        <time>2018-05-26T10:32:44Z</time>
      </trkpt>
      <trkpt lat="45.28595" lon="6.61242">
        <ele>2923.03</ele>
        <time>2018-05-26T10:32:46Z</time>
      </trkpt>
      <trkpt lat="45.28606" lon="6.6121">
        <ele>2911.49</ele>
        <time>2018-05-26T10:32:48Z</time>
      </trkpt>
      <trkpt lat="45.28612" lon="6.61194">
        <ele>2911.49</ele>
        <time>2018-05-26T10:32:49Z</time>
      </trkpt>
      <trkpt lat="45.28621" lon="6.61177">
        <ele>2907.16</ele>
        <time>2018-05-26T10:32:50Z</time>
      </trkpt>
      <trkpt lat="45.28627" lon="6.61164">
        <ele>2907.16</ele>
        <time>2018-05-26T10:32:51Z</time>
      </trkpt>
      <trkpt lat="45.28634" lon="6.61157">
        <ele>2907.65</ele>
        <time>2018-05-26T10:32:52Z</time>
      </trkpt>
      <trkpt lat="45.28643" lon="6.61152">
        <ele>2907.16</ele>
        <time>2018-05-26T10:32:53Z</time>
      </trkpt>
      <trkpt lat="45.28632" lon="6.61177">
        <ele>2907.65</ele>
        <time>2018-05-26T10:32:59Z</time>
      </trkpt>
      <trkpt lat="45.28602" lon="6.61197">
        <ele>2907.16</ele>
        <time>2018-05-26T10:33:13Z</time>
      </trkpt>
      <trkpt lat="45.28597" lon="6.612">
        <ele>2907.16</ele>
        <time>2018-05-26T10:33:31Z</time>
      </trkpt>
      <trkpt lat="45.28596" lon="6.61202">
        <ele>2907.65</ele>
        <time>2018-05-26T10:33:48Z</time>
      </trkpt>
      <trkpt lat="45.28597" lon="6.61202">
        <ele>2907.16</ele>
        <time>2018-05-26T10:34:06Z</time>
      </trkpt>
      <trkpt lat="45.28599" lon="6.61204">
        <ele>2907.16</ele>
        <time>2018-05-26T10:34:22Z</time>
      </trkpt>
      <trkpt lat="45.28601" lon="6.61205">
        <ele>2907.16</ele>
        <time>2018-05-26T10:34:42Z</time>
      </trkpt>
      <trkpt lat="45.28602" lon="6.61202">
        <ele>2907.16</ele>
        <time>2018-05-26T10:35:05Z</time>
      </trkpt>
      <trkpt lat="45.28601" lon="6.61204">
        <ele>2906.2</ele>
        <time>2018-05-26T10:35:26Z</time>
      </trkpt>
      <trkpt lat="45.28599" lon="6.61203">
        <ele>2907.65</ele>
        <time>2018-05-26T10:35:41Z</time>
      </trkpt>
      <trkpt lat="45.286" lon="6.61203">
        <ele>2906.68</ele>
        <time>2018-05-26T10:35:43Z</time>
      </trkpt>
      <trkpt lat="45.28601" lon="6.61202">
        <ele>2906.2</ele>
        <time>2018-05-26T10:35:44Z</time>
      </trkpt>
      <trkpt lat="45.28615" lon="6.61181">
        <ele>2902.84</ele>
        <time>2018-05-26T10:35:54Z</time>
      </trkpt>
      <trkpt lat="45.28616" lon="6.61178">
        <ele>2902.36</ele>
        <time>2018-05-26T10:35:55Z</time>
      </trkpt>
      <trkpt lat="45.2863" lon="6.61152">
        <ele>2898.99</ele>
        <time>2018-05-26T10:36:02Z</time>
      </trkpt>
      <trkpt lat="45.28633" lon="6.61148">
        <ele>2899.47</ele>
        <time>2018-05-26T10:36:03Z</time>
      </trkpt>
      <trkpt lat="45.28646" lon="6.61127">
        <ele>2896.59</ele>
        <time>2018-05-26T10:36:09Z</time>
      </trkpt>
      <trkpt lat="45.28657" lon="6.61094">
        <ele>2895.15</ele>
        <time>2018-05-26T10:36:22Z</time>
      </trkpt>
      <trkpt lat="45.28657" lon="6.61077">
        <ele>2894.67</ele>
        <time>2018-05-26T10:36:34Z</time>
      </trkpt>
      <trkpt lat="45.28657" lon="6.61075">
        <ele>2895.15</ele>
        <time>2018-05-26T10:36:35Z</time>
      </trkpt>
      <trkpt lat="45.28656" lon="6.61047">
        <ele>2894.67</ele>
        <time>2018-05-26T10:36:51Z</time>
      </trkpt>
      <trkpt lat="45.28658" lon="6.61016">
        <ele>2892.74</ele>
        <time>2018-05-26T10:37:02Z</time>
      </trkpt>
      <trkpt lat="45.2866" lon="6.61009">
        <ele>2891.78</ele>
        <time>2018-05-26T10:37:04Z</time>
      </trkpt>
      <trkpt lat="45.28665" lon="6.60976">
        <ele>2888.9</ele>
        <time>2018-05-26T10:37:09Z</time>
      </trkpt>
      <trkpt lat="45.28666" lon="6.60962">
        <ele>2887.46</ele>
        <time>2018-05-26T10:37:11Z</time>
      </trkpt>
      <trkpt lat="45.28669" lon="6.60935">
        <ele>2883.61</ele>
        <time>2018-05-26T10:37:15Z</time>
      </trkpt>
      <trkpt lat="45.28669" lon="6.6093">
        <ele>2883.13</ele>
        <time>2018-05-26T10:37:16Z</time>
      </trkpt>
      <trkpt lat="45.28666" lon="6.60912">
        <ele>2881.21</ele>
        <time>2018-05-26T10:37:19Z</time>
      </trkpt>
      <trkpt lat="45.28665" lon="6.60895">
        <ele>2878.81</ele>
        <time>2018-05-26T10:37:22Z</time>
      </trkpt>
      <trkpt lat="45.28665" lon="6.60881">
        <ele>2875.44</ele>
        <time>2018-05-26T10:37:24Z</time>
      </trkpt>
      <trkpt lat="45.28667" lon="6.60859">
        <ele>2871.6</ele>
        <time>2018-05-26T10:37:27Z</time>
      </trkpt>
      <trkpt lat="45.28668" lon="6.60852">
        <ele>2869.67</ele>
        <time>2018-05-26T10:37:28Z</time>
      </trkpt>
      <trkpt lat="45.28677" lon="6.6083">
        <ele>2865.83</ele>
        <time>2018-05-26T10:37:31Z</time>
      </trkpt>
      <trkpt lat="45.28691" lon="6.60812">
        <ele>2861.5</ele>
        <time>2018-05-26T10:37:34Z</time>
      </trkpt>
      <trkpt lat="45.287" lon="6.60801">
        <ele>2858.14</ele>
        <time>2018-05-26T10:37:36Z</time>
      </trkpt>
      <trkpt lat="45.28704" lon="6.60796">
        <ele>2857.18</ele>
        <time>2018-05-26T10:37:37Z</time>
      </trkpt>
      <trkpt lat="45.28717" lon="6.60769">
        <ele>2854.29</ele>
        <time>2018-05-26T10:37:46Z</time>
      </trkpt>
      <trkpt lat="45.28719" lon="6.60741">
        <ele>2853.81</ele>
        <time>2018-05-26T10:37:57Z</time>
      </trkpt>
      <trkpt lat="45.28718" lon="6.60707">
        <ele>2853.33</ele>
        <time>2018-05-26T10:38:07Z</time>
      </trkpt>
      <trkpt lat="45.28716" lon="6.60685">
        <ele>2849</ele>
        <time>2018-05-26T10:38:12Z</time>
      </trkpt>
      <trkpt lat="45.28716" lon="6.60679">
        <ele>2848.52</ele>
        <time>2018-05-26T10:38:13Z</time>
      </trkpt>
      <trkpt lat="45.28714" lon="6.60644">
        <ele>2847.56</ele>
        <time>2018-05-26T10:38:23Z</time>
      </trkpt>
      <trkpt lat="45.28717" lon="6.60646">
        <ele>2847.08</ele>
        <time>2018-05-26T10:38:35Z</time>
      </trkpt>
      <trkpt lat="45.28716" lon="6.60646">
        <ele>2847.08</ele>
        <time>2018-05-26T10:38:52Z</time>
      </trkpt>
      <trkpt lat="45.28716" lon="6.60647">
        <ele>2847.08</ele>
        <time>2018-05-26T10:39:14Z</time>
      </trkpt>
      <trkpt lat="45.28717" lon="6.60646">
        <ele>2847.08</ele>
        <time>2018-05-26T10:39:37Z</time>
      </trkpt>
      <trkpt lat="45.28715" lon="6.60646">
        <ele>2846.6</ele>
        <time>2018-05-26T10:40:04Z</time>
      </trkpt>
      <trkpt lat="45.28716" lon="6.60647">
        <ele>2846.6</ele>
        <time>2018-05-26T10:40:27Z</time>
      </trkpt>
      <trkpt lat="45.28715" lon="6.60647">
        <ele>2846.12</ele>
        <time>2018-05-26T10:40:45Z</time>
      </trkpt>
      <trkpt lat="45.28715" lon="6.60647">
        <ele>2846.12</ele>
        <time>2018-05-26T10:41:02Z</time>
      </trkpt>
      <trkpt lat="45.28717" lon="6.60647">
        <ele>2846.12</ele>
        <time>2018-05-26T10:41:23Z</time>
      </trkpt>
      <trkpt lat="45.28726" lon="6.60627">
        <ele>2841.79</ele>
        <time>2018-05-26T10:41:38Z</time>
      </trkpt>
      <trkpt lat="45.28729" lon="6.60623">
        <ele>2842.28</ele>
        <time>2018-05-26T10:41:39Z</time>
      </trkpt>
      <trkpt lat="45.28732" lon="6.60619">
        <ele>2840.83</ele>
        <time>2018-05-26T10:41:40Z</time>
      </trkpt>
      <trkpt lat="45.28735" lon="6.60599">
        <ele>2836.99</ele>
        <time>2018-05-26T10:41:44Z</time>
      </trkpt>
      <trkpt lat="45.28727" lon="6.60597">
        <ele>2835.55</ele>
        <time>2018-05-26T10:41:46Z</time>
      </trkpt>
      <trkpt lat="45.28723" lon="6.6059">
        <ele>2832.18</ele>
        <time>2018-05-26T10:41:48Z</time>
      </trkpt>
      <trkpt lat="45.28725" lon="6.60585">
        <ele>2831.7</ele>
        <time>2018-05-26T10:41:49Z</time>
      </trkpt>
      <trkpt lat="45.28721" lon="6.60565">
        <ele>2826.89</ele>
        <time>2018-05-26T10:41:54Z</time>
      </trkpt>
      <trkpt lat="45.28717" lon="6.60563">
        <ele>2825.93</ele>
        <time>2018-05-26T10:41:55Z</time>
      </trkpt>
      <trkpt lat="45.28709" lon="6.6054">
        <ele>2820.16</ele>
        <time>2018-05-26T10:42:00Z</time>
      </trkpt>
      <trkpt lat="45.28708" lon="6.60535">
        <ele>2819.68</ele>
        <time>2018-05-26T10:42:01Z</time>
      </trkpt>
      <trkpt lat="45.2871" lon="6.60518">
        <ele>2814.4</ele>
        <time>2018-05-26T10:42:06Z</time>
      </trkpt>
      <trkpt lat="45.28711" lon="6.60514">
        <ele>2813.92</ele>
        <time>2018-05-26T10:42:21Z</time>
      </trkpt>
      <trkpt lat="45.28702" lon="6.60502">
        <ele>2810.55</ele>
        <time>2018-05-26T10:42:26Z</time>
      </trkpt>
      <trkpt lat="45.28699" lon="6.60498">
        <ele>2810.07</ele>
        <time>2018-05-26T10:42:27Z</time>
      </trkpt>
      <trkpt lat="45.28702" lon="6.60475">
        <ele>2804.78</ele>
        <time>2018-05-26T10:42:31Z</time>
      </trkpt>
      <trkpt lat="45.287" lon="6.6046">
        <ele>2801.9</ele>
        <time>2018-05-26T10:42:33Z</time>
      </trkpt>
      <trkpt lat="45.28698" lon="6.60443">
        <ele>2798.05</ele>
        <time>2018-05-26T10:42:35Z</time>
      </trkpt>
      <trkpt lat="45.28698" lon="6.60432">
        <ele>2795.65</ele>
        <time>2018-05-26T10:42:36Z</time>
      </trkpt>
      <trkpt lat="45.28699" lon="6.60396">
        <ele>2790.84</ele>
        <time>2018-05-26T10:42:39Z</time>
      </trkpt>
      <trkpt lat="45.28698" lon="6.60363">
        <ele>2787</ele>
        <time>2018-05-26T10:42:42Z</time>
      </trkpt>
      <trkpt lat="45.28697" lon="6.60335">
        <ele>2784.12</ele>
        <time>2018-05-26T10:42:45Z</time>
      </trkpt>
      <trkpt lat="45.28697" lon="6.60286">
        <ele>2781.23</ele>
        <time>2018-05-26T10:42:51Z</time>
      </trkpt>
      <trkpt lat="45.28695" lon="6.60272">
        <ele>2778.83</ele>
        <time>2018-05-26T10:42:53Z</time>
      </trkpt>
      <trkpt lat="45.28679" lon="6.60238">
        <ele>2774.98</ele>
        <time>2018-05-26T10:42:59Z</time>
      </trkpt>
      <trkpt lat="45.28679" lon="6.60224">
        <ele>2771.62</ele>
        <time>2018-05-26T10:43:01Z</time>
      </trkpt>
      <trkpt lat="45.28674" lon="6.60207">
        <ele>2768.25</ele>
        <time>2018-05-26T10:43:04Z</time>
      </trkpt>
      <trkpt lat="45.28681" lon="6.60197">
        <ele>2764.89</ele>
        <time>2018-05-26T10:43:06Z</time>
      </trkpt>
      <trkpt lat="45.2869" lon="6.60171">
        <ele>2758.64</ele>
        <time>2018-05-26T10:43:11Z</time>
      </trkpt>
      <trkpt lat="45.28694" lon="6.60158">
        <ele>2754.31</ele>
        <time>2018-05-26T10:43:14Z</time>
      </trkpt>
      <trkpt lat="45.28703" lon="6.60132">
        <ele>2749.51</ele>
        <time>2018-05-26T10:43:17Z</time>
      </trkpt>
      <trkpt lat="45.28717" lon="6.60094">
        <ele>2740.38</ele>
        <time>2018-05-26T10:43:20Z</time>
      </trkpt>
      <trkpt lat="45.28723" lon="6.60081">
        <ele>2737.49</ele>
        <time>2018-05-26T10:43:21Z</time>
      </trkpt>
      <trkpt lat="45.28733" lon="6.60055">
        <ele>2734.61</ele>
        <time>2018-05-26T10:43:23Z</time>
      </trkpt>
      <trkpt lat="45.2875" lon="6.59985">
        <ele>2731.24</ele>
        <time>2018-05-26T10:43:33Z</time>
      </trkpt>
      <trkpt lat="45.28758" lon="6.59963">
        <ele>2728.36</ele>
        <time>2018-05-26T10:43:37Z</time>
      </trkpt>
      <trkpt lat="45.28762" lon="6.59949">
        <ele>2727.4</ele>
        <time>2018-05-26T10:43:39Z</time>
      </trkpt>
      <trkpt lat="45.28761" lon="6.59929">
        <ele>2724.51</ele>
        <time>2018-05-26T10:43:42Z</time>
      </trkpt>
      <trkpt lat="45.28766" lon="6.59901">
        <ele>2720.19</ele>
        <time>2018-05-26T10:43:47Z</time>
      </trkpt>
      <trkpt lat="45.28765" lon="6.59898">
        <ele>2720.19</ele>
        <time>2018-05-26T10:43:48Z</time>
      </trkpt>
      <trkpt lat="45.28764" lon="6.59899">
        <ele>2721.15</ele>
        <time>2018-05-26T10:44:01Z</time>
      </trkpt>
      <trkpt lat="45.28764" lon="6.59897">
        <ele>2720.19</ele>
        <time>2018-05-26T10:44:15Z</time>
      </trkpt>
      <trkpt lat="45.28776" lon="6.59889">
        <ele>2717.3</ele>
        <time>2018-05-26T10:44:22Z</time>
      </trkpt>
      <trkpt lat="45.28793" lon="6.59891">
        <ele>2715.86</ele>
        <time>2018-05-26T10:44:27Z</time>
      </trkpt>
      <trkpt lat="45.28807" lon="6.59888">
        <ele>2712.98</ele>
        <time>2018-05-26T10:44:30Z</time>
      </trkpt>
      <trkpt lat="45.28814" lon="6.59888">
        <ele>2712.02</ele>
        <time>2018-05-26T10:44:32Z</time>
      </trkpt>
      <trkpt lat="45.28825" lon="6.5987">
        <ele>2707.69</ele>
        <time>2018-05-26T10:44:36Z</time>
      </trkpt>
      <trkpt lat="45.28842" lon="6.59848">
        <ele>2700.96</ele>
        <time>2018-05-26T10:44:40Z</time>
      </trkpt>
      <trkpt lat="45.28851" lon="6.59834">
        <ele>2696.64</ele>
        <time>2018-05-26T10:44:42Z</time>
      </trkpt>
      <trkpt lat="45.28857" lon="6.59828">
        <ele>2695.67</ele>
        <time>2018-05-26T10:44:43Z</time>
      </trkpt>
      <trkpt lat="45.28872" lon="6.59816">
        <ele>2693.27</ele>
        <time>2018-05-26T10:44:46Z</time>
      </trkpt>
      <trkpt lat="45.28881" lon="6.59804">
        <ele>2692.31</ele>
        <time>2018-05-26T10:44:49Z</time>
      </trkpt>
      <trkpt lat="45.2889" lon="6.59779">
        <ele>2688.46</ele>
        <time>2018-05-26T10:44:53Z</time>
      </trkpt>
      <trkpt lat="45.28892" lon="6.59771">
        <ele>2687.02</ele>
        <time>2018-05-26T10:44:54Z</time>
      </trkpt>
      <trkpt lat="45.28903" lon="6.5975">
        <ele>2682.7</ele>
        <time>2018-05-26T10:44:57Z</time>
      </trkpt>
      <trkpt lat="45.28911" lon="6.59738">
        <ele>2681.25</ele>
        <time>2018-05-26T10:44:59Z</time>
      </trkpt>
      <trkpt lat="45.28923" lon="6.59716">
        <ele>2676.45</ele>
        <time>2018-05-26T10:45:02Z</time>
      </trkpt>
      <trkpt lat="45.28935" lon="6.59683">
        <ele>2673.08</ele>
        <time>2018-05-26T10:45:06Z</time>
      </trkpt>
      <trkpt lat="45.28948" lon="6.59655">
        <ele>2671.16</ele>
        <time>2018-05-26T10:45:11Z</time>
      </trkpt>
      <trkpt lat="45.28958" lon="6.59622">
        <ele>2669.24</ele>
        <time>2018-05-26T10:45:19Z</time>
      </trkpt>
      <trkpt lat="45.28964" lon="6.59616">
        <ele>2668.28</ele>
        <time>2018-05-26T10:45:29Z</time>
      </trkpt>
      <trkpt lat="45.28965" lon="6.59612">
        <ele>2667.31</ele>
        <time>2018-05-26T10:45:44Z</time>
      </trkpt>
      <trkpt lat="45.28966" lon="6.59596">
        <ele>2664.43</ele>
        <time>2018-05-26T10:45:50Z</time>
      </trkpt>
      <trkpt lat="45.28968" lon="6.59598">
        <ele>2664.43</ele>
        <time>2018-05-26T10:46:07Z</time>
      </trkpt>
      <trkpt lat="45.28968" lon="6.59597">
        <ele>2663.47</ele>
        <time>2018-05-26T10:46:12Z</time>
      </trkpt>
      <trkpt lat="45.28985" lon="6.59581">
        <ele>2660.59</ele>
        <time>2018-05-26T10:46:23Z</time>
      </trkpt>
      <trkpt lat="45.28986" lon="6.59573">
        <ele>2659.14</ele>
        <time>2018-05-26T10:46:25Z</time>
      </trkpt>
      <trkpt lat="45.28985" lon="6.59573">
        <ele>2657.7</ele>
        <time>2018-05-26T10:46:36Z</time>
      </trkpt>
      <trkpt lat="45.28985" lon="6.59572">
        <ele>2657.7</ele>
        <time>2018-05-26T10:46:40Z</time>
      </trkpt>
      <trkpt lat="45.28986" lon="6.59569">
        <ele>2656.74</ele>
        <time>2018-05-26T10:46:56Z</time>
      </trkpt>
      <trkpt lat="45.28986" lon="6.59565">
        <ele>2656.26</ele>
        <time>2018-05-26T10:47:09Z</time>
      </trkpt>
      <trkpt lat="45.28992" lon="6.5956">
        <ele>2652.42</ele>
        <time>2018-05-26T10:47:13Z</time>
      </trkpt>
      <trkpt lat="45.28992" lon="6.5956">
        <ele>2652.42</ele>
        <time>2018-05-26T10:47:14Z</time>
      </trkpt>
      <trkpt lat="45.28994" lon="6.59555">
        <ele>2650.97</ele>
        <time>2018-05-26T10:47:26Z</time>
      </trkpt>
      <trkpt lat="45.28994" lon="6.59554">
        <ele>2650.97</ele>
        <time>2018-05-26T10:47:28Z</time>
      </trkpt>
      <trkpt lat="45.28993" lon="6.59546">
        <ele>2648.09</ele>
        <time>2018-05-26T10:47:32Z</time>
      </trkpt>
      <trkpt lat="45.28992" lon="6.59544">
        <ele>2647.61</ele>
        <time>2018-05-26T10:47:48Z</time>
      </trkpt>
      <trkpt lat="45.28999" lon="6.59538">
        <ele>2643.76</ele>
        <time>2018-05-26T10:47:53Z</time>
      </trkpt>
      <trkpt lat="45.28999" lon="6.59534">
        <ele>2641.36</ele>
        <time>2018-05-26T10:47:56Z</time>
      </trkpt>
      <trkpt lat="45.28999" lon="6.59533">
        <ele>2641.36</ele>
        <time>2018-05-26T10:48:23Z</time>
      </trkpt>
      <trkpt lat="45.29005" lon="6.59531">
        <ele>2637.99</ele>
        <time>2018-05-26T10:48:26Z</time>
      </trkpt>
      <trkpt lat="45.29006" lon="6.59532">
        <ele>2637.51</ele>
        <time>2018-05-26T10:48:27Z</time>
      </trkpt>
      <trkpt lat="45.29012" lon="6.59537">
        <ele>2635.11</ele>
        <time>2018-05-26T10:48:32Z</time>
      </trkpt>
      <trkpt lat="45.29016" lon="6.59531">
        <ele>2630.3</ele>
        <time>2018-05-26T10:48:37Z</time>
      </trkpt>
      <trkpt lat="45.29016" lon="6.59531">
        <ele>2630.79</ele>
        <time>2018-05-26T10:48:38Z</time>
      </trkpt>
      <trkpt lat="45.29016" lon="6.59527">
        <ele>2629.34</ele>
        <time>2018-05-26T10:48:49Z</time>
      </trkpt>
      <trkpt lat="45.2902" lon="6.59525">
        <ele>2626.94</ele>
        <time>2018-05-26T10:48:53Z</time>
      </trkpt>
      <trkpt lat="45.29026" lon="6.59529">
        <ele>2623.58</ele>
        <time>2018-05-26T10:48:57Z</time>
      </trkpt>
      <trkpt lat="45.29026" lon="6.5953">
        <ele>2623.09</ele>
        <time>2018-05-26T10:48:59Z</time>
      </trkpt>
      <trkpt lat="45.29027" lon="6.59529">
        <ele>2623.58</ele>
        <time>2018-05-26T10:49:07Z</time>
      </trkpt>
      <trkpt lat="45.29031" lon="6.59518">
        <ele>2617.81</ele>
        <time>2018-05-26T10:49:11Z</time>
      </trkpt>
      <trkpt lat="45.29029" lon="6.59511">
        <ele>2616.37</ele>
        <time>2018-05-26T10:49:25Z</time>
      </trkpt>
      <trkpt lat="45.29036" lon="6.59511">
        <ele>2612.52</ele>
        <time>2018-05-26T10:49:29Z</time>
      </trkpt>
      <trkpt lat="45.29046" lon="6.59522">
        <ele>2609.16</ele>
        <time>2018-05-26T10:49:35Z</time>
      </trkpt>
      <trkpt lat="45.29051" lon="6.59529">
        <ele>2606.75</ele>
        <time>2018-05-26T10:49:40Z</time>
      </trkpt>
      <trkpt lat="45.29055" lon="6.59535">
        <ele>2605.31</ele>
        <time>2018-05-26T10:49:42Z</time>
      </trkpt>
      <trkpt lat="45.29071" lon="6.59543">
        <ele>2600.5</ele>
        <time>2018-05-26T10:49:46Z</time>
      </trkpt>
      <trkpt lat="45.29081" lon="6.59545">
        <ele>2597.14</ele>
        <time>2018-05-26T10:49:50Z</time>
      </trkpt>
      <trkpt lat="45.29081" lon="6.59545">
        <ele>2596.66</ele>
        <time>2018-05-26T10:49:52Z</time>
      </trkpt>
      <trkpt lat="45.29085" lon="6.59546">
        <ele>2596.66</ele>
        <time>2018-05-26T10:50:04Z</time>
      </trkpt>
      <trkpt lat="45.29093" lon="6.5955">
        <ele>2594.74</ele>
        <time>2018-05-26T10:50:09Z</time>
      </trkpt>
      <trkpt lat="45.29102" lon="6.59552">
        <ele>2592.81</ele>
        <time>2018-05-26T10:50:11Z</time>
      </trkpt>
      <trkpt lat="45.29117" lon="6.59546">
        <ele>2588.97</ele>
        <time>2018-05-26T10:50:15Z</time>
      </trkpt>
      <trkpt lat="45.29116" lon="6.59537">
        <ele>2589.93</ele>
        <time>2018-05-26T10:50:24Z</time>
      </trkpt>
      <trkpt lat="45.29121" lon="6.59532">
        <ele>2589.45</ele>
        <time>2018-05-26T10:50:41Z</time>
      </trkpt>
      <trkpt lat="45.29123" lon="6.59531">
        <ele>2589.45</ele>
        <time>2018-05-26T10:50:44Z</time>
      </trkpt>
      <trkpt lat="45.29145" lon="6.5953">
        <ele>2586.08</ele>
        <time>2018-05-26T10:50:53Z</time>
      </trkpt>
      <trkpt lat="45.29169" lon="6.59533">
        <ele>2583.2</ele>
        <time>2018-05-26T10:51:01Z</time>
      </trkpt>
      <trkpt lat="45.29185" lon="6.59534">
        <ele>2579.84</ele>
        <time>2018-05-26T10:51:04Z</time>
      </trkpt>
      <trkpt lat="45.29201" lon="6.59535">
        <ele>2575.99</ele>
        <time>2018-05-26T10:51:07Z</time>
      </trkpt>
      <trkpt lat="45.29206" lon="6.59536">
        <ele>2576.47</ele>
        <time>2018-05-26T10:51:08Z</time>
      </trkpt>
      <trkpt lat="45.29225" lon="6.59537">
        <ele>2572.63</ele>
        <time>2018-05-26T10:51:11Z</time>
      </trkpt>
      <trkpt lat="45.29236" lon="6.59537">
        <ele>2571.66</ele>
        <time>2018-05-26T10:51:13Z</time>
      </trkpt>
      <trkpt lat="45.29266" lon="6.59547">
        <ele>2569.74</ele>
        <time>2018-05-26T10:51:24Z</time>
      </trkpt>
      <trkpt lat="45.2927" lon="6.59545">
        <ele>2569.26</ele>
        <time>2018-05-26T10:51:36Z</time>
      </trkpt>
      <trkpt lat="45.29282" lon="6.59541">
        <ele>2565.9</ele>
        <time>2018-05-26T10:51:41Z</time>
      </trkpt>
      <trkpt lat="45.29287" lon="6.59533">
        <ele>2562.53</ele>
        <time>2018-05-26T10:51:43Z</time>
      </trkpt>
      <trkpt lat="45.29291" lon="6.59506">
        <ele>2558.69</ele>
        <time>2018-05-26T10:51:49Z</time>
      </trkpt>
      <trkpt lat="45.29301" lon="6.59505">
        <ele>2555.8</ele>
        <time>2018-05-26T10:51:51Z</time>
      </trkpt>
      <trkpt lat="45.29313" lon="6.59489">
        <ele>2551.96</ele>
        <time>2018-05-26T10:51:55Z</time>
      </trkpt>
      <trkpt lat="45.29304" lon="6.59479">
        <ele>2548.11</ele>
        <time>2018-05-26T10:51:58Z</time>
      </trkpt>
      <trkpt lat="45.29297" lon="6.59465">
        <ele>2547.15</ele>
        <time>2018-05-26T10:52:08Z</time>
      </trkpt>
      <trkpt lat="45.29297" lon="6.59441">
        <ele>2543.31</ele>
        <time>2018-05-26T10:52:13Z</time>
      </trkpt>
      <trkpt lat="45.293" lon="6.59418">
        <ele>2539.46</ele>
        <time>2018-05-26T10:52:17Z</time>
      </trkpt>
      <trkpt lat="45.293" lon="6.59405">
        <ele>2536.1</ele>
        <time>2018-05-26T10:52:20Z</time>
      </trkpt>
      <trkpt lat="45.29302" lon="6.59381">
        <ele>2531.77</ele>
        <time>2018-05-26T10:52:24Z</time>
      </trkpt>
      <trkpt lat="45.29305" lon="6.59364">
        <ele>2527.92</ele>
        <time>2018-05-26T10:52:26Z</time>
      </trkpt>
      <trkpt lat="45.29306" lon="6.59349">
        <ele>2524.56</ele>
        <time>2018-05-26T10:52:28Z</time>
      </trkpt>
      <trkpt lat="45.29317" lon="6.59341">
        <ele>2520.23</ele>
        <time>2018-05-26T10:52:32Z</time>
      </trkpt>
      <trkpt lat="45.29319" lon="6.59337">
        <ele>2518.31</ele>
        <time>2018-05-26T10:52:33Z</time>
      </trkpt>
      <trkpt lat="45.29325" lon="6.59315">
        <ele>2514.47</ele>
        <time>2018-05-26T10:52:37Z</time>
      </trkpt>
      <trkpt lat="45.29337" lon="6.59298">
        <ele>2510.14</ele>
        <time>2018-05-26T10:52:41Z</time>
      </trkpt>
      <trkpt lat="45.29343" lon="6.59283">
        <ele>2506.29</ele>
        <time>2018-05-26T10:52:44Z</time>
      </trkpt>
      <trkpt lat="45.29349" lon="6.59263">
        <ele>2500.53</ele>
        <time>2018-05-26T10:52:49Z</time>
      </trkpt>
      <trkpt lat="45.2935" lon="6.59261">
        <ele>2500.05</ele>
        <time>2018-05-26T10:53:05Z</time>
      </trkpt>
      <trkpt lat="45.29359" lon="6.59258">
        <ele>2496.68</ele>
        <time>2018-05-26T10:53:08Z</time>
      </trkpt>
      <trkpt lat="45.29363" lon="6.59244">
        <ele>2492.84</ele>
        <time>2018-05-26T10:53:11Z</time>
      </trkpt>
      <trkpt lat="45.2937" lon="6.59241">
        <ele>2489.47</ele>
        <time>2018-05-26T10:53:13Z</time>
      </trkpt>
      <trkpt lat="45.29371" lon="6.59232">
        <ele>2486.59</ele>
        <time>2018-05-26T10:53:15Z</time>
      </trkpt>
      <trkpt lat="45.29374" lon="6.59218">
        <ele>2482.26</ele>
        <time>2018-05-26T10:53:18Z</time>
      </trkpt>
      <trkpt lat="45.29376" lon="6.59205">
        <ele>2477.94</ele>
        <time>2018-05-26T10:53:20Z</time>
      </trkpt>
      <trkpt lat="45.29373" lon="6.59199">
        <ele>2476.49</ele>
        <time>2018-05-26T10:53:22Z</time>
      </trkpt>
      <trkpt lat="45.2937" lon="6.59196">
        <ele>2474.57</ele>
        <time>2018-05-26T10:53:25Z</time>
      </trkpt>
      <trkpt lat="45.29372" lon="6.59197">
        <ele>2475.53</ele>
        <time>2018-05-26T10:53:34Z</time>
      </trkpt>
      <trkpt lat="45.2937" lon="6.59181">
        <ele>2473.13</ele>
        <time>2018-05-26T10:53:38Z</time>
      </trkpt>
      <trkpt lat="45.29369" lon="6.59171">
        <ele>2470.73</ele>
        <time>2018-05-26T10:53:46Z</time>
      </trkpt>
      <trkpt lat="45.29367" lon="6.59158">
        <ele>2469.28</ele>
        <time>2018-05-26T10:53:50Z</time>
      </trkpt>
      <trkpt lat="45.29374" lon="6.59155">
        <ele>2464.48</ele>
        <time>2018-05-26T10:53:53Z</time>
      </trkpt>
      <trkpt lat="45.29379" lon="6.5916">
        <ele>2462.07</ele>
        <time>2018-05-26T10:53:55Z</time>
      </trkpt>
      <trkpt lat="45.29384" lon="6.59157">
        <ele>2460.63</ele>
        <time>2018-05-26T10:53:57Z</time>
      </trkpt>
      <trkpt lat="45.29384" lon="6.59148">
        <ele>2456.31</ele>
        <time>2018-05-26T10:53:59Z</time>
      </trkpt>
      <trkpt lat="45.2939" lon="6.59142">
        <ele>2452.46</ele>
        <time>2018-05-26T10:54:01Z</time>
      </trkpt>
      <trkpt lat="45.29411" lon="6.59143">
        <ele>2443.81</ele>
        <time>2018-05-26T10:54:05Z</time>
      </trkpt>
      <trkpt lat="45.29418" lon="6.59148">
        <ele>2440.92</ele>
        <time>2018-05-26T10:54:07Z</time>
      </trkpt>
      <trkpt lat="45.29424" lon="6.59149">
        <ele>2439.96</ele>
        <time>2018-05-26T10:54:09Z</time>
      </trkpt>
      <trkpt lat="45.29425" lon="6.59147">
        <ele>2440.44</ele>
        <time>2018-05-26T10:54:11Z</time>
      </trkpt>
      <trkpt lat="45.29431" lon="6.59131">
        <ele>2437.08</ele>
        <time>2018-05-26T10:54:15Z</time>
      </trkpt>
      <trkpt lat="45.29435" lon="6.59121">
        <ele>2435.64</ele>
        <time>2018-05-26T10:54:17Z</time>
      </trkpt>
      <trkpt lat="45.29442" lon="6.59089">
        <ele>2433.23</ele>
        <time>2018-05-26T10:54:23Z</time>
      </trkpt>
      <trkpt lat="45.29443" lon="6.59075">
        <ele>2431.79</ele>
        <time>2018-05-26T10:54:26Z</time>
      </trkpt>
      <trkpt lat="45.29449" lon="6.59038">
        <ele>2428.43</ele>
        <time>2018-05-26T10:54:37Z</time>
      </trkpt>
      <trkpt lat="45.29449" lon="6.59033">
        <ele>2428.43</ele>
        <time>2018-05-26T10:54:38Z</time>
      </trkpt>
      <trkpt lat="45.29455" lon="6.59022">
        <ele>2426.5</ele>
        <time>2018-05-26T10:54:45Z</time>
      </trkpt>
      <trkpt lat="45.29463" lon="6.59001">
        <ele>2424.1</ele>
        <time>2018-05-26T10:55:00Z</time>
      </trkpt>
      <trkpt lat="45.29466" lon="6.58992">
        <ele>2423.14</ele>
        <time>2018-05-26T10:55:02Z</time>
      </trkpt>
      <trkpt lat="45.29466" lon="6.5898">
        <ele>2422.18</ele>
        <time>2018-05-26T10:55:04Z</time>
      </trkpt>
      <trkpt lat="45.29465" lon="6.5896">
        <ele>2418.81</ele>
        <time>2018-05-26T10:55:07Z</time>
      </trkpt>
      <trkpt lat="45.29464" lon="6.58929">
        <ele>2414.01</ele>
        <time>2018-05-26T10:55:12Z</time>
      </trkpt>
      <trkpt lat="45.29465" lon="6.58923">
        <ele>2413.05</ele>
        <time>2018-05-26T10:55:13Z</time>
      </trkpt>
      <trkpt lat="45.29473" lon="6.5889">
        <ele>2409.2</ele>
        <time>2018-05-26T10:55:19Z</time>
      </trkpt>
      <trkpt lat="45.29475" lon="6.58886">
        <ele>2408.24</ele>
        <time>2018-05-26T10:55:20Z</time>
      </trkpt>
      <trkpt lat="45.29469" lon="6.58866">
        <ele>2403.43</ele>
        <time>2018-05-26T10:55:25Z</time>
      </trkpt>
      <trkpt lat="45.29474" lon="6.58845">
        <ele>2400.55</ele>
        <time>2018-05-26T10:55:29Z</time>
      </trkpt>
      <trkpt lat="45.29473" lon="6.58827">
        <ele>2397.18</ele>
        <time>2018-05-26T10:55:32Z</time>
      </trkpt>
      <trkpt lat="45.29468" lon="6.58816">
        <ele>2393.82</ele>
        <time>2018-05-26T10:55:35Z</time>
      </trkpt>
      <trkpt lat="45.29472" lon="6.588">
        <ele>2389.97</ele>
        <time>2018-05-26T10:55:38Z</time>
      </trkpt>
      <trkpt lat="45.29465" lon="6.58797">
        <ele>2388.53</ele>
        <time>2018-05-26T10:55:44Z</time>
      </trkpt>
      <trkpt lat="45.29465" lon="6.58796">
        <ele>2388.05</ele>
        <time>2018-05-26T10:55:56Z</time>
      </trkpt>
      <trkpt lat="45.29469" lon="6.58778">
        <ele>2383.73</ele>
        <time>2018-05-26T10:56:02Z</time>
      </trkpt>
      <trkpt lat="45.29465" lon="6.58764">
        <ele>2380.36</ele>
        <time>2018-05-26T10:56:05Z</time>
      </trkpt>
      <trkpt lat="45.2947" lon="6.58747">
        <ele>2375.55</ele>
        <time>2018-05-26T10:56:08Z</time>
      </trkpt>
      <trkpt lat="45.29467" lon="6.5873">
        <ele>2372.67</ele>
        <time>2018-05-26T10:56:11Z</time>
      </trkpt>
      <trkpt lat="45.29469" lon="6.58715">
        <ele>2368.35</ele>
        <time>2018-05-26T10:56:13Z</time>
      </trkpt>
      <trkpt lat="45.29465" lon="6.5871">
        <ele>2365.46</ele>
        <time>2018-05-26T10:56:14Z</time>
      </trkpt>
      <trkpt lat="45.29463" lon="6.58705">
        <ele>2365.46</ele>
        <time>2018-05-26T10:56:15Z</time>
      </trkpt>
      <trkpt lat="45.29466" lon="6.58691">
        <ele>2361.62</ele>
        <time>2018-05-26T10:56:17Z</time>
      </trkpt>
      <trkpt lat="45.29464" lon="6.58675">
        <ele>2358.73</ele>
        <time>2018-05-26T10:56:19Z</time>
      </trkpt>
      <trkpt lat="45.29462" lon="6.58659">
        <ele>2355.85</ele>
        <time>2018-05-26T10:56:21Z</time>
      </trkpt>
      <trkpt lat="45.29465" lon="6.58642">
        <ele>2354.89</ele>
        <time>2018-05-26T10:56:23Z</time>
      </trkpt>
      <trkpt lat="45.29466" lon="6.58628">
        <ele>2353.44</ele>
        <time>2018-05-26T10:56:25Z</time>
      </trkpt>
      <trkpt lat="45.29473" lon="6.58589">
        <ele>2352</ele>
        <time>2018-05-26T10:56:35Z</time>
      </trkpt>
      <trkpt lat="45.29481" lon="6.58558">
        <ele>2349.6</ele>
        <time>2018-05-26T10:56:49Z</time>
      </trkpt>
      <trkpt lat="45.29481" lon="6.58556">
        <ele>2350.08</ele>
        <time>2018-05-26T10:56:50Z</time>
      </trkpt>
      <trkpt lat="45.29479" lon="6.58554">
        <ele>2349.6</ele>
        <time>2018-05-26T10:57:05Z</time>
      </trkpt>
      <trkpt lat="45.2948" lon="6.58553">
        <ele>2341.91</ele>
        <time>2018-05-26T10:57:15Z</time>
      </trkpt>
      <trkpt lat="45.2948" lon="6.58552">
        <ele>2354.41</ele>
        <time>2018-05-26T10:57:16Z</time>
      </trkpt>
      <trkpt lat="45.2948" lon="6.58552">
        <ele>2350.08</ele>
        <time>2018-05-26T10:57:17Z</time>
      </trkpt>
      <trkpt lat="45.29479" lon="6.58553">
        <ele>2348.64</ele>
        <time>2018-05-26T10:57:19Z</time>
      </trkpt>
      <trkpt lat="45.2948" lon="6.58554">
        <ele>2348.16</ele>
        <time>2018-05-26T10:57:41Z</time>
      </trkpt>
      <trkpt lat="45.29488" lon="6.58547">
        <ele>2347.2</ele>
        <time>2018-05-26T10:57:56Z</time>
      </trkpt>
      <trkpt lat="45.29497" lon="6.58539">
        <ele>2347.2</ele>
        <time>2018-05-26T10:58:10Z</time>
      </trkpt>
      <trkpt lat="45.29504" lon="6.58536">
        <ele>2349.12</ele>
        <time>2018-05-26T10:58:21Z</time>
      </trkpt>
      <trkpt lat="45.29514" lon="6.58539">
        <ele>2350.56</ele>
        <time>2018-05-26T10:58:36Z</time>
      </trkpt>
      <trkpt lat="45.29516" lon="6.58555">
        <ele>2351.52</ele>
        <time>2018-05-26T10:58:50Z</time>
      </trkpt>
      <trkpt lat="45.29519" lon="6.5856">
        <ele>2351.04</ele>
        <time>2018-05-26T10:59:02Z</time>
      </trkpt>
      <trkpt lat="45.2952" lon="6.58561">
        <ele>2350.56</ele>
        <time>2018-05-26T10:59:22Z</time>
      </trkpt>
    </trkseg>
  </trk>
</gpx>